Provisional Data: Chemung River at West Elmira, NY


Please select a monitoring station.
Please select start date.
Please select start date.

Toggle Unit: C/F Toggle Unit: C/F
Sample Time Temperature (C) Temperature (F) Specific Conductivity (mS/cm) pH   Turbidity (NTU+) DO (mg/L)
3/7/2021 12:00:00 AM 0.82 33.476 0.233 7.81 24.37 12.35
3/7/2021 12:15:00 AM 0.81 33.458 0.234 7.8 23.42 13.16
3/7/2021 12:30:00 AM 0.79 33.422 0.234 7.79 24.89 12.75
3/7/2021 12:45:00 AM 0.77 33.386 0.235 7.78 24.76 13.11
3/7/2021 1:00:00 AM 0.75 33.35 0.234 7.77 25.04 13.25
3/7/2021 1:15:00 AM 0.73 33.314 0.233 7.76 26.02 13.23
3/7/2021 1:30:00 AM 0.71 33.278 0.235 7.75 24.33 12.77
3/7/2021 1:45:00 AM 0.69 33.242 0.235 7.74 25.07 13.55
3/7/2021 2:00:00 AM 0.68 33.224 0.234 7.73 24.94 13.13
3/7/2021 2:15:00 AM 0.66 33.188 0.233 7.71 24.99 13.34
3/7/2021 2:30:00 AM 0.65 33.17 0.233 7.71 24.57 13.84
3/7/2021 2:45:00 AM 0.64 33.152 0.233 7.7 24.93 13.13
3/7/2021 3:00:00 AM 0.63 33.134 0.233 7.69 24.61 12.77
3/7/2021 3:15:00 AM 0.62 33.116 0.234 7.68 25.03 13.48
3/7/2021 3:30:00 AM 0.61 33.098 0.234 7.68 24.34 13.14
3/7/2021 3:45:00 AM 0.6 33.08 0.234 7.67 24.99 12.86
3/7/2021 4:00:00 AM 0.59 33.062 0.234 7.66 25.36 12.86
3/7/2021 4:15:00 AM 0.58 33.044 0.233 7.65 25.25 12.46
3/7/2021 4:30:00 AM 0.57 33.026 0.233 7.65 25.02 12.64
3/7/2021 4:45:00 AM 0.56 33.008 0.234 7.64 25.1 12.75
3/7/2021 5:00:00 AM 0.55 32.99 0.234 7.63 25.57 12.87
3/7/2021 5:15:00 AM 0.53 32.954 0.233 7.63 25.07 12.69
3/7/2021 5:30:00 AM 0.51 32.918 0.234 7.62 25.35 12.24
3/7/2021 5:45:00 AM 0.5 32.9 0.233 7.62 25.64 12.86
3/7/2021 6:00:00 AM 0.47 32.846 0.233 7.61 25.6 13.18
3/7/2021 6:15:00 AM 0.45 32.81 0.232 7.6 26.51 12.84
3/7/2021 6:30:00 AM 0.42 32.756 0.232 7.6 26.09 13.08
3/7/2021 6:45:00 AM 0.4 32.72 0.231 7.6 26.27 13.03
3/7/2021 7:00:00 AM 0.37 32.666 0.231 7.59 25.25 12.73
3/7/2021 7:15:00 AM 0.35 32.63 0.231 7.59 25.94 12.71
3/7/2021 7:30:00 AM 0.34 32.612 0.231 7.59 26.39 12.79
3/7/2021 7:45:00 AM 0.33 32.594 0.231 7.6 25.81 12.92
3/7/2021 8:00:00 AM 0.32 32.576 0.231 7.61 25.84 13.45
3/7/2021 8:15:00 AM 0.34 32.612 0.231 7.62 25.5 13.1
3/7/2021 8:30:00 AM 0.35 32.63 0.231 7.63 25.16 13.51
3/7/2021 8:45:00 AM 0.38 32.684 0.232 7.65 25.97 13.44
3/7/2021 9:00:00 AM 0.41 32.738 0.231 7.66 26.61 13.22
3/7/2021 9:15:00 AM 0.45 32.81 0.231 7.68 27.74 13.22
3/7/2021 9:30:00 AM 0.49 32.882 0.231 7.7 25.57 13.85
3/7/2021 9:45:00 AM 0.53 32.954 0.232 7.71 25.78 13.46
3/7/2021 10:00:00 AM 0.57 33.026 0.235 7.73 25.86 13.27
3/7/2021 10:15:00 AM 0.64 33.152 0.235 7.75 26.76 13.63
3/7/2021 10:30:00 AM 0.7 33.26 0.234 7.77 25.08 13.81
3/7/2021 10:45:00 AM 0.77 33.386 0.233 7.79 25.23 13.57
3/7/2021 11:00:00 AM 0.8 33.44 0.23 7.81 26.37 13.96
3/7/2021 11:15:00 AM 0.86 33.548 0.229 7.83 27.36 14.1
3/7/2021 11:30:00 AM 0.93 33.674 0.228 7.85 25.8 13.95
3/7/2021 11:45:00 AM 1.01 33.818 0.228 7.87 25.52 13.96
3/7/2021 12:00:00 PM 1.11 33.998 0.23 7.89 25.81 14.24
3/7/2021 12:15:00 PM 1.16 34.088 0.228 7.91 25.97 13.98
3/7/2021 12:30:00 PM 1.23 34.214 0.228 7.94 25.64 14.53
3/7/2021 12:45:00 PM 1.28 34.304 0.228 7.97 27.29 14.61
3/7/2021 1:00:00 PM 1.37 34.466 0.228 7.99 27.34 14.14
3/7/2021 1:15:00 PM 1.46 34.628 0.226 8.01 26.27 14.8
3/7/2021 1:30:00 PM 1.52 34.736 0.226 8.04 27.99 14.52
3/7/2021 1:45:00 PM 1.57 34.826 0.226 8.06 26.58 14.3
3/7/2021 2:00:00 PM 1.63 34.934 0.224 8.09 30.82 15.09
3/7/2021 2:15:00 PM 1.71 35.078 0.224 8.11 26.73 14.55
3/7/2021 2:30:00 PM 1.76 35.168 0.224 8.13 27.5 15.21
3/7/2021 2:45:00 PM 1.8 35.24 0.226 8.15 27.68 15.3
3/7/2021 3:00:00 PM 1.82 35.276 0.226 8.17 27.18 15.04
3/7/2021 3:15:00 PM 1.82 35.276 0.225 8.2 25.52 15.07
3/7/2021 3:30:00 PM 1.8 35.24 0.224 8.22 26.72 14.58
3/7/2021 3:45:00 PM 1.79 35.222 0.224 8.23 26.96 14.33
3/7/2021 4:00:00 PM 1.77 35.186 0.226 8.24 27.09 14.13
3/7/2021 4:15:00 PM 1.76 35.168 0.226 8.25 26.71 14.91
3/7/2021 4:30:00 PM 1.74 35.132 0.225 8.27 27.12 14.47
3/7/2021 4:45:00 PM 1.71 35.078 0.225 8.28 27.56 14.23
3/7/2021 5:00:00 PM 1.69 35.042 0.223 8.28 27.13 14.61
3/7/2021 5:15:00 PM 1.67 35.006 0.222 8.29 28.26 14.55
3/7/2021 5:30:00 PM 1.65 34.97 0.221 8.29 27.51 14.66
3/7/2021 5:45:00 PM 1.65 34.97 0.223 8.3 28.23 14.43
3/7/2021 6:00:00 PM 1.65 34.97 0.228 8.3 27.13 14.27
3/7/2021 6:15:00 PM 1.65 34.97 0.228 8.3 27.66 14
3/7/2021 6:30:00 PM 1.65 34.97 0.229 8.29 27.95 14.9
3/7/2021 6:45:00 PM 1.65 34.97 0.229 8.29 28.13 14.89
3/7/2021 7:00:00 PM 1.64 34.952 0.229 8.28 28.13 13.8
3/7/2021 7:15:00 PM 1.62 34.916 0.229 8.27 28.24 13.93
3/7/2021 7:30:00 PM 1.59 34.862 0.229 8.25 27.9 13.79
3/7/2021 7:45:00 PM 1.55 34.79 0.229 8.23 28.06 14.83
3/7/2021 8:00:00 PM 1.52 34.736 0.229 8.21 29.87 14.09
3/7/2021 8:15:00 PM 1.49 34.682 0.229 8.18 28.05 14.13
3/7/2021 8:30:00 PM 1.47 34.646 0.229 8.16 28.78 13.59
3/7/2021 8:45:00 PM 1.46 34.628 0.229 8.14 28.55 13.84
3/7/2021 9:00:00 PM 1.44 34.592 0.227 8.12 28.44 14.48
3/7/2021 9:15:00 PM 1.44 34.592 0.226 8.1 29.84 13.37
3/7/2021 9:30:00 PM 1.42 34.556 0.226 8.07 29.28 13.71
3/7/2021 9:45:00 PM 1.42 34.556 0.223 8.06 28.42 13.76
3/7/2021 10:00:00 PM 1.41 34.538 0.222 8.05 30.98 14.27
3/7/2021 10:15:00 PM 1.4 34.52 0.22 8.04 28.02 14.38
3/7/2021 10:30:00 PM 1.39 34.502 0.223 8.02 28.02 13.78
3/7/2021 10:45:00 PM 1.37 34.466 0.221 8 27.85 13.54
3/7/2021 11:00:00 PM 1.36 34.448 0.23 8 28.41 13.82
3/7/2021 11:15:00 PM 1.34 34.412 0.228 7.98 29.08 13.75
3/7/2021 11:30:00 PM 1.32 34.376 0.233 7.96 28.87 13.94
3/7/2021 11:45:00 PM 1.3 34.34 0.233 7.95 29.27 13.36
3/8/2021 12:00:00 AM 1.28 34.304 0.231 7.94 28.6 13.39
3/8/2021 12:15:00 AM 1.26 34.268 0.233 7.92 28.27 13.45
3/8/2021 12:30:00 AM 1.23 34.214 0.235 7.91 29.48 13.76
3/8/2021 12:45:00 AM 1.21 34.178 0.235 7.9 29.86 13.01
3/8/2021 1:00:00 AM 1.19 34.142 0.235 7.88 29.58 13.16
3/8/2021 1:15:00 AM 1.17 34.106 0.238 7.87 30.42 13.72
3/8/2021 1:30:00 AM 1.15 34.07 0.236 7.85 28.77 13.64
3/8/2021 1:45:00 AM 1.13 34.034 0.233 7.84 30.15 13.62
3/8/2021 2:00:00 AM 1.11 33.998 0.233 7.82 28.7 14.19
3/8/2021 2:15:00 AM 1.09 33.962 0.235 7.81 28.35 13.52
3/8/2021 2:30:00 AM 1.07 33.926 0.235 7.8 28.17 13.19
3/8/2021 2:45:00 AM 1.05 33.89 0.234 7.79 28.9 13.68
3/8/2021 3:00:00 AM 1.03 33.854 0.234 7.77 28.16 12.9
3/8/2021 3:15:00 AM 1.01 33.818 0.234 7.76 29.59 13.96
3/8/2021 3:30:00 AM 0.98 33.764 0.233 7.75 31.56 13.14
3/8/2021 3:45:00 AM 0.97 33.746 0.231 7.74 30.95 13.47
3/8/2021 4:00:00 AM 0.95 33.71 0.232 7.73 28.36 13.1
3/8/2021 4:15:00 AM 0.93 33.674 0.23 7.72 30.33 13.23
3/8/2021 4:30:00 AM 0.91 33.638 0.229 7.72 30.01 12.83
3/8/2021 4:45:00 AM 0.89 33.602 0.228 7.71 36.55 13.04
3/8/2021 5:00:00 AM 0.87 33.566 0.225 7.7 29.64 12.99
3/8/2021 5:15:00 AM 0.85 33.53 0.226 7.69 30.69 12.7
3/8/2021 5:30:00 AM 0.83 33.494 0.225 7.69 29.69 13.46
3/8/2021 5:45:00 AM 0.81 33.458 0.223 7.68 31.09 12.28
3/8/2021 6:00:00 AM 0.78 33.404 0.223 7.67 31.36 12.82
3/8/2021 6:15:00 AM 0.76 33.368 0.223 7.67 30.53 12.53
3/8/2021 6:30:00 AM 0.73 33.314 0.224 7.66 28.28 12.98
3/8/2021 6:45:00 AM 0.71 33.278 0.223 7.66 29.94 13.12
3/8/2021 7:00:00 AM 0.68 33.224 0.221 7.65 29.59 12.42
3/8/2021 7:15:00 AM 0.66 33.188 0.221 7.65 29.92 12.55
3/8/2021 7:30:00 AM 0.65 33.17 0.223 7.65 31.05 12.67
3/8/2021 7:45:00 AM 0.63 33.134 0.224 7.65 31.48 12.39
3/8/2021 8:00:00 AM 0.63 33.134 0.223 7.66 30.41 12.72
3/8/2021 8:15:00 AM 0.64 33.152 0.223 7.68 30.81 13.05
3/8/2021 8:30:00 AM 0.66 33.188 0.223 7.69 29.81 13.2
3/8/2021 8:45:00 AM 0.69 33.242 0.221 7.71 29.94 13.65
3/8/2021 9:00:00 AM 0.72 33.296 0.224 7.73 29.49 13.4
3/8/2021 9:15:00 AM 0.77 33.386 0.224 7.75 31.11 13.54
3/8/2021 9:30:00 AM 0.82 33.476 0.227 7.77 32.49 13.21
3/8/2021 9:45:00 AM 0.88 33.584 0.228 7.79 32.04 13.85
3/8/2021 10:00:00 AM 0.96 33.728 0.229 7.81 30.04 14.28
3/8/2021 10:15:00 AM 1.03 33.854 0.23 7.84 29.79 13.33
3/8/2021 10:30:00 AM 1.12 34.016 0.229 7.86 30.89 13.89
3/8/2021 10:45:00 AM 1.21 34.178 0.232 7.89 30.7 13.59
3/8/2021 11:00:00 AM 1.3 34.34 0.233 7.91 31.12 12.98
3/8/2021 11:15:00 AM 1.39 34.502 0.233 7.93 29.75 13.1
3/8/2021 11:30:00 AM 1.51 34.718 0.234 7.96 29.89 13.83
3/8/2021 11:45:00 AM 1.6 34.88 0.235 7.98 30.74 14.35
3/8/2021 12:00:00 PM 1.68 35.024 0.234 8.01 30.4 13.95
3/8/2021 12:15:00 PM 1.74 35.132 0.234 8.03 30.94 13.97
3/8/2021 12:30:00 PM 1.81 35.258 0.232 8.05 30.53 14.06
3/8/2021 12:45:00 PM 1.86 35.348 0.231 8.08 30.71 12.78
3/8/2021 1:00:00 PM 1.9 35.42 0.23 8.1 31.1 13.82
3/8/2021 1:15:00 PM 1.94 35.492 0.228 8.13 31.66 14.15
3/8/2021 1:30:00 PM 1.97 35.546 0.228 8.14 31.52 13.76
3/8/2021 1:45:00 PM 2 35.6 0.227 8.17 32.95 13.37
3/8/2021 2:00:00 PM 2.01 35.618 0.227 8.19 30.2 13.3
3/8/2021 2:15:00 PM 2.03 35.654 0.227 8.21 31.85 13.9
3/8/2021 2:30:00 PM 2.04 35.672 0.227 8.24 31.3 13.48
3/8/2021 2:45:00 PM 2.06 35.708 0.228 8.26 33.13 13.29
3/8/2021 3:00:00 PM 2.08 35.744 0.229 8.28 34.57 13.63
3/8/2021 3:15:00 PM 2.1 35.78 0.229 8.3 31.48 13.29
3/8/2021 3:30:00 PM 2.13 35.834 0.228 8.32 31.59 13.5
3/8/2021 3:45:00 PM 2.15 35.87 0.227 8.35 30.64 12.84
3/8/2021 4:00:00 PM 2.16 35.888 0.227 8.38 32.5 13.02
3/8/2021 4:15:00 PM 2.17 35.906 0.228 8.39 32.06 14.22
3/8/2021 4:30:00 PM 2.17 35.906 0.227 8.4 30.62 14.81
3/8/2021 4:45:00 PM 2.16 35.888 0.226 8.42 32.6 13.62
3/8/2021 5:00:00 PM 2.16 35.888 0.227 8.42 30.79 13.24
3/8/2021 5:15:00 PM 2.16 35.888 0.225 8.43 34.27 14.29
3/8/2021 5:30:00 PM 2.16 35.888 0.226 8.43 31.08 15.18
3/8/2021 5:45:00 PM 2.15 35.87 0.225 8.44 33.69 13.8
3/8/2021 6:00:00 PM 2.13 35.834 0.223 8.44 34.37 13.82
3/8/2021 6:15:00 PM 2.11 35.798 0.224 8.43 34 14.1
3/8/2021 6:30:00 PM 2.09 35.762 0.225 8.43 33.66 13.63
3/8/2021 6:45:00 PM 2.07 35.726 0.225 8.42 35.21 14.25
3/8/2021 7:00:00 PM 2.04 35.672 0.227 8.4 34.11 15.04
3/8/2021 7:15:00 PM 2.01 35.618 0.228 8.39 31.83 14.12
3/8/2021 7:30:00 PM 1.99 35.582 0.227 8.37 34.5 15.5
3/8/2021 7:45:00 PM 1.96 35.528 0.229 8.35 32.87 14.47
3/8/2021 8:00:00 PM 1.93 35.474 0.23 8.34 31.57 13.39
3/8/2021 8:15:00 PM 1.9 35.42 0.23 8.33 33.16 13.35
3/8/2021 8:30:00 PM 1.87 35.366 0.231 8.31 3856.61 13.87
3/8/2021 8:45:00 PM 1.85 35.33 0.231 8.3 41.39 14.75
3/8/2021 9:00:00 PM 1.82 35.276 0.233 8.28 33.82 14.29
3/8/2021 9:15:00 PM 1.8 35.24 0.235 8.26 38.25 13.97
3/8/2021 9:30:00 PM 1.78 35.204 0.236 8.24 34.36 13.59
3/8/2021 9:45:00 PM 1.76 35.168 0.237 8.23 33.08 14.15
3/8/2021 10:00:00 PM 1.75 35.15 0.238 8.2 32.75 14.75
3/8/2021 10:15:00 PM 1.73 35.114 0.24 8.19 33.31 14.52
3/8/2021 10:30:00 PM 1.73 35.114 0.241 8.17 33.42 14.06
3/8/2021 10:45:00 PM 1.73 35.114 0.242 8.16 35.31 14.36
3/8/2021 11:00:00 PM 1.73 35.114 0.243 8.14 35.36 13.43
3/8/2021 11:15:00 PM 1.73 35.114 0.243 8.12 35.37 14.05
3/8/2021 11:30:00 PM 1.73 35.114 0.241 8.1 33.43 13.15
3/8/2021 11:45:00 PM 1.73 35.114 0.242 8.09 34.67 13.97
3/9/2021 12:00:00 AM 1.73 35.114 0.244 8.07 35.78 13.45
3/9/2021 12:15:00 AM 1.72 35.096 0.242 8.05 35.75 14.33
3/9/2021 12:30:00 AM 1.71 35.078 0.243 8.04 36.23 13.52
3/9/2021 12:45:00 AM 1.71 35.078 0.244 8.02 36.65 14.55
3/9/2021 1:00:00 AM 1.7 35.06 0.245 8.01 34.25 13.64
3/9/2021 1:15:00 AM 1.69 35.042 0.244 7.99 34.07 12.85
3/9/2021 1:30:00 AM 1.68 35.024 0.245 7.97 36.81 13.24
3/9/2021 1:45:00 AM 1.67 35.006 0.246 7.96 34.46 13.82
3/9/2021 2:00:00 AM 1.65 34.97 0.246 7.94 34.51 13.21
3/9/2021 2:15:00 AM 1.64 34.952 0.246 7.93 35.1 12.84
3/9/2021 2:30:00 AM 1.63 34.934 0.246 7.9 34.18 12.75
3/9/2021 2:45:00 AM 1.62 34.916 0.246 7.9 35.94 13.09
3/9/2021 3:00:00 AM 1.62 34.916 0.246 7.88 35.14 13.32
3/9/2021 3:15:00 AM 1.62 34.916 0.245 7.87 36.18 12.87
3/9/2021 3:30:00 AM 1.62 34.916 0.244 7.85 36.54 12.98
3/9/2021 3:45:00 AM 1.61 34.898 0.242 7.84 35.76 13.53
3/9/2021 4:00:00 AM 1.61 34.898 0.241 7.82 36 13.46
3/9/2021 4:15:00 AM 1.61 34.898 0.242 7.81 35.75 12.54
3/9/2021 4:30:00 AM 1.6 34.88 0.241 7.8 36.47 12.83
3/9/2021 4:45:00 AM 1.6 34.88 0.24 7.79 33.62 12.49
3/9/2021 5:00:00 AM 1.6 34.88 0.242 7.77 35.09 13.7
3/9/2021 5:15:00 AM 1.6 34.88 0.244 7.76 36.82 12.98
3/9/2021 5:30:00 AM 1.61 34.898 0.242 7.75 35.59 13.02
3/9/2021 5:45:00 AM 1.6 34.88 0.243 7.74 36.43 13.5
3/9/2021 6:00:00 AM 1.6 34.88 0.243 7.73 39.55 12.29
3/9/2021 6:15:00 AM 1.6 34.88 0.241 7.72 36.42 13.37
3/9/2021 6:30:00 AM 1.59 34.862 0.241 7.71 39.44 13.57
3/9/2021 6:45:00 AM 1.59 34.862 0.241 7.7 39.74 13.07
3/9/2021 7:00:00 AM 1.59 34.862 0.242 7.7 39.85 12.79
3/9/2021 7:15:00 AM 1.59 34.862 0.243 7.69 36.54 12.39
3/9/2021 7:30:00 AM 1.59 34.862 0.243 7.69 35.82 12.37
3/9/2021 7:45:00 AM 1.6 34.88 0.241 7.7 37.16 13.04
3/9/2021 8:00:00 AM 1.61 34.898 0.24 7.71 35.89 12.57
3/9/2021 8:15:00 AM 1.64 34.952 0.241 7.73 36.31 12.71
3/9/2021 8:30:00 AM 1.67 35.006 0.24 7.75 36.07 12.85
3/9/2021 8:45:00 AM 1.71 35.078 0.24 7.76 36.29 12.88
3/9/2021 9:00:00 AM 1.77 35.186 0.242 7.78 37.42 13.25
3/9/2021 9:15:00 AM 1.83 35.294 0.241 7.81 38.03 12.92
3/9/2021 9:30:00 AM 1.91 35.438 0.241 7.83 36.73 12.61
3/9/2021 9:45:00 AM 2 35.6 0.242 7.86 37.19 12.83
3/9/2021 10:00:00 AM 2.11 35.798 0.241 7.89 36.27 12.82
3/9/2021 10:15:00 AM 2.23 36.014 0.242 7.91 39 13.03
3/9/2021 10:30:00 AM 2.35 36.23 0.241 7.94 36.6 12.85
3/9/2021 10:45:00 AM 2.49 36.482 0.242 7.97 38.22 13.13
3/9/2021 11:00:00 AM 2.61 36.698 0.241 8 38.52 14.13
3/9/2021 11:15:00 AM 2.7 36.86 0.243 8.02 36.58 13.61
3/9/2021 11:30:00 AM 2.81 37.058 0.242 8.05 36.93 13.54
3/9/2021 11:45:00 AM 2.91 37.238 0.241 8.08 35.49 13.63
3/9/2021 12:00:00 PM 2.99 37.382 0.242 8.1 37.5 13.93
3/9/2021 12:15:00 PM 3.07 37.526 0.241 8.12 41.06 13.77
3/9/2021 12:30:00 PM 3.14 37.652 0.241 8.16 38.3 13.73
3/9/2021 12:45:00 PM 3.22 37.796 0.241 8.18 38.78 14.4
3/9/2021 1:00:00 PM 3.29 37.922 0.242 8.21 37.6 13.64
3/9/2021 1:15:00 PM 3.38 38.084 0.242 8.24 33.95 15.02
3/9/2021 1:30:00 PM 3.46 38.228 0.24 8.26 37.98 13.76
3/9/2021 1:45:00 PM 3.55 38.39 0.239 8.3 36.38 13.85
3/9/2021 2:00:00 PM 3.63 38.534 0.238 8.32 38.07 14.65
3/9/2021 2:15:00 PM 3.7 38.66 0.238 8.34 37.15 14.45
3/9/2021 2:30:00 PM 3.77 38.786 0.237 8.38 42.02 14.38
3/9/2021 2:45:00 PM 3.83 38.894 0.237 8.4 36.8 14.12
3/9/2021 3:00:00 PM 3.89 39.002 0.236 8.42 36.35 14.43
3/9/2021 3:15:00 PM 3.94 39.092 0.236 8.43 38.7 15.09
3/9/2021 3:30:00 PM 3.97 39.146 0.235 8.45 40.12 14.36
3/9/2021 3:45:00 PM 4.01 39.218 0.233 8.47 38.15 14.5
3/9/2021 4:00:00 PM 4.04 39.272 0.232 8.48 38.56 14.44
3/9/2021 4:15:00 PM 4.06 39.308 0.232 8.5 39.4 14.65
3/9/2021 4:30:00 PM 4.07 39.326 0.232 8.51 39.45 14.35
3/9/2021 4:45:00 PM 4.08 39.344 0.231 8.52 38.42 14.52
3/9/2021 5:00:00 PM 4.09 39.362 0.228 8.52 38.75 14.54
3/9/2021 5:15:00 PM 4.09 39.362 0.228 8.54 39.4 14.31
3/9/2021 5:30:00 PM 4.09 39.362 0.231 8.54 38.81 15.2
3/9/2021 5:45:00 PM 4.08 39.344 0.232 8.54 39.88 14.73
3/9/2021 6:00:00 PM 4.06 39.308 0.231 8.54 41.87 14.43
3/9/2021 6:15:00 PM 4.03 39.254 0.23 8.53 40.98 13.91
3/9/2021 6:30:00 PM 4 39.2 0.231 8.52 44.27 15.56
3/9/2021 6:45:00 PM 3.97 39.146 0.231 8.52 43.1 14.51
3/9/2021 7:00:00 PM 3.93 39.074 0.23 8.5 40.66 14.46
3/9/2021 7:15:00 PM 3.89 39.002 0.23 8.48 41.76 14.86
3/9/2021 7:30:00 PM 3.85 38.93 0.231 8.46 40.2 14.55
3/9/2021 7:45:00 PM 3.81 38.858 0.232 8.45 38.72 13.93
3/9/2021 8:00:00 PM 3.77 38.786 0.232 8.42 39.82 14.46
3/9/2021 8:15:00 PM 3.73 38.714 0.235 8.41 39.3 14.12
3/9/2021 8:30:00 PM 3.71 38.678 0.235 8.39 40.55 14.7
3/9/2021 8:45:00 PM 3.67 38.606 0.234 8.37 40.42 14.44
3/9/2021 9:00:00 PM 3.65 38.57 0.235 8.35 40.45 13.34
3/9/2021 9:15:00 PM 3.63 38.534 0.235 8.33 42.85 14.24
3/9/2021 9:30:00 PM 3.63 38.534 0.236 8.31 42.18 13.46
3/9/2021 9:45:00 PM 3.62 38.516 0.234 8.3 40.45 13.36
3/9/2021 10:00:00 PM 3.61 38.498 0.235 8.28 41.68 14.11
3/9/2021 10:15:00 PM 3.62 38.516 0.234 8.27 42.53 13.13
3/9/2021 10:30:00 PM 3.61 38.498 0.235 8.26 41.17 13.89
3/9/2021 10:45:00 PM 3.61 38.498 0.234 8.24 41.72 13.15
3/9/2021 11:00:00 PM 3.6 38.48 0.234 8.23 43.92 14.21
3/9/2021 11:15:00 PM 3.59 38.462 0.234 8.22 40.94 13.87
3/9/2021 11:30:00 PM 3.59 38.462 0.234 8.21 38.44 13.3
3/9/2021 11:45:00 PM 3.57 38.426 0.234 8.19 42.12 13.74
3/10/2021 12:00:00 AM 3.56 38.408 0.235 8.17 42.37 13.91
3/10/2021 12:15:00 AM 3.54 38.372 0.236 8.16 44.4 13.55
3/10/2021 12:30:00 AM 3.53 38.354 0.236 8.14 45.06 13.42
3/10/2021 12:45:00 AM 3.51 38.318 0.237 8.12 40.4 13.57
3/10/2021 1:00:00 AM 3.49 38.282 0.237 8.11 43.39 13.25
3/10/2021 1:15:00 AM 3.47 38.246 0.237 8.08 41.39 13.77
3/10/2021 1:30:00 AM 3.46 38.228 0.237 8.07 42.61 12.81
3/10/2021 1:45:00 AM 3.45 38.21 0.237 8.05 43.25 13.31
3/10/2021 2:00:00 AM 3.43 38.174 0.238 8.03 44.82 12.82
3/10/2021 2:15:00 AM 3.42 38.156 0.239 8.01 46.39 13.17
3/10/2021 2:30:00 AM 3.42 38.156 0.238 7.99 42.52 12.52
3/10/2021 2:45:00 AM 3.41 38.138 0.239 7.97 41.88 12.32
3/10/2021 3:00:00 AM 3.41 38.138 0.239 7.95 43.16 12.15
3/10/2021 3:15:00 AM 3.42 38.156 0.238 7.94 40.4 12.27
3/10/2021 3:30:00 AM 3.42 38.156 0.239 7.92 38.96 12.82
3/10/2021 3:45:00 AM 3.42 38.156 0.24 7.9 38.03 12.37
3/10/2021 4:00:00 AM 3.42 38.156 0.241 7.89 39.24 12.05
3/10/2021 4:15:00 AM 3.42 38.156 0.242 7.87 40.7 12.07
3/10/2021 4:30:00 AM 3.43 38.174 0.242 7.85 42.46 11.68
3/10/2021 4:45:00 AM 3.43 38.174 0.242 7.84 39.47 12.91
3/10/2021 5:00:00 AM 3.42 38.156 0.243 7.83 44.37 11.68
3/10/2021 5:15:00 AM 3.41 38.138 0.242 7.82 40 11.14
3/10/2021 5:30:00 AM 3.4 38.12 0.242 7.8 48.46 12.95
3/10/2021 5:45:00 AM 3.39 38.102 0.236 7.79 40.66 10.75
3/10/2021 6:00:00 AM 3.37 38.066 0.236 7.77 40.03 11.99
3/10/2021 6:15:00 AM 3.35 38.03 0.237 7.76 42.24 11.15
3/10/2021 6:30:00 AM 3.33 37.994 0.237 7.75 41.91 11.83
3/10/2021 6:45:00 AM 3.31 37.958 0.238 7.73 41.59 11.28
3/10/2021 7:00:00 AM 3.29 37.922 0.238 7.72 41.99 11.74
3/10/2021 7:15:00 AM 3.27 37.886 0.239 7.72 42.09 11.5
3/10/2021 7:30:00 AM 3.25 37.85 0.24 7.71 40.89 12.2
3/10/2021 7:45:00 AM 3.23 37.814 0.241 7.72 41.98 11.3
3/10/2021 8:00:00 AM 3.23 37.814 0.238 7.72 44.4 11.13
3/10/2021 8:15:00 AM 3.23 37.814 0.24 7.72 43.39 11.63
3/10/2021 8:30:00 AM 3.24 37.832 0.237 7.74 44.84 11.94
3/10/2021 8:45:00 AM 3.26 37.868 0.237 7.75 42.69 12.03
3/10/2021 9:00:00 AM 3.3 37.94 0.234 7.77 42.95 11.86
3/10/2021 9:15:00 AM 3.34 38.012 0.234 7.8 43.09 12.05
3/10/2021 9:30:00 AM 3.38 38.084 0.234 7.82 43.33 12.64
3/10/2021 9:45:00 AM 3.44 38.192 0.236 7.84 43.8 12.31
3/10/2021 10:00:00 AM 3.5 38.3 0.236 7.87 44.44 12.85
3/10/2021 10:15:00 AM 3.57 38.426 0.236 7.89 45.56 12.42
3/10/2021 10:30:00 AM 3.64 38.552 0.236 7.92 45.63 13.06
3/10/2021 10:45:00 AM 3.72 38.696 0.236 7.95 42.54 12.73
3/10/2021 11:00:00 AM 3.8 38.84 0.236 7.98 43.59 12.29
3/10/2021 11:15:00 AM 3.87 38.966 0.237 8 44.06 12.6
3/10/2021 11:30:00 AM 3.97 39.146 0.236 8.04 44.64 12.96
3/10/2021 11:45:00 AM 4.06 39.308 0.237 8.07 43.53 12.71
3/10/2021 12:00:00 PM 4.15 39.47 0.236 8.1 45.13 13.14
3/10/2021 12:15:00 PM 4.24 39.632 0.234 8.14 44.37 12.95
3/10/2021 12:30:00 PM 4.33 39.794 0.234 8.17 46.31 12.97
3/10/2021 12:45:00 PM 4.41 39.938 0.234 8.2 45.55 13.25
3/10/2021 1:00:00 PM 4.5 40.1 0.234 8.24 46.28 13.23
3/10/2021 1:15:00 PM 4.57 40.226 0.233 8.27 45.68 13.26
3/10/2021 1:30:00 PM 4.64 40.352 0.235 8.3 49.28 13.34
3/10/2021 1:45:00 PM 4.7 40.46 0.236 8.33 47.18 13.04
3/10/2021 2:00:00 PM 4.75 40.55 0.236 8.35 47.22 12.68
3/10/2021 2:15:00 PM 4.79 40.622 0.237 8.38 47.16 13.03
3/10/2021 2:30:00 PM 4.83 40.694 0.237 8.4 46.14 12.48
3/10/2021 2:45:00 PM 4.86 40.748 0.236 8.43 46.21 12.02
3/10/2021 3:00:00 PM 4.88 40.784 0.236 8.45 47.32 12.79
3/10/2021 3:15:00 PM 4.9 40.82 0.236 8.47 47.71 13.2
3/10/2021 3:30:00 PM 4.91 40.838 0.238 8.49 49.73 13.6
3/10/2021 3:45:00 PM 4.91 40.838 0.237 8.5 50.34 13.3
3/10/2021 4:00:00 PM 4.92 40.856 0.239 8.51 51.47 12.82
3/10/2021 4:15:00 PM 4.91 40.838 0.236 8.52 54.19 13.01
3/10/2021 4:30:00 PM 4.9 40.82 0.234 8.53 55.21 12.89
3/10/2021 4:45:00 PM 4.9 40.82 0.233 8.54 53.48 13.62
3/10/2021 5:00:00 PM 4.88 40.784 0.233 8.55 54.49 13.9
3/10/2021 5:15:00 PM 4.87 40.766 0.231 8.55 55.08 13.91
3/10/2021 5:30:00 PM 4.86 40.748 0.231 8.55 53.67 12.57
3/10/2021 5:45:00 PM 4.84 40.712 0.228 8.55 54.98 13.9
3/10/2021 6:00:00 PM 4.81 40.658 0.228 8.54 53.99 13.76
3/10/2021 6:15:00 PM 4.77 40.586 0.23 8.53 54.2 13.6
3/10/2021 6:30:00 PM 4.74 40.532 0.228 8.52 53.59 14.64
3/10/2021 6:45:00 PM 4.69 40.442 0.225 8.5 56.64 13.59
3/10/2021 7:00:00 PM 4.65 40.37 0.227 8.47 54.04 13.49
3/10/2021 7:15:00 PM 4.6 40.28 0.226 8.46 54.51 14.31
3/10/2021 7:30:00 PM 4.55 40.19 0.227 8.44 55.58 13.49
3/10/2021 7:45:00 PM 4.51 40.118 0.226 8.42 49.11 14.03
3/10/2021 8:00:00 PM 4.47 40.046 0.22 8.39 54.54 13.78
3/10/2021 8:15:00 PM 4.44 39.992 0.218 8.37 56.69 14.13
3/10/2021 8:30:00 PM 4.42 39.956 0.216 8.36 56.18 13.44
3/10/2021 8:45:00 PM 4.4 39.92 0.214 8.34 56.79 13.75
3/10/2021 9:00:00 PM 4.39 39.902 0.213 8.33 831.9 14.59
3/10/2021 9:15:00 PM 4.38 39.884 0.213 8.31 49.59 14.62
3/10/2021 9:30:00 PM 4.36 39.848 0.21 8.29 147.53 14.45
3/10/2021 9:45:00 PM 4.36 39.848 0.211 8.26 86.06 14.52
3/10/2021 10:00:00 PM 4.36 39.848 0.21 8.24 63.83 14.25
3/10/2021 10:15:00 PM 4.35 39.83 0.21 8.21 45.81 14.15
3/10/2021 10:30:00 PM 4.35 39.83 0.209 8.18 46.38 13.9
3/10/2021 10:45:00 PM 4.36 39.848 0.207 8.15 45.41 14.01
3/10/2021 11:00:00 PM 4.37 39.866 0.208 8.12 42.27 13.86
3/10/2021 11:15:00 PM 4.38 39.884 0.206 8.08 42.28 13.6
3/10/2021 11:30:00 PM 4.39 39.902 0.206 8.05 46.42 13.38
3/10/2021 11:45:00 PM 4.4 39.92 0.206 8.02 41.69 13.36
3/11/2021 12:00:00 AM 4.4 39.92 0.207 7.98 43.46 12.85
3/11/2021 12:15:00 AM 4.39 39.902 0.206 7.95 36.85 13.41
3/11/2021 12:30:00 AM 4.39 39.902 0.204 7.92 44.27 13.44
3/11/2021 12:45:00 AM 4.37 39.866 0.203 7.89 42.16 13.06
3/11/2021 1:00:00 AM 4.35 39.83 0.202 7.86 46.57 13.2
3/11/2021 1:15:00 AM 4.33 39.794 0.201 7.84 48.18 13.02
3/11/2021 1:30:00 AM 4.32 39.776 0.201 7.8 48.62 13.26
3/11/2021 1:45:00 AM 4.3 39.74 0.2 7.78 52.99 12.88
3/11/2021 2:00:00 AM 4.29 39.722 0.201 7.75 43.97 13.13
3/11/2021 2:15:00 AM 4.28 39.704 0.198 7.73 47.71 12.79
3/11/2021 2:30:00 AM 4.26 39.668 0.196 7.71 44.49 12.84
3/11/2021 2:45:00 AM 4.26 39.668 0.196 7.69 45.93 12.95
3/11/2021 3:00:00 AM 4.25 39.65 0.195 7.67 35.73 12.36
3/11/2021 3:15:00 AM 4.24 39.632 0.194 7.66 50.94 12.57
3/11/2021 3:30:00 AM 4.22 39.596 0.192 7.64 51.99 12.84
3/11/2021 3:45:00 AM 4.21 39.578 0.192 7.62 57.27 12.66
3/11/2021 4:00:00 AM 4.2 39.56 0.193 7.61 50.32 12.37
3/11/2021 4:15:00 AM 4.19 39.542 0.191 7.6 52.72 12.45
3/11/2021 4:30:00 AM 4.17 39.506 0.187 7.59 47.9 12.79
3/11/2021 4:45:00 AM 4.14 39.452 0.187 7.58 58.87 12.63
3/11/2021 5:00:00 AM 4.12 39.416 0.186 7.57 62.83 12.4
3/11/2021 5:15:00 AM 4.09 39.362 0.183 7.56 54.43 12.58
3/11/2021 5:30:00 AM 4.06 39.308 0.183 7.55 50.69 12.42
3/11/2021 5:45:00 AM 4.03 39.254 0.182 7.54 59.42 12.54
3/11/2021 6:00:00 AM 3.98 39.164 0.18 7.54 60.02 12.55
3/11/2021 6:15:00 AM 3.95 39.11 0.181 7.53 52.1 12.62
3/11/2021 6:30:00 AM 3.91 39.038 0.18 7.53 56.93 12.73
3/11/2021 6:45:00 AM 3.87 38.966 0.179 7.52 57.27 12.69
3/11/2021 7:00:00 AM 3.83 38.894 0.179 7.52 57.62 12.63
3/11/2021 7:15:00 AM 3.79 38.822 0.18 7.52 55.19 12.56
3/11/2021 7:30:00 AM 3.76 38.768 0.18 7.52 63.33 12.56
3/11/2021 7:45:00 AM 3.72 38.696 0.18 7.52 59.83 12.63
3/11/2021 8:00:00 AM 3.68 38.624 0.18 7.52 60.68 12.59
3/11/2021 8:15:00 AM 3.65 38.57 0.179 7.52 57.86 12.88
3/11/2021 8:30:00 AM 3.62 38.516 0.179 7.51 61.21 12.72
3/11/2021 8:45:00 AM 3.6 38.48 0.178 7.51 65.91 12.46
3/11/2021 9:00:00 AM 3.59 38.462 0.179 7.51 64.68 12.7
3/11/2021 9:15:00 AM 3.59 38.462 0.177 7.51 70.47 12.76
3/11/2021 9:30:00 AM 3.59 38.462 0.177 7.51 72.96 13.15
3/11/2021 9:45:00 AM 3.6 38.48 0.178 7.51 67.48 13.08
3/11/2021 10:00:00 AM 3.62 38.516 0.176 7.51 61.59 13.09
3/11/2021 10:15:00 AM 3.62 38.516 0.175 7.51 68.71 13.18
3/11/2021 10:30:00 AM 3.64 38.552 0.174 7.51 64.42 13.16
3/11/2021 10:45:00 AM 3.68 38.624 0.174 7.52 74.88 13.26
3/11/2021 11:00:00 AM 3.71 38.678 0.172 7.52 67.01 13.27
3/11/2021 11:15:00 AM 3.74 38.732 0.17 7.52 70.67 13.19
3/11/2021 11:30:00 AM 3.77 38.786 0.17 7.52 75.49 13.35
3/11/2021 11:45:00 AM 3.8 38.84 0.171 7.52 63.95 13.42
3/11/2021 12:00:00 PM 3.83 38.894 0.169 7.52 47.62 13.4
3/11/2021 12:15:00 PM 3.87 38.966 0.168 7.53 57.64 13.32
3/11/2021 12:30:00 PM 3.9 39.02 0.166 7.53 79.25 13.38
3/11/2021 12:45:00 PM 3.92 39.056 0.166 7.52 80.58 13.32
3/11/2021 1:00:00 PM 3.95 39.11 0.167 7.53 90.28 13.39
3/11/2021 1:15:00 PM 4 39.2 0.164 7.53 71.63 13.4
3/11/2021 1:30:00 PM 4.05 39.29 0.167 7.53 69.3 13.36
3/11/2021 1:45:00 PM 4.11 39.398 0.168 7.54 75 13.32
3/11/2021 2:00:00 PM 4.16 39.488 0.167 7.54 107.2 13.41
3/11/2021 2:15:00 PM 4.19 39.542 0.168 7.54 81.98 13.39
3/11/2021 2:30:00 PM 4.24 39.632 0.167 7.55 69.82 13.45
3/11/2021 2:45:00 PM 4.28 39.704 0.167 7.55 74.02 13.43
3/11/2021 3:00:00 PM 4.31 39.758 0.168 7.56 76.31 13.42
3/11/2021 3:15:00 PM 4.35 39.83 0.168 7.56 84.73 13.37
3/11/2021 3:30:00 PM 4.39 39.902 0.168 7.55 63.96 13.36
3/11/2021 3:45:00 PM 4.43 39.974 0.168 7.56 71.62 13.36
3/11/2021 4:00:00 PM 4.47 40.046 0.166 7.56 72.61 13.38
3/11/2021 4:15:00 PM 4.51 40.118 0.166 7.56 70.56 13.32
3/11/2021 4:30:00 PM 4.54 40.172 0.164 7.56 75.77 13.37
3/11/2021 4:45:00 PM 4.56 40.208 0.163 7.56 66.77 13.28
3/11/2021 5:00:00 PM 4.58 40.244 0.162 7.56 81.59 13.18
3/11/2021 5:15:00 PM 4.57 40.226 0.161 7.56 89.78 13.27
3/11/2021 5:30:00 PM 4.57 40.226 0.161 7.55 57.56 13.31
3/11/2021 5:45:00 PM 4.57 40.226 0.161 7.55 74.62 13.21
3/11/2021 6:00:00 PM 4.58 40.244 0.16 7.55 62.96 13.27
3/11/2021 6:15:00 PM 4.59 40.262 0.159 7.54 105.92 13.24
3/11/2021 6:30:00 PM 4.6 40.28 0.159 7.53 94.42 13.22
3/11/2021 6:45:00 PM 4.6 40.28 0.157 7.52 77.91 13.19
3/11/2021 7:00:00 PM 4.61 40.298 0.156 7.51 87.89 13.22
3/11/2021 7:15:00 PM 4.61 40.298 0.155 7.5 85.41 13.1
3/11/2021 7:30:00 PM 4.61 40.298 0.155 7.49 85.28 13.17
3/11/2021 7:45:00 PM 4.61 40.298 0.154 7.48 68.76 13.15
3/11/2021 8:00:00 PM 4.61 40.298 0.152 7.47 85.27 13.18
3/11/2021 8:15:00 PM 4.61 40.298 0.153 7.47 87.59 13.18
3/11/2021 8:30:00 PM 4.61 40.298 0.153 7.46 93.05 13.11
3/11/2021 8:45:00 PM 4.61 40.298 0.151 7.45 112.94 13.18
3/11/2021 9:00:00 PM 4.61 40.298 0.149 7.45 113.94 13.15
3/11/2021 9:15:00 PM 4.62 40.316 0.15 7.44 94.65 13.15
3/11/2021 9:30:00 PM 4.63 40.334 0.15 7.44 82.28 13.12
3/11/2021 9:45:00 PM 4.64 40.352 0.149 7.43 98.67 13.13
3/11/2021 10:00:00 PM 4.64 40.352 0.149 7.43 94.11 13.08
3/11/2021 10:15:00 PM 4.65 40.37 0.147 7.43 96.02 13.12
3/11/2021 10:30:00 PM 4.65 40.37 0.148 7.42 90.91 13.05
3/11/2021 10:45:00 PM 4.65 40.37 0.147 7.42 197.44 13.07
3/11/2021 11:00:00 PM 4.64 40.352 0.146 7.41 135.46 13.09
3/11/2021 11:15:00 PM 4.63 40.334 0.146 7.41 137.6 13.08
3/11/2021 11:30:00 PM 4.62 40.316 0.146 7.41 124.8 13.06
3/11/2021 11:45:00 PM 4.61 40.298 0.145 7.4 125.81 13.07
3/12/2021 12:00:00 AM 4.59 40.262 0.146 7.4 103.26 13.02
3/12/2021 12:15:00 AM 4.58 40.244 0.145 7.4 111.12 13.06
3/12/2021 12:30:00 AM 4.56 40.208 0.146 7.39 128.13 13.03
3/12/2021 12:45:00 AM 4.56 40.208 0.142 7.39 111.67 13.03
3/12/2021 1:00:00 AM 4.54 40.172 0.142 7.39 110.33 13.02
3/12/2021 1:15:00 AM 4.53 40.154 0.146 7.38 142.42 13.03
3/12/2021 1:30:00 AM 4.52 40.136 0.146 7.39 146.04 12.99
3/12/2021 1:45:00 AM 4.5 40.1 0.144 7.38 162.55 13.03
3/12/2021 2:00:00 AM 4.48 40.064 0.143 7.38 215.53 13.01
3/12/2021 2:15:00 AM 4.46 40.028 0.143 7.38 134.05 13.01
3/12/2021 2:30:00 AM 4.43 39.974 0.142 7.38 150.73 13.03
3/12/2021 2:45:00 AM 4.41 39.938 0.14 7.38 134.36 13
3/12/2021 3:00:00 AM 4.38 39.884 0.139 7.38 135.62 13.01
3/12/2021 3:15:00 AM 4.36 39.848 0.139 7.38 131.92 13.02
3/12/2021 3:30:00 AM 4.33 39.794 0.138 7.37 127.23 13.02
3/12/2021 3:45:00 AM 4.3 39.74 0.137 7.37 207.32 13.01
3/12/2021 4:00:00 AM 4.26 39.668 0.136 7.38 157.21 13
3/12/2021 4:15:00 AM 4.23 39.614 0.135 7.38 151.42 13.04
3/12/2021 4:30:00 AM 4.2 39.56 0.135 7.38 139.86 13.05
3/12/2021 4:45:00 AM 4.16 39.488 0.135 7.38 165.95 13.05
3/12/2021 5:00:00 AM 4.12 39.416 0.134 7.37 145.23 13.05
3/12/2021 5:15:00 AM 4.08 39.344 0.134 7.38 140.71 13.07
3/12/2021 5:30:00 AM 4.04 39.272 0.133 7.38 166.53 13.08
3/12/2021 5:45:00 AM 4 39.2 0.134 7.38 143.02 13.09
3/12/2021 6:00:00 AM 3.97 39.146 0.133 7.38 139.05 13.1
3/12/2021 6:15:00 AM 3.94 39.092 0.133 7.39 158.3 13.11
3/12/2021 6:30:00 AM 3.9 39.02 0.133 7.39 141.51 13.12
3/12/2021 6:45:00 AM 3.88 38.984 0.133 7.39 136.4 13.13
3/12/2021 7:00:00 AM 3.86 38.948 0.133 7.4 154.91 13.14
3/12/2021 7:15:00 AM 3.85 38.93 0.132 7.4 132.74 13.13
3/12/2021 7:30:00 AM 3.84 38.912 0.131 7.4 164.04 13.13
3/12/2021 7:45:00 AM 3.83 38.894 0.131 7.4 134.59 13.14
3/12/2021 8:00:00 AM 3.83 38.894 0.131 7.41 148.63 13.14
3/12/2021 8:15:00 AM 3.83 38.894 0.131 7.41 134.23 13.13
3/12/2021 8:30:00 AM 3.83 38.894 0.131 7.41 153.61 13.15
3/12/2021 8:45:00 AM 3.83 38.894 0.132 7.41 141.34 13.14
3/12/2021 9:00:00 AM 3.84 38.912 0.131 7.42 143.4 13.15
3/12/2021 9:15:00 AM 3.85 38.93 0.13 7.43 149.76 13.17
3/12/2021 9:30:00 AM 3.85 38.93 0.131 7.43 141.21 13.11
3/12/2021 9:45:00 AM 3.86 38.948 0.129 7.43 152.81 13.17
3/12/2021 10:00:00 AM 3.87 38.966 0.129 7.43 152.95 13.18
3/12/2021 10:15:00 AM 3.88 38.984 0.128 7.42 151.91 13.2
3/12/2021 10:30:00 AM 3.9 39.02 0.127 7.42 155.22 13.2
3/12/2021 10:45:00 AM 3.91 39.038 0.128 7.42 176.07 13.2
3/12/2021 11:00:00 AM 3.93 39.074 0.123 7.42 194.48 13.21
3/12/2021 11:15:00 AM 3.95 39.11 0.117 7.41 155.3 13.23
3/12/2021 11:30:00 AM 3.97 39.146 0.114 7.41 161.97 13.23
3/12/2021 11:45:00 AM 3.99 39.182 0.113 7.41 151.16 13.23
3/12/2021 12:00:00 PM 4.02 39.236 0.115 7.41 152.01 13.25
3/12/2021 12:15:00 PM 4.05 39.29 0.113 7.41 149.85 13.26
3/12/2021 12:30:00 PM 4.08 39.344 0.114 7.41 123.75 13.26
3/12/2021 12:45:00 PM 4.1 39.38 0.112 7.41 169.49 13.27
3/12/2021 1:00:00 PM 4.13 39.434 0.115 7.4 151.51 13.24
3/12/2021 1:15:00 PM 4.16 39.488 0.114 7.4 143.02 13.28
3/12/2021 1:30:00 PM 4.19 39.542 0.114 7.4 132.87 13.28
3/12/2021 1:45:00 PM 4.21 39.578 0.116 7.39 126.23 13.29
3/12/2021 2:00:00 PM 4.24 39.632 0.113 7.39 138.57 13.3
3/12/2021 2:15:00 PM 4.26 39.668 0.114 7.4 128.42 13.3
3/12/2021 2:30:00 PM 4.3 39.74 0.112 7.39 136.16 13.3
3/12/2021 2:45:00 PM 4.32 39.776 0.112 7.38 131.59 13.3
3/12/2021 3:00:00 PM 4.35 39.83 0.113 7.38 127.55 13.3
3/12/2021 3:15:00 PM 4.38 39.884 0.112 7.38 130.72 13.3
3/12/2021 3:30:00 PM 4.4 39.92 0.108 7.38 122.14 13.31
3/12/2021 3:45:00 PM 4.42 39.956 0.105 7.38 137.94 13.31
3/12/2021 4:00:00 PM 4.43 39.974 0.106 7.38 146.32 13.32
3/12/2021 4:15:00 PM 4.45 40.01 0.105 7.37 128.5 13.32
3/12/2021 4:30:00 PM 4.46 40.028 0.105 7.38 195.73 13.31
3/12/2021 4:45:00 PM 4.47 40.046 0.105 7.38 134.33 13.32
3/12/2021 5:00:00 PM 4.48 40.064 0.107 7.37 113.1 13.32
3/12/2021 5:15:00 PM 4.49 40.082 0.108 7.37 116.29 13.33
3/12/2021 5:30:00 PM 4.49 40.082 0.11 7.36 131.06 13.34
3/12/2021 5:45:00 PM 4.49 40.082 0.11 7.36 145.57 13.32
3/12/2021 6:00:00 PM 4.5 40.1 0.11 7.35 120.41 13.32
3/12/2021 6:15:00 PM 4.51 40.118 0.105 7.35 133.65 13.33
3/12/2021 6:30:00 PM 4.52 40.136 0.107 7.35 132.79 13.32
3/12/2021 6:45:00 PM 4.53 40.154 0.109 7.35 123.33 13.32
3/12/2021 7:00:00 PM 4.53 40.154 0.11 7.35 119.14 13.32
3/12/2021 7:15:00 PM 4.53 40.154 0.106 7.34 128.46 13.33
3/12/2021 7:30:00 PM 4.53 40.154 0.107 7.34 125.28 13.32
3/12/2021 7:45:00 PM 4.53 40.154 0.104 7.33 134.22 13.32
3/12/2021 8:00:00 PM 4.53 40.154 0.104 7.33 117.52 13.33
3/12/2021 8:15:00 PM 4.53 40.154 0.104 7.33 145.03 13.32
3/12/2021 8:30:00 PM 4.52 40.136 0.103 7.33 127.58 13.32
3/12/2021 8:45:00 PM 4.52 40.136 0.103 7.32 126.18 13.32
3/12/2021 9:00:00 PM 4.51 40.118 0.102 7.32 113.16 13.32
3/12/2021 9:15:00 PM 4.49 40.082 0.104 7.32 117.47 13.32
3/12/2021 9:30:00 PM 4.47 40.046 0.103 7.32 120.45 13.32
3/12/2021 9:45:00 PM 4.45 40.01 0.104 7.32 123.88 13.33
3/12/2021 10:00:00 PM 4.43 39.974 0.105 7.31 110.46 13.32
3/12/2021 10:15:00 PM 4.39 39.902 0.105 7.32 120.65 13.31
3/12/2021 10:30:00 PM 4.37 39.866 0.102 7.31 108.69 13.32
3/12/2021 10:45:00 PM 4.33 39.794 0.102 7.31 102.55 13.31
3/12/2021 11:00:00 PM 4.3 39.74 0.101 7.31 121.18 13.31
3/12/2021 11:15:00 PM 4.26 39.668 0.101 7.3 106.38 13.31
3/12/2021 11:30:00 PM 4.23 39.614 0.101 7.3 109.72 13.32
3/12/2021 11:45:00 PM 4.19 39.542 0.1 7.31 102.44 13.32
3/13/2021 12:00:00 AM 4.15 39.47 0.101 7.3 97.18 13.32
3/13/2021 12:15:00 AM 4.11 39.398 0.101 7.31 106.01 13.32
3/13/2021 12:30:00 AM 4.07 39.326 0.102 7.3 113.25 13.31
3/13/2021 12:45:00 AM 4.03 39.254 0.102 7.3 105.35 13.31
3/13/2021 1:00:00 AM 3.99 39.182 0.103 7.3 100.77 13.31
3/13/2021 1:15:00 AM 3.95 39.11 0.103 7.3 119.6 13.31
3/13/2021 1:30:00 AM 3.91 39.038 0.103 7.3 114.92 13.32
3/13/2021 1:45:00 AM 3.86 38.948 0.105 7.3 119.53 13.33
3/13/2021 2:00:00 AM 3.82 38.876 0.107 7.3 103.91 13.35
3/13/2021 2:15:00 AM 3.77 38.786 0.107 7.3 105.84 13.35
3/13/2021 2:30:00 AM 3.73 38.714 0.107 7.3 93.59 13.35
3/13/2021 2:45:00 AM 3.68 38.624 0.106 7.3 103.82 13.36
3/13/2021 3:00:00 AM 3.63 38.534 0.106 7.3 110.23 13.38
3/13/2021 3:15:00 AM 3.58 38.444 0.106 7.3 103.11 13.38
3/13/2021 3:30:00 AM 3.54 38.372 0.107 7.3 108.33 13.39
3/13/2021 3:45:00 AM 3.5 38.3 0.107 7.3 113.37 13.39
3/13/2021 4:00:00 AM 3.45 38.21 0.107 7.3 96.07 13.41
3/13/2021 4:15:00 AM 3.41 38.138 0.105 7.3 106.16 13.42
3/13/2021 4:30:00 AM 3.37 38.066 0.107 7.3 88.75 13.43
3/13/2021 4:45:00 AM 3.33 37.994 0.107 7.3 111.37 13.42
3/13/2021 5:00:00 AM 3.29 37.922 0.106 7.3 103.93 13.44
3/13/2021 5:15:00 AM 3.25 37.85 0.108 7.3 75.72 13.46
3/13/2021 5:30:00 AM 3.21 37.778 0.109 7.3 93.31 13.47
3/13/2021 5:45:00 AM 3.18 37.724 0.11 7.3 97.21 13.49
3/13/2021 6:00:00 AM 3.14 37.652 0.11 7.3 112.27 13.5
3/13/2021 6:15:00 AM 3.11 37.598 0.111 7.3 98.25 13.5
3/13/2021 6:30:00 AM 3.08 37.544 0.111 7.3 98.83 13.52
3/13/2021 6:45:00 AM 3.05 37.49 0.111 7.3 105.32 13.52
3/13/2021 7:00:00 AM 3.02 37.436 0.109 7.3 116.8 13.54
3/13/2021 7:15:00 AM 3 37.4 0.107 7.3 100.86 13.55
3/13/2021 7:30:00 AM 2.97 37.346 0.107 7.3 106.4 13.55
3/13/2021 7:45:00 AM 2.95 37.31 0.107 7.3 99.1 13.56
3/13/2021 8:00:00 AM 2.94 37.292 0.108 7.3 98.64 13.57
3/13/2021 8:15:00 AM 2.94 37.292 0.108 7.31 103.71 13.59
3/13/2021 8:30:00 AM 2.94 37.292 0.107 7.3 95.56 13.6
3/13/2021 8:45:00 AM 2.94 37.292 0.107 7.3 104.92 13.61
3/13/2021 9:00:00 AM 2.96 37.328 0.104 7.3 94.34 13.62
3/13/2021 9:15:00 AM 2.97 37.346 0.104 7.3 111.43 13.63
3/13/2021 9:30:00 AM 2.98 37.364 0.104 7.3 111.52 13.64
3/13/2021 9:45:00 AM 3 37.4 0.104 7.3 92.3 13.64
3/13/2021 10:00:00 AM 3.02 37.436 0.105 7.3 98.9 13.65
3/13/2021 10:15:00 AM 3.05 37.49 0.104 7.31 96.1 13.67
3/13/2021 10:30:00 AM 3.07 37.526 0.104 7.31 90.78 13.66
3/13/2021 10:45:00 AM 3.1 37.58 0.105 7.31 91.91 13.68
3/13/2021 11:00:00 AM 3.13 37.634 0.105 7.3 86.56 13.69
3/13/2021 11:15:00 AM 3.16 37.688 0.105 7.3 101 13.68
3/13/2021 11:30:00 AM 3.2 37.76 0.105 7.31 101.3 13.68
3/13/2021 11:45:00 AM 3.24 37.832 0.106 7.3 94.3 13.69
3/13/2021 12:00:00 PM 3.27 37.886 0.107 7.3 99.48 13.7
3/13/2021 12:15:00 PM 3.31 37.958 0.107 7.3 96.7 13.7
3/13/2021 12:30:00 PM 3.35 38.03 0.107 7.3 101.45 13.7
3/13/2021 12:45:00 PM 3.39 38.102 0.107 7.3 153.65 13.71
3/13/2021 1:00:00 PM 3.43 38.174 0.107 7.3 149.74 13.71
3/13/2021 1:15:00 PM 3.47 38.246 0.107 7.31 140.26 13.72
3/13/2021 1:30:00 PM 3.51 38.318 0.108 7.31 134.16 13.72
3/13/2021 1:45:00 PM 3.55 38.39 0.107 7.31 136.68 13.72
3/13/2021 2:00:00 PM 3.59 38.462 0.107 7.32 125.11 13.72
3/13/2021 2:15:00 PM 3.62 38.516 0.108 7.31 115.96 13.72
3/13/2021 2:30:00 PM 3.65 38.57 0.11 7.31 96.58 13.72
3/13/2021 2:45:00 PM 3.69 38.642 0.11 7.31 118.63 13.72
3/13/2021 3:00:00 PM 3.71 38.678 0.111 7.3 82.38 13.71
3/13/2021 3:15:00 PM 3.73 38.714 0.111 7.31 94.54 13.73
3/13/2021 3:30:00 PM 3.76 38.768 0.111 7.31 97.48 13.72
3/13/2021 3:45:00 PM 3.79 38.822 0.111 7.32 110.64 13.71
3/13/2021 4:00:00 PM 3.81 38.858 0.112 7.31 110.1 13.71
3/13/2021 4:15:00 PM 3.83 38.894 0.111 7.31 93.41 13.71
3/13/2021 4:30:00 PM 3.85 38.93 0.113 7.31 96.61 13.7
3/13/2021 4:45:00 PM 3.86 38.948 0.107 7.31 117.45 13.7
3/13/2021 5:00:00 PM 3.88 38.984 0.107 7.31 101.86 13.68
3/13/2021 5:15:00 PM 3.89 39.002 0.106 7.31 96.93 13.68
3/13/2021 5:30:00 PM 3.91 39.038 0.108 7.32 104.75 13.67
3/13/2021 5:45:00 PM 3.91 39.038 0.108 7.31 101.06 13.66
3/13/2021 6:00:00 PM 3.92 39.056 0.108 7.31 122.63 13.66
3/13/2021 6:15:00 PM 3.92 39.056 0.108 7.31 108.44 13.63
3/13/2021 6:30:00 PM 3.93 39.074 0.109 7.31 106.1 13.63
3/13/2021 6:45:00 PM 3.94 39.092 0.106 7.31 116.63 13.62
3/13/2021 7:00:00 PM 3.96 39.128 0.108 7.31 106.11 13.61
3/13/2021 7:15:00 PM 3.97 39.146 0.108 7.32 92.51 13.61
3/13/2021 7:30:00 PM 3.97 39.146 0.109 7.31 104.58 13.59
3/13/2021 7:45:00 PM 3.99 39.182 0.111 7.32 103.38 13.58
3/13/2021 8:00:00 PM 3.99 39.182 0.11 7.32 99.6 13.57
3/13/2021 8:15:00 PM 3.99 39.182 0.11 7.32 105.83 13.56
3/13/2021 8:30:00 PM 3.99 39.182 0.11 7.32 113.42 13.5
3/13/2021 8:45:00 PM 3.99 39.182 0.111 7.32 104.45 13.47
3/13/2021 9:00:00 PM 3.99 39.182 0.111 7.32 113.8 13.53
3/13/2021 9:15:00 PM 3.98 39.164 0.11 7.32 96.65 13.48
3/13/2021 9:30:00 PM 3.98 39.164 0.109 7.32 112.96 13.51
3/13/2021 9:45:00 PM 3.96 39.128 0.106 7.32 103.65 13.49
3/13/2021 10:00:00 PM 3.96 39.128 0.107 7.32 91.01 13.49
3/13/2021 10:15:00 PM 3.94 39.092 0.109 7.32 97.74 13.47
3/13/2021 10:30:00 PM 3.93 39.074 0.111 7.32 102.27 13.46
3/13/2021 10:45:00 PM 3.91 39.038 0.11 7.32 99.44 13.46
3/13/2021 11:00:00 PM 3.9 39.02 0.111 7.32 126.45 13.46
3/13/2021 11:15:00 PM 3.88 38.984 0.112 7.32 117.28 13.43
3/13/2021 11:30:00 PM 3.86 38.948 0.112 7.32 110.69 13.43
3/13/2021 11:45:00 PM 3.85 38.93 0.112 7.32 106.43 13.42
3/14/2021 12:00:00 AM 3.83 38.894 0.112 7.32 90.8 13.43
3/14/2021 12:15:00 AM 3.82 38.876 0.112 7.32 112.17 13.41
3/14/2021 12:30:00 AM 3.8 38.84 0.112 7.32 129.34 13.4
3/14/2021 12:45:00 AM 3.78 38.804 0.112 7.32 130.4 13.39
3/14/2021 1:00:00 AM 3.76 38.768 0.113 7.32 120.26 13.39
3/14/2021 1:15:00 AM 3.74 38.732 0.111 7.32 115.28 13.38
3/14/2021 1:30:00 AM 3.72 38.696 0.111 7.31 107.19 13.37
3/14/2021 1:45:00 AM 3.7 38.66 0.111 7.31 127.65 13.38
3/14/2021 3:00:00 AM 3.58 38.444 0.111 7.32 115.02 13.36
3/14/2021 3:15:00 AM 3.56 38.408 0.11 7.32 120.85 13.36
3/14/2021 3:30:00 AM 3.53 38.354 0.11 7.32 120.78 13.35
3/14/2021 3:45:00 AM 3.5 38.3 0.11 7.33 118.87 13.35
3/14/2021 4:00:00 AM 3.47 38.246 0.11 7.32 139.33 13.35
3/14/2021 4:15:00 AM 3.44 38.192 0.11 7.32 97.07 13.35
3/14/2021 4:30:00 AM 3.4 38.12 0.112 7.32 114.3 13.34
3/14/2021 4:45:00 AM 3.36 38.048 0.112 7.32 115.62 13.35
3/14/2021 5:00:00 AM 3.33 37.994 0.111 7.32 120.78 13.34
3/14/2021 5:15:00 AM 3.29 37.922 0.111 7.32 117.43 13.35
3/14/2021 5:30:00 AM 3.25 37.85 0.113 7.33 116.12 13.36
3/14/2021 5:45:00 AM 3.22 37.796 0.112 7.32 125.1 13.36
3/14/2021 6:00:00 AM 3.18 37.724 0.113 7.32 106.18 13.37
3/14/2021 6:15:00 AM 3.14 37.652 0.113 7.33 118.84 13.39
3/14/2021 6:30:00 AM 3.1 37.58 0.114 7.33 119.28 13.38
3/14/2021 6:45:00 AM 3.07 37.526 0.114 7.33 116.28 13.4
3/14/2021 7:00:00 AM 3.03 37.454 0.115 7.33 107.23 13.4
3/14/2021 7:15:00 AM 3.01 37.418 0.115 7.33 110.6 13.41
3/14/2021 7:30:00 AM 2.98 37.364 0.116 7.32 115.84 13.42
3/14/2021 7:45:00 AM 2.96 37.328 0.116 7.32 107.78 13.42
3/14/2021 8:00:00 AM 2.95 37.31 0.116 7.33 107.55 13.44
3/14/2021 8:15:00 AM 2.95 37.31 0.116 7.33 116.09 13.45
3/14/2021 8:30:00 AM 2.95 37.31 0.117 7.33 124.84 13.45
3/14/2021 8:45:00 AM 2.96 37.328 0.116 7.33 121.06 13.46
3/14/2021 9:00:00 AM 2.98 37.364 0.116 7.33 127.61 13.46
3/14/2021 9:15:00 AM 2.99 37.382 0.116 7.34 113.36 13.49
3/14/2021 9:30:00 AM 3.02 37.436 0.116 7.34 132.1 13.48
3/14/2021 9:45:00 AM 3.06 37.508 0.117 7.34 116.36 13.51
3/14/2021 10:00:00 AM 3.07 37.526 0.117 7.34 113.79 13.51
3/14/2021 10:15:00 AM 3.09 37.562 0.117 7.34 146.41 13.51
3/14/2021 10:30:00 AM 3.11 37.598 0.117 7.34 116.75 13.52
3/14/2021 10:45:00 AM 3.15 37.67 0.117 7.34 131.88 13.53
3/14/2021 11:00:00 AM 3.19 37.742 0.117 7.34 107.6 13.53
3/14/2021 11:15:00 AM 3.23 37.814 0.117 7.34 92.02 13.52
3/14/2021 11:30:00 AM 3.28 37.904 0.116 7.34 120.81 13.53
3/14/2021 11:45:00 AM 3.32 37.976 0.116 7.35 116.55 13.52
3/14/2021 12:00:00 PM 3.33 37.994 0.116 7.34 123.18 13.52
3/14/2021 12:15:00 PM 3.35 38.03 0.116 7.34 134.04 13.51
3/14/2021 12:30:00 PM 3.36 38.048 0.116 7.34 115.09 13.53
3/14/2021 12:45:00 PM 3.37 38.066 0.116 7.34 124.71 13.53
3/14/2021 1:00:00 PM 3.41 38.138 0.116 7.35 143.24 13.53
3/14/2021 1:15:00 PM 3.47 38.246 0.117 7.35 103.62 13.54
3/14/2021 1:30:00 PM 3.51 38.318 0.117 7.35 115.3 13.54
3/14/2021 1:45:00 PM 3.55 38.39 0.117 7.35 115.88 13.53
3/14/2021 2:00:00 PM 3.56 38.408 0.117 7.35 117.73 13.52
3/14/2021 2:15:00 PM 3.59 38.462 0.117 7.35 120.91 13.53
3/14/2021 2:30:00 PM 3.59 38.462 0.117 7.35 98.04 13.53
3/14/2021 2:45:00 PM 3.61 38.498 0.115 7.36 141.81 13.53
3/14/2021 3:00:00 PM 3.62 38.516 0.117 7.36 128.21 13.51
3/14/2021 3:15:00 PM 3.62 38.516 0.117 7.36 130.04 13.52
3/14/2021 3:30:00 PM 3.63 38.534 0.117 7.35 123.52 13.53
3/14/2021 3:45:00 PM 3.62 38.516 0.118 7.35 130.39 13.53
3/14/2021 4:00:00 PM 3.62 38.516 0.117 7.35 183.8 13.52
3/14/2021 4:15:00 PM 3.65 38.57 0.115 7.36 127.44 13.5
3/14/2021 4:30:00 PM 3.66 38.588 0.115 7.36 118.77 13.51
3/14/2021 4:45:00 PM 3.66 38.588 0.116 7.36 111.26 13.5
3/14/2021 5:00:00 PM 3.67 38.606 0.116 7.36 126.89 13.49
3/14/2021 5:15:00 PM 3.68 38.624 0.112 7.36 133.18 13.48
3/14/2021 5:30:00 PM 3.66 38.588 0.111 7.36 123.13 13.48
3/14/2021 5:45:00 PM 3.66 38.588 0.111 7.36 133.99 13.47
3/14/2021 6:00:00 PM 3.65 38.57 0.11 7.36 153.42 13.47
3/14/2021 6:15:00 PM 3.64 38.552 0.11 7.36 136.35 13.44
3/14/2021 6:30:00 PM 3.64 38.552 0.11 7.36 127.03 13.44
3/14/2021 6:45:00 PM 3.62 38.516 0.111 7.37 118.87 13.42
3/14/2021 7:00:00 PM 3.6 38.48 0.108 7.37 123.92 13.41
3/14/2021 7:15:00 PM 3.58 38.444 0.111 7.37 120.55 13.41
3/14/2021 7:30:00 PM 3.55 38.39 0.112 7.37 129.58 13.4
3/14/2021 7:45:00 PM 3.52 38.336 0.112 7.37 124.77 13.39
3/14/2021 8:00:00 PM 3.5 38.3 0.111 7.37 103.54 13.38
3/14/2021 8:15:00 PM 3.48 38.264 0.112 7.38 122.56 13.37
3/14/2021 8:30:00 PM 3.46 38.228 0.114 7.38 128.26 13.37
3/14/2021 8:45:00 PM 3.43 38.174 0.115 7.38 139.65 13.36
3/14/2021 9:00:00 PM 3.4 38.12 0.114 7.39 128.79 13.35
3/14/2021 9:15:00 PM 3.37 38.066 0.115 7.39 117.26 13.35
3/14/2021 9:30:00 PM 3.35 38.03 0.118 7.39 128.11 13.34
3/14/2021 9:45:00 PM 3.32 37.976 0.119 7.39 133.97 13.34
3/14/2021 10:00:00 PM 3.3 37.94 0.119 7.39 123.27 13.34
3/14/2021 10:15:00 PM 3.28 37.904 0.119 7.39 114.92 13.34
3/14/2021 10:30:00 PM 3.26 37.868 0.118 7.39 133.17 13.35
3/14/2021 10:45:00 PM 3.23 37.814 0.119 7.39 126.5 13.33
3/14/2021 11:00:00 PM 3.22 37.796 0.118 7.39 125.56 13.32
3/14/2021 11:15:00 PM 3.2 37.76 0.117 7.39 131.44 13.32
3/14/2021 11:30:00 PM 3.18 37.724 0.118 7.4 125.96 13.34
3/14/2021 11:45:00 PM 3.16 37.688 0.119 7.4 125.41 13.31
3/15/2021 12:00:00 AM 3.14 37.652 0.118 7.4 125.2 13.31
3/15/2021 12:15:00 AM 3.12 37.616 0.118 7.41 133.85 13.34
3/15/2021 12:30:00 AM 3.09 37.562 0.119 7.4 133 13.32
3/15/2021 12:45:00 AM 3.05 37.49 0.12 7.41 131.27 13.32
3/15/2021 1:00:00 AM 3.01 37.418 0.119 7.41 146.41 13.32
3/15/2021 1:15:00 AM 2.97 37.346 0.12 7.41 148.77 13.33
3/15/2021 1:30:00 AM 2.94 37.292 0.116 7.41 132.87 13.35
3/15/2021 1:45:00 AM 2.9 37.22 0.116 7.41 119.46 13.32
3/15/2021 2:00:00 AM 2.87 37.166 0.116 7.41 134.23 13.33
3/15/2021 2:15:00 AM 2.83 37.094 0.116 7.41 143.54 13.32
3/15/2021 2:30:00 AM 2.79 37.022 0.119 7.41 133.46 13.33
3/15/2021 2:45:00 AM 2.74 36.932 0.119 7.41 134.91 13.32
3/15/2021 3:00:00 AM 2.7 36.86 0.12 7.41 138 13.32
3/15/2021 3:15:00 AM 2.66 36.788 0.12 7.42 128.56 13.34
3/15/2021 3:30:00 AM 2.62 36.716 0.119 7.42 130.76 13.33
3/15/2021 3:45:00 AM 2.58 36.644 0.118 7.42 138.63 13.34
3/15/2021 4:00:00 AM 2.54 36.572 0.118 7.42 120.92 13.35
3/15/2021 4:15:00 AM 2.49 36.482 0.118 7.42 136.33 13.38
3/15/2021 4:30:00 AM 2.46 36.428 0.118 7.42 144.6 13.38
3/15/2021 4:45:00 AM 2.41 36.338 0.118 7.42 123.41 13.37
3/15/2021 5:00:00 AM 2.36 36.248 0.117 7.42 127.28 13.41
3/15/2021 5:15:00 AM 2.32 36.176 0.117 7.42 143.34 13.41
3/15/2021 5:30:00 AM 2.27 36.086 0.117 7.42 137.7 13.42
3/15/2021 5:45:00 AM 2.22 35.996 0.116 7.42 141.27 13.42
3/15/2021 6:00:00 AM 2.17 35.906 0.116 7.42 143.99 13.45
3/15/2021 6:15:00 AM 2.12 35.816 0.114 7.42 142.88 13.44
3/15/2021 6:30:00 AM 2.08 35.744 0.113 7.42 156.18 13.47
3/15/2021 6:45:00 AM 2.04 35.672 0.112 7.42 140.98 13.48
3/15/2021 7:00:00 AM 2 35.6 0.112 7.42 135.18 13.49
3/15/2021 7:15:00 AM 1.96 35.528 0.112 7.42 140.41 13.51
3/15/2021 7:30:00 AM 1.93 35.474 0.111 7.41 144.46 13.51
3/15/2021 7:45:00 AM 1.9 35.42 0.111 7.42 140.33 13.54
3/15/2021 8:00:00 AM 1.87 35.366 0.111 7.42 152.5 13.57
3/15/2021 9:15:00 AM 1.85 35.33 0.111 7.42 134.94 13.59
3/15/2021 9:30:00 AM 1.84 35.312 0.11 7.42 164.95 13.62
3/15/2021 9:45:00 AM 1.84 35.312 0.11 7.42 163.58 13.62
3/15/2021 10:00:00 AM 1.85 35.33 0.11 7.42 147.65 13.64
3/15/2021 10:15:00 AM 1.86 35.348 0.11 7.42 154.81 13.66
3/15/2021 10:30:00 AM 1.88 35.384 0.109 7.42 147.97 13.69
3/15/2021 10:45:00 AM 1.9 35.42 0.11 7.42 142.66 13.7
3/15/2021 11:00:00 AM 1.93 35.474 0.11 7.42 161.95 13.73
3/15/2021 11:15:00 AM 1.95 35.51 0.109 7.42 151.72 13.75
3/15/2021 11:30:00 AM 1.98 35.564 0.11 7.42 144.02 13.78
3/15/2021 11:45:00 AM 2.02 35.636 0.109 7.42 145.59 13.8
3/15/2021 12:00:00 PM 2.06 35.708 0.108 7.42 174.52 13.79
3/15/2021 12:15:00 PM 2.1 35.78 0.108 7.43 155.19 13.83
3/15/2021 12:30:00 PM 2.14 35.852 0.108 7.43 154.2 13.85
3/15/2021 12:45:00 PM 2.18 35.924 0.108 7.43 145.77 13.85
3/15/2021 1:00:00 PM 2.23 36.014 0.107 7.43 147.63 13.89
3/15/2021 1:15:00 PM 2.27 36.086 0.107 7.43 143.65 13.88
3/15/2021 1:30:00 PM 2.31 36.158 0.109 7.43 2116.15 13.9
3/15/2021 1:45:00 PM 2.36 36.248 0.109 7.43 132.37 13.9
3/15/2021 2:00:00 PM 2.4 36.32 0.109 7.43 135.84 13.92
3/15/2021 2:15:00 PM 2.44 36.392 0.108 7.44 130.35 13.94
3/15/2021 2:30:00 PM 2.48 36.464 0.108 7.44 149.77 13.93
3/15/2021 2:45:00 PM 2.52 36.536 0.109 7.44 138.59 13.93
3/15/2021 3:00:00 PM 2.55 36.59 0.108 7.43 142.43 13.94
3/15/2021 3:15:00 PM 2.58 36.644 0.109 7.44 153.74 13.95
3/15/2021 3:30:00 PM 2.61 36.698 0.109 7.44 130.59 13.95
3/15/2021 3:45:00 PM 2.64 36.752 0.109 7.44 151.52 13.97
3/15/2021 4:00:00 PM 2.67 36.806 0.11 7.44 126.16 13.97
3/15/2021 4:15:00 PM 2.69 36.842 0.109 7.44 136.25 13.96
3/15/2021 4:30:00 PM 2.71 36.878 0.109 7.45 128.2 13.96
3/15/2021 4:45:00 PM 2.72 36.896 0.109 7.45 139.09 13.94
3/15/2021 5:00:00 PM 2.74 36.932 0.109 7.45 2935.93 13.96
3/15/2021 5:15:00 PM 2.75 36.95 0.116 7.45 128.64 13.96
3/15/2021 5:30:00 PM 2.75 36.95 0.115 7.46 147.54 13.95
3/15/2021 5:45:00 PM 2.75 36.95 0.114 7.45 129.59 13.96
3/15/2021 6:00:00 PM 2.74 36.932 0.112 7.45 116.91 13.96
3/15/2021 6:15:00 PM 2.73 36.914 0.111 7.45 117.71 13.94
3/15/2021 6:30:00 PM 2.72 36.896 0.109 7.46 116.16 13.92
3/15/2021 6:45:00 PM 2.72 36.896 0.109 7.46 118.77 13.93
3/15/2021 7:00:00 PM 2.72 36.896 0.108 7.46 127.55 13.93
3/15/2021 7:15:00 PM 2.7 36.86 0.108 7.46 115.66 13.92
3/15/2021 7:30:00 PM 2.69 36.842 0.108 7.46 115.66 13.91
3/15/2021 7:45:00 PM 2.67 36.806 0.108 7.46 124.78 13.9
3/15/2021 8:00:00 PM 2.66 36.788 0.108 7.47 114.86 13.9
3/15/2021 8:15:00 PM 2.65 36.77 0.107 7.46 110 13.84
3/15/2021 8:30:00 PM 2.64 36.752 0.107 7.45 102.66 13.86
3/15/2021 8:45:00 PM 2.64 36.752 0.106 7.45 103.94 13.85
3/15/2021 9:00:00 PM 2.65 36.77 0.105 7.45 104.76 13.82
3/15/2021 9:15:00 PM 2.66 36.788 0.105 7.46 114.57 13.8
3/15/2021 9:30:00 PM 2.68 36.824 0.105 7.46 107.99 13.75
3/15/2021 9:45:00 PM 2.69 36.842 0.105 7.46 116.94 13.8
3/15/2021 10:00:00 PM 2.7 36.86 0.105 7.46 97.98 13.8
3/15/2021 10:15:00 PM 2.71 36.878 0.104 7.46 111.89 13.77
3/15/2021 10:30:00 PM 2.71 36.878 0.104 7.45 111.56 13.77
3/15/2021 10:45:00 PM 2.71 36.878 0.104 7.45 104.7 13.71
3/15/2021 11:00:00 PM 2.71 36.878 0.104 7.45 117.83 13.69
3/15/2021 11:15:00 PM 2.71 36.878 0.104 7.45 111.66 13.69
3/15/2021 11:30:00 PM 2.71 36.878 0.104 7.45 117.76 13.66
3/15/2021 11:45:00 PM 2.7 36.86 0.104 7.45 107.91 13.68
3/16/2021 12:00:00 AM 2.7 36.86 0.104 7.45 108.99 13.64
3/16/2021 12:15:00 AM 2.7 36.86 0.104 7.45 109.28 13.61
3/16/2021 12:30:00 AM 2.7 36.86 0.104 7.45 124.78 13.63
3/16/2021 12:45:00 AM 2.69 36.842 0.104 7.44 119.34 13.5
3/16/2021 1:00:00 AM 2.69 36.842 0.104 7.44 113.42 13.49
3/16/2021 1:15:00 AM 2.68 36.824 0.104 7.44 113.69 13.56
3/16/2021 1:30:00 AM 2.68 36.824 0.104 7.44 106.16 13.58
3/16/2021 1:45:00 AM 2.67 36.806 0.104 7.44 110.48 13.53
3/16/2021 2:00:00 AM 2.66 36.788 0.104 7.44 116.77 13.51
3/16/2021 2:15:00 AM 2.65 36.77 0.104 7.44 112.79 13.46
3/16/2021 2:30:00 AM 2.64 36.752 0.104 7.43 110.23 13.52
3/16/2021 2:45:00 AM 2.62 36.716 0.105 7.44 117.35 13.53
3/16/2021 3:00:00 AM 2.61 36.698 0.105 7.44 123.02 13.46
3/16/2021 3:15:00 AM 2.6 36.68 0.105 7.44 104.02 13.47
3/16/2021 3:30:00 AM 2.58 36.644 0.105 7.44 118.97 13.49
3/16/2021 3:45:00 AM 2.56 36.608 0.106 7.44 107.01 13.41
3/16/2021 4:00:00 AM 2.54 36.572 0.106 7.43 112.82 13.45
3/16/2021 4:15:00 AM 2.52 36.536 0.106 7.43 113.75 13.47
3/16/2021 4:30:00 AM 2.51 36.518 0.107 7.43 125.46 13.48
3/16/2021 4:45:00 AM 2.49 36.482 0.107 7.43 109.62 13.42
3/16/2021 5:00:00 AM 2.47 36.446 0.108 7.43 121.88 13.38
3/16/2021 5:15:00 AM 2.44 36.392 0.109 7.43 112.12 13.45
3/16/2021 5:30:00 AM 2.42 36.356 0.11 7.43 120.57 13.49
3/16/2021 5:45:00 AM 2.4 36.32 0.11 7.43 135.8 13.45
3/16/2021 6:00:00 AM 2.38 36.284 0.111 7.43 124.46 13.41
3/16/2021 6:15:00 AM 2.36 36.248 0.112 7.43 119.61 13.4
3/16/2021 6:30:00 AM 2.34 36.212 0.111 7.43 134.7 13.42
3/16/2021 6:45:00 AM 2.33 36.194 0.112 7.43 121.08 13.42
3/16/2021 7:00:00 AM 2.31 36.158 0.112 7.43 111.6 13.45
3/16/2021 7:15:00 AM 2.29 36.122 0.112 7.43 127.58 13.44
3/16/2021 7:30:00 AM 2.27 36.086 0.113 7.43 120.56 13.47
3/16/2021 7:45:00 AM 2.25 36.05 0.114 7.43 127.1 13.45
3/16/2021 8:00:00 AM 2.23 36.014 0.114 7.43 124.9 13.44
3/16/2021 8:15:00 AM 2.21 35.978 0.114 7.44 116.62 13.48
3/16/2021 8:30:00 AM 2.2 35.96 0.115 7.44 112.47 13.42
3/16/2021 8:45:00 AM 2.18 35.924 0.117 7.44 127.04 13.42
3/16/2021 9:00:00 AM 2.17 35.906 0.118 7.44 122.28 13.44
3/16/2021 9:15:00 AM 2.16 35.888 0.117 7.44 119.04 13.47
3/16/2021 9:30:00 AM 2.14 35.852 0.118 7.44 118.49 13.44
3/16/2021 9:45:00 AM 2.12 35.816 0.119 7.44 130.71 13.49
3/16/2021 10:00:00 AM 2.11 35.798 0.119 7.45 130.11 13.49
3/16/2021 10:15:00 AM 2.11 35.798 0.12 7.45 127.64 13.4
3/16/2021 10:30:00 AM 2.11 35.798 0.12 7.45 116.47 13.5
3/16/2021 10:45:00 AM 2.11 35.798 0.12 7.45 117.88 13.46
3/16/2021 11:00:00 AM 2.1 35.78 0.121 7.46 114.69 13.47
3/16/2021 11:15:00 AM 2.1 35.78 0.121 7.46 121.39 13.55
3/16/2021 11:30:00 AM 2.09 35.762 0.119 7.46 119.52 13.57
3/16/2021 11:45:00 AM 2.08 35.744 0.12 7.46 125.46 13.56
3/16/2021 12:00:00 PM 2.06 35.708 0.121 7.46 124.04 13.53
3/16/2021 12:15:00 PM 2.06 35.708 0.12 7.46 123.32 13.58
3/16/2021 12:30:00 PM 2.05 35.69 0.121 7.46 129.49 13.54
3/16/2021 12:45:00 PM 2.04 35.672 0.121 7.47 118.37 13.54
3/16/2021 1:00:00 PM 2.03 35.654 0.122 7.47 125.22 13.59
3/16/2021 1:15:00 PM 2.02 35.636 0.12 7.47 131.71 13.6
3/16/2021 1:30:00 PM 2 35.6 0.12 7.47 126.36 13.6
3/16/2021 1:45:00 PM 2 35.6 0.12 7.47 136.82 13.65
3/16/2021 2:00:00 PM 2 35.6 0.12 7.48 111.05 13.5
3/16/2021 2:15:00 PM 2.01 35.618 0.121 7.48 132.11 13.63
3/16/2021 2:30:00 PM 2.01 35.618 0.121 7.48 130.7 13.66
3/16/2021 2:45:00 PM 2 35.6 0.118 7.48 134.89 13.72
3/16/2021 3:00:00 PM 1.98 35.564 0.118 7.49 126.21 13.72
3/16/2021 3:15:00 PM 1.96 35.528 0.118 7.49 126.27 13.64
3/16/2021 3:30:00 PM 1.94 35.492 0.119 7.49 132.96 13.71
3/16/2021 3:45:00 PM 1.92 35.456 0.12 7.49 134.31 13.75
3/16/2021 4:00:00 PM 1.91 35.438 0.119 7.49 129.84 13.7
3/16/2021 4:15:00 PM 1.9 35.42 0.12 7.49 157.54 13.75
3/16/2021 4:30:00 PM 1.89 35.402 0.121 7.49 129.94 13.77
3/16/2021 4:45:00 PM 1.88 35.384 0.121 7.49 127.5 13.76
3/16/2021 5:00:00 PM 1.87 35.366 0.12 7.5 120.85 13.79
3/16/2021 5:15:00 PM 1.87 35.366 0.121 7.5 131.62 13.72
3/16/2021 5:30:00 PM 1.86 35.348 0.122 7.5 133.7 13.75
3/16/2021 5:45:00 PM 1.86 35.348 0.122 7.5 125.13 13.75
3/16/2021 6:00:00 PM 1.85 35.33 0.123 7.5 145.98 13.78
3/16/2021 6:15:00 PM 1.84 35.312 0.123 7.5 128.54 13.72
3/16/2021 6:30:00 PM 1.83 35.294 0.123 7.5 135.39 13.72
3/16/2021 6:45:00 PM 1.82 35.276 0.121 7.5 127.52 13.77
3/16/2021 7:00:00 PM 1.82 35.276 0.121 7.5 136.66 13.73
3/16/2021 7:15:00 PM 1.81 35.258 0.122 7.49 130.49 13.76
3/16/2021 7:30:00 PM 1.81 35.258 0.121 7.49 134.17 13.76
3/16/2021 7:45:00 PM 1.8 35.24 0.122 7.49 130.87 13.69
3/16/2021 8:00:00 PM 1.8 35.24 0.12 7.49 143.87 13.76
3/16/2021 8:15:00 PM 1.79 35.222 0.12 7.49 140.41 13.72
3/16/2021 8:30:00 PM 1.8 35.24 0.12 7.49 137.82 13.73
3/16/2021 8:45:00 PM 1.8 35.24 0.119 7.49 139.68 13.57
3/16/2021 9:00:00 PM 1.8 35.24 0.125 7.49 135.67 13.78
3/16/2021 9:15:00 PM 1.8 35.24 0.137 7.49 142.21 13.76
3/16/2021 9:30:00 PM 1.81 35.258 0.142 7.49 135.34 13.74
3/16/2021 9:45:00 PM 1.81 35.258 0.143 7.49 122.69 13.7
3/16/2021 10:00:00 PM 1.82 35.276 0.138 7.49 131.96 13.69
3/16/2021 10:15:00 PM 1.83 35.294 0.137 7.49 145.79 13.65
3/16/2021 10:30:00 PM 1.83 35.294 0.138 7.49 135.84 13.71
3/16/2021 10:45:00 PM 1.84 35.312 0.139 7.49 128.72 13.7
3/16/2021 11:00:00 PM 1.85 35.33 0.144 7.48 135.18 13.73
3/16/2021 11:15:00 PM 1.87 35.366 0.144 7.48 132.27 13.67
3/16/2021 11:30:00 PM 1.88 35.384 0.144 7.48 140 13.63
3/16/2021 11:45:00 PM 1.89 35.402 0.145 7.48 147.97 13.68
3/17/2021 12:00:00 AM 1.9 35.42 0.144 7.48 145.53 13.6
3/17/2021 12:15:00 AM 1.91 35.438 0.144 7.48 142.24 13.63
3/17/2021 12:30:00 AM 1.92 35.456 0.144 7.48 129.76 13.6
3/17/2021 12:45:00 AM 1.93 35.474 0.143 7.48 137.36 13.54
3/17/2021 1:00:00 AM 1.94 35.492 0.143 7.48 139.06 13.62
3/17/2021 1:15:00 AM 1.95 35.51 0.143 7.48 132.98 13.56
3/17/2021 1:30:00 AM 1.96 35.528 0.143 7.48 139.27 13.57
3/17/2021 1:45:00 AM 1.97 35.546 0.142 7.48 140.52 13.56
3/17/2021 2:00:00 AM 1.97 35.546 0.143 7.48 134.41 13.58
3/17/2021 2:15:00 AM 1.98 35.564 0.143 7.48 136.59 13.55
3/17/2021 2:30:00 AM 1.98 35.564 0.144 7.48 135.79 13.61
3/17/2021 2:45:00 AM 1.99 35.582 0.145 7.48 140.98 13.51
3/17/2021 3:00:00 AM 2 35.6 0.146 7.48 133.55 13.38
3/17/2021 3:15:00 AM 2 35.6 0.145 7.48 131.55 13.55
3/17/2021 3:30:00 AM 2.01 35.618 0.146 7.48 139.02 13.53
3/17/2021 3:45:00 AM 2.01 35.618 0.146 7.48 140.79 13.44
3/17/2021 4:00:00 AM 2.02 35.636 0.146 7.48 135.73 13.55
3/17/2021 4:15:00 AM 2.03 35.654 0.148 7.48 133.78 13.32
3/17/2021 4:30:00 AM 2.04 35.672 0.147 7.48 138.35 13.45
3/17/2021 4:45:00 AM 2.04 35.672 0.147 7.48 141.43 13.39
3/17/2021 5:00:00 AM 2.05 35.69 0.147 7.48 131.54 13.51
3/17/2021 5:15:00 AM 2.06 35.708 0.148 7.48 154.74 13.22
3/17/2021 5:30:00 AM 2.06 35.708 0.148 7.48 153.29 13.31
3/17/2021 5:45:00 AM 2.07 35.726 0.148 7.48 141.52 13.39
3/17/2021 6:00:00 AM 2.08 35.744 0.149 7.48 150.58 13.25
3/17/2021 6:15:00 AM 2.08 35.744 0.148 7.48 133.56 13.36
3/17/2021 6:30:00 AM 2.09 35.762 0.149 7.47 163.33 13.46
3/17/2021 6:45:00 AM 2.09 35.762 0.15 7.47 140.11 13.29
3/17/2021 7:00:00 AM 2.1 35.78 0.151 7.47 165.94 13.03
3/17/2021 7:15:00 AM 2.1 35.78 0.15 7.48 136.84 13.51
3/17/2021 7:30:00 AM 2.1 35.78 0.151 7.47 140.79 13.19
3/17/2021 7:45:00 AM 2.11 35.798 0.151 7.47 136.6 13.21
3/17/2021 8:00:00 AM 2.12 35.816 0.151 7.47 150.45 13.44
3/17/2021 8:15:00 AM 2.12 35.816 0.152 7.47 143.18 13.39
3/17/2021 8:30:00 AM 2.14 35.852 0.152 7.47 160.72 13.06
3/17/2021 8:45:00 AM 2.15 35.87 0.152 7.47 140.88 13.4
3/17/2021 9:00:00 AM 2.16 35.888 0.152 7.47 132.97 13.29
3/17/2021 9:15:00 AM 2.18 35.924 0.152 7.48 153.16 13.23
3/17/2021 9:30:00 AM 2.2 35.96 0.152 7.48 145.32 13.34
3/17/2021 9:45:00 AM 2.23 36.014 0.153 7.48 135.3 13.45
3/17/2021 10:00:00 AM 2.26 36.068 0.153 7.48 144.27 13.23
3/17/2021 10:15:00 AM 2.29 36.122 0.153 7.48 129.88 13.46
3/17/2021 10:30:00 AM 2.33 36.194 0.153 7.49 140.12 13.39
3/17/2021 10:45:00 AM 2.37 36.266 0.154 7.49 149.39 13.46
3/17/2021 11:00:00 AM 2.42 36.356 0.154 7.49 144.74 13.47
3/17/2021 11:15:00 AM 2.48 36.464 0.154 7.5 139.35 13.53
3/17/2021 11:30:00 AM 2.56 36.608 0.154 7.5 138.49 13.49
3/17/2021 11:45:00 AM 2.63 36.734 0.154 7.5 144.95 13.25
3/17/2021 12:00:00 PM 2.7 36.86 0.154 7.51 129.6 13.35
3/17/2021 12:15:00 PM 2.77 36.986 0.154 7.51 140.8 13.39
3/17/2021 12:30:00 PM 2.85 37.13 0.154 7.51 138.21 13.29
3/17/2021 12:45:00 PM 2.95 37.31 0.154 7.52 153.48 13.47
3/17/2021 1:00:00 PM 3.05 37.49 0.154 7.52 143.09 13.46
3/17/2021 1:15:00 PM 3.15 37.67 0.154 7.52 135.77 13.18
3/17/2021 1:30:00 PM 3.24 37.832 0.154 7.52 138.9 13.19
3/17/2021 1:45:00 PM 3.32 37.976 0.153 7.52 149.51 13.41
3/17/2021 2:00:00 PM 3.41 38.138 0.154 7.53 144.82 13.44
3/17/2021 2:15:00 PM 3.49 38.282 0.154 7.53 136.69 13.4
3/17/2021 2:30:00 PM 3.57 38.426 0.154 7.53 141.81 13.31
3/17/2021 2:45:00 PM 3.65 38.57 0.154 7.53 144.52 13.26
3/17/2021 3:00:00 PM 3.72 38.696 0.154 7.54 115.92 13.32
3/17/2021 3:15:00 PM 3.79 38.822 0.154 7.54 147.41 13.38
3/17/2021 3:30:00 PM 3.87 38.966 0.154 7.54 148.26 13.23
3/17/2021 3:45:00 PM 3.93 39.074 0.155 7.55 164.44 13.4
3/17/2021 4:00:00 PM 3.99 39.182 0.155 7.55 144.71 13.12
3/17/2021 4:15:00 PM 4.06 39.308 0.156 7.55 141.05 13.42
3/17/2021 4:30:00 PM 4.12 39.416 0.155 7.55 137.57 13.14
3/17/2021 4:45:00 PM 4.16 39.488 0.155 7.56 135.27 13.23
3/17/2021 5:00:00 PM 4.19 39.542 0.155 7.56 144.77 13.01
3/17/2021 5:15:00 PM 4.21 39.578 0.154 7.56 135.67 13.06
3/17/2021 5:30:00 PM 4.22 39.596 0.153 7.56 150.2 13.13
3/17/2021 5:45:00 PM 4.23 39.614 0.154 7.56 154.09 13.29
3/17/2021 6:00:00 PM 4.23 39.614 0.154 7.56 145.8 13.31
3/17/2021 6:15:00 PM 4.23 39.614 0.154 7.56 144.23 13.02
3/17/2021 6:30:00 PM 4.23 39.614 0.154 7.56 152.65 13.04
3/17/2021 6:45:00 PM 4.22 39.596 0.154 7.56 136.96 12.97
3/17/2021 7:00:00 PM 4.21 39.578 0.154 7.56 145.41 12.91
3/17/2021 7:15:00 PM 4.2 39.56 0.155 7.56 159.86 12.9
3/17/2021 7:30:00 PM 4.19 39.542 0.157 7.56 139.95 13.13
3/17/2021 7:45:00 PM 4.17 39.506 0.158 7.56 153.24 13.18
3/17/2021 8:00:00 PM 4.16 39.488 0.158 7.55 170.61 13.1
3/17/2021 8:15:00 PM 4.14 39.452 0.159 7.55 166.3 13.03
3/17/2021 8:30:00 PM 4.13 39.434 0.159 7.55 146.25 12.56
3/17/2021 8:45:00 PM 4.13 39.434 0.159 7.54 147.16 12.56
3/17/2021 9:00:00 PM 4.12 39.416 0.159 7.54 140.53 12.49
3/17/2021 9:15:00 PM 4.13 39.434 0.159 7.54 160.14 12.97
3/17/2021 9:30:00 PM 4.13 39.434 0.159 7.54 151.86 12.59
3/17/2021 9:45:00 PM 4.14 39.452 0.159 7.53 165.93 12.62
3/17/2021 10:00:00 PM 4.15 39.47 0.159 7.53 153.68 12.38
3/17/2021 10:15:00 PM 4.16 39.488 0.159 7.53 141.81 12.79
3/17/2021 10:30:00 PM 4.17 39.506 0.159 7.53 149.58 12.64
3/17/2021 10:45:00 PM 4.18 39.524 0.159 7.53 151.29 12.69
3/17/2021 11:00:00 PM 4.19 39.542 0.16 7.53 155.65 12.39
3/17/2021 11:15:00 PM 4.2 39.56 0.159 7.53 156.77 12.5
3/17/2021 11:30:00 PM 4.2 39.56 0.157 7.53 151.65 12.35
3/17/2021 11:45:00 PM 4.21 39.578 0.157 7.52 150.14 12.31
3/18/2021 12:00:00 AM 4.21 39.578 0.157 7.52 150.12 11.85
3/18/2021 12:15:00 AM 4.22 39.596 0.157 7.52 153.85 12.42
3/18/2021 12:30:00 AM 4.23 39.614 0.157 7.52 170.51 12.37
3/18/2021 12:45:00 AM 4.24 39.632 0.157 7.52 156.55 12.3
3/18/2021 1:00:00 AM 4.25 39.65 0.156 7.52 153.9 12.09
3/18/2021 1:15:00 AM 4.27 39.686 0.155 7.52 162.2 11.92
3/18/2021 1:30:00 AM 4.28 39.704 0.156 7.52 157.76 12.3
3/18/2021 1:45:00 AM 4.3 39.74 0.156 7.52 152.72 11.82
3/18/2021 2:00:00 AM 4.32 39.776 0.155 7.52 160.55 12.46
3/18/2021 2:15:00 AM 4.35 39.83 0.155 7.52 155.34 12.64
3/18/2021 2:30:00 AM 4.37 39.866 0.155 7.52 153.45 12.5
3/18/2021 2:45:00 AM 4.4 39.92 0.155 7.52 169.23 12.39
3/18/2021 3:00:00 AM 4.42 39.956 0.155 7.52 186.62 12.28
3/18/2021 3:15:00 AM 4.44 39.992 0.154 7.51 174 12.52
3/18/2021 3:30:00 AM 4.45 40.01 0.154 7.51 164.4 12.35
3/18/2021 3:45:00 AM 4.47 40.046 0.154 7.51 175.31 12.25
3/18/2021 4:00:00 AM 4.48 40.064 0.154 7.51 155.62 12.4
3/18/2021 4:15:00 AM 4.48 40.064 0.153 7.51 151.84 12.2
3/18/2021 4:30:00 AM 4.49 40.082 0.153 7.51 148.54 12.13
3/18/2021 4:45:00 AM 4.49 40.082 0.153 7.51 146.34 12.02
3/18/2021 5:00:00 AM 4.5 40.1 0.153 7.51 177.19 11.78
3/18/2021 5:15:00 AM 4.5 40.1 0.153 7.51 148.59 12
3/18/2021 5:30:00 AM 4.5 40.1 0.153 7.51 194.13 11.88
3/18/2021 5:45:00 AM 4.49 40.082 0.153 7.51 150.65 12.14
3/18/2021 6:00:00 AM 4.49 40.082 0.153 7.5 166.49 11.69
3/18/2021 6:15:00 AM 4.48 40.064 0.152 7.5 171.67 11.93
3/18/2021 6:30:00 AM 4.48 40.064 0.152 7.5 154.44 12.12
3/18/2021 6:45:00 AM 4.47 40.046 0.152 7.5 159.81 12.19
3/18/2021 7:00:00 AM 4.47 40.046 0.153 7.5 152.49 11.95
3/18/2021 7:15:00 AM 4.46 40.028 0.153 7.5 156.98 11.86
3/18/2021 7:30:00 AM 4.45 40.01 0.154 7.5 165.64 12.17
3/18/2021 7:45:00 AM 4.45 40.01 0.153 7.5 160.83 12.13
3/18/2021 8:00:00 AM 4.44 39.992 0.153 7.5 172.5 12.15
3/18/2021 8:15:00 AM 4.44 39.992 0.152 7.5 161.39 12.2
3/18/2021 8:30:00 AM 4.43 39.974 0.153 7.5 160.47 12.15
3/18/2021 8:45:00 AM 4.43 39.974 0.152 7.5 169.99 11.61
3/18/2021 9:00:00 AM 4.43 39.974 0.152 7.5 171.89 12.04
3/18/2021 9:15:00 AM 4.42 39.956 0.152 7.5 169.08 11.98
3/18/2021 9:30:00 AM 4.42 39.956 0.153 7.5 184.95 11.53
3/18/2021 9:45:00 AM 4.42 39.956 0.152 7.5 187.96 11.7
3/18/2021 10:00:00 AM 4.42 39.956 0.152 7.5 162.21 11.24
3/18/2021 10:15:00 AM 4.42 39.956 0.152 7.5 187.57 11.47
3/18/2021 10:30:00 AM 4.42 39.956 0.151 7.5 165.42 11.63
3/18/2021 10:45:00 AM 4.42 39.956 0.151 7.5 179.34 11.58
3/18/2021 11:00:00 AM 4.41 39.938 0.152 7.5 163.05 11.59
3/18/2021 11:15:00 AM 4.41 39.938 0.153 7.5 164.61 11.55
3/18/2021 11:30:00 AM 4.41 39.938 0.153 7.51 166.66 10.24
3/18/2021 11:45:00 AM 4.41 39.938 0.153 7.5 165.59 11.69
3/18/2021 12:00:00 PM 4.41 39.938 0.153 7.51 165.65 11.84
3/18/2021 12:15:00 PM 4.4 39.92 0.154 7.51 161.77 11.9
3/18/2021 12:30:00 PM 4.39 39.902 0.156 7.51 182.76 11.99
3/18/2021 12:45:00 PM 4.39 39.902 0.156 7.51 168.95 11.95
3/18/2021 1:00:00 PM 4.38 39.884 0.155 7.51 151.24 11.21
3/18/2021 1:15:00 PM 4.37 39.866 0.155 7.51 193.35 11.61
3/18/2021 1:30:00 PM 4.36 39.848 0.156 7.51 145.22 11.73
3/18/2021 1:45:00 PM 4.36 39.848 0.157 7.51 150.43 11.73
3/18/2021 2:00:00 PM 4.36 39.848 0.157 7.51 151.9 11.96
3/18/2021 2:15:00 PM 4.36 39.848 0.156 7.51 149.47 12.28
3/18/2021 2:30:00 PM 4.35 39.83 0.157 7.52 156.54 12.19
3/18/2021 2:45:00 PM 4.35 39.83 0.157 7.52 153.86 12.4
3/18/2021 3:00:00 PM 4.34 39.812 0.157 7.52 155.9 12.51
3/18/2021 3:15:00 PM 4.33 39.794 0.158 7.52 163.66 12.56
3/18/2021 3:30:00 PM 4.33 39.794 0.158 7.52 153.58 12.32
3/18/2021 3:45:00 PM 4.33 39.794 0.159 7.53 151.95 12.52
3/18/2021 4:00:00 PM 4.34 39.812 0.159 7.53 154.72 12.12
3/18/2021 4:15:00 PM 4.34 39.812 0.173 7.53 154.86 12.39
3/18/2021 4:30:00 PM 4.33 39.794 0.17 7.53 151.66 12.21
3/18/2021 4:45:00 PM 4.32 39.776 0.17 7.53 177.71 12.52
3/18/2021 5:00:00 PM 4.3 39.74 0.169 7.53 168.79 12.29
3/18/2021 5:15:00 PM 4.28 39.704 0.168 7.53 161.81 12.46
3/18/2021 5:30:00 PM 4.26 39.668 0.168 7.53 156.33 12.56
3/18/2021 5:45:00 PM 4.24 39.632 0.167 7.53 167.7 12.6
3/18/2021 6:00:00 PM 4.21 39.578 0.168 7.53 176.15 12.5
3/18/2021 6:15:00 PM 4.19 39.542 0.167 7.53 170.78 12.65
3/18/2021 6:30:00 PM 4.17 39.506 0.168 7.52 179.1 12.66
3/18/2021 6:45:00 PM 4.14 39.452 0.167 7.52 163.66 12.71
3/18/2021 7:00:00 PM 4.12 39.416 0.167 7.52 163.33 12.65
3/18/2021 7:15:00 PM 4.09 39.362 0.167 7.52 173.89 12.71
3/18/2021 7:30:00 PM 4.06 39.308 0.168 7.52 192.33 12.68
3/18/2021 7:45:00 PM 4.04 39.272 0.168 7.51 144.61 12.76
3/18/2021 8:00:00 PM 4.01 39.218 0.168 7.51 153.97 12.81
3/18/2021 8:15:00 PM 3.98 39.164 0.169 7.51 148.85 12.75
3/18/2021 8:30:00 PM 3.96 39.128 0.169 7.5 157.88 12.76
3/18/2021 8:45:00 PM 3.93 39.074 0.17 7.5 173.95 12.76
3/18/2021 9:00:00 PM 3.9 39.02 0.171 7.5 169.05 12.82
3/18/2021 9:15:00 PM 3.88 38.984 0.171 7.5 161.7 12.6
3/18/2021 9:30:00 PM 3.86 38.948 0.171 7.5 154.86 12.73
3/18/2021 9:45:00 PM 3.83 38.894 0.171 7.5 168.08 12.8
3/18/2021 10:00:00 PM 3.81 38.858 0.171 7.5 190.07 12.94
3/18/2021 10:15:00 PM 3.79 38.822 0.172 7.5 290.57 12.92
3/18/2021 10:30:00 PM 3.78 38.804 0.172 7.5 174.41 12.75
3/18/2021 10:45:00 PM 3.76 38.768 0.172 7.5 162.72 12.76
3/18/2021 11:00:00 PM 3.74 38.732 0.172 7.5 154.02 12.87
3/18/2021 11:15:00 PM 3.73 38.714 0.172 7.5 171.44 12.94
3/18/2021 11:30:00 PM 3.71 38.678 0.173 7.5 174.39 12.93
3/18/2021 11:45:00 PM 3.69 38.642 0.173 7.5 163.58 12.89
3/19/2021 12:00:00 AM 3.68 38.624 0.174 7.5 154.06 12.98
3/19/2021 12:15:00 AM 3.67 38.606 0.174 7.5 197.3 13
3/19/2021 12:30:00 AM 3.65 38.57 0.174 7.5 185.5 12.94
3/19/2021 12:45:00 AM 3.63 38.534 0.173 7.5 170.3 12.93
3/19/2021 1:00:00 AM 3.61 38.498 0.174 7.5 176.95 12.96
3/19/2021 1:15:00 AM 3.6 38.48 0.173 7.5 164.44 12.97
3/19/2021 1:30:00 AM 3.57 38.426 0.172 7.5 189.77 12.99
3/19/2021 1:45:00 AM 3.55 38.39 0.172 7.5 212.18 13.01
3/19/2021 2:00:00 AM 3.53 38.354 0.171 7.49 163.93 13.03
3/19/2021 2:15:00 AM 3.51 38.318 0.171 7.49 167.27 13.03
3/19/2021 2:30:00 AM 3.47 38.246 0.17 7.49 203.87 13.05
3/19/2021 2:45:00 AM 3.44 38.192 0.169 7.48 194.63 13.05
3/19/2021 3:00:00 AM 3.39 38.102 0.168 7.48 173.85 13.06
3/19/2021 3:15:00 AM 3.35 38.03 0.167 7.48 161.54 13.08
3/19/2021 3:30:00 AM 3.31 37.958 0.166 7.48 163.73 13.1
3/19/2021 3:45:00 AM 3.26 37.868 0.166 7.47 188.35 13.12
3/19/2021 4:00:00 AM 3.2 37.76 0.165 7.47 166.22 13.15
3/19/2021 4:15:00 AM 3.15 37.67 0.163 7.46 179.45 13.16
3/19/2021 4:30:00 AM 3.1 37.58 0.163 7.46 164.9 13.17
3/19/2021 4:45:00 AM 3.05 37.49 0.163 7.46 199.35 13.19
3/19/2021 5:00:00 AM 3 37.4 0.166 7.46 151.79 13.2
3/19/2021 5:15:00 AM 2.96 37.328 0.165 7.45 158.8 13.24
3/19/2021 5:30:00 AM 2.92 37.256 0.165 7.45 183.73 13.23
3/19/2021 5:45:00 AM 2.88 37.184 0.16 7.45 216 13.26
3/19/2021 6:00:00 AM 2.84 37.112 0.159 7.44 174.51 13.27
3/19/2021 6:15:00 AM 2.79 37.022 0.172 7.44 173.27 13.28
3/19/2021 6:30:00 AM 2.74 36.932 0.173 7.44 214.84 13.31
3/19/2021 6:45:00 AM 2.69 36.842 0.171 7.43 190.21 13.29
3/19/2021 7:00:00 AM 2.64 36.752 0.171 7.43 181.22 13.35
3/19/2021 7:15:00 AM 2.58 36.644 0.17 7.43 180.09 13.36
3/19/2021 7:30:00 AM 2.53 36.554 0.168 7.42 157.42 13.39
3/19/2021 7:45:00 AM 2.48 36.464 0.17 7.41 142.08 13.41
3/19/2021 8:00:00 AM 2.43 36.374 0.169 7.41 168.39 13.44
3/19/2021 8:15:00 AM 2.39 36.302 0.169 7.41 171.22 13.48
3/19/2021 8:30:00 AM 2.35 36.23 0.168 7.4 172.66 13.5
3/19/2021 8:45:00 AM 2.32 36.176 0.167 7.4 182.02 13.53
3/19/2021 9:00:00 AM 2.3 36.14 0.166 7.4 567.64 13.55
3/19/2021 9:15:00 AM 2.3 36.14 0.165 7.39 220.71 13.58
3/19/2021 9:30:00 AM 2.3 36.14 0.165 7.39 155.48 13.6
3/19/2021 9:45:00 AM 2.31 36.158 0.164 7.39 165.51 13.63
3/19/2021 10:00:00 AM 2.32 36.176 0.164 7.39 147.79 13.65
3/19/2021 10:15:00 AM 2.34 36.212 0.163 7.38 193.57 13.67
3/19/2021 10:30:00 AM 2.36 36.248 0.163 7.38 134.5 13.7
3/19/2021 10:45:00 AM 2.38 36.284 0.163 7.38 156.53 13.71
3/19/2021 11:00:00 AM 2.4 36.32 0.166 7.38 136.71 13.73
3/19/2021 11:15:00 AM 2.43 36.374 0.171 7.38 163.54 13.75
3/19/2021 11:30:00 AM 2.46 36.428 0.165 7.38 152.33 13.77
3/19/2021 11:45:00 AM 2.5 36.5 0.163 7.38 155.18 13.79
3/19/2021 12:00:00 PM 2.53 36.554 0.162 7.38 170.52 13.81
3/19/2021 12:15:00 PM 2.57 36.626 0.162 7.38 165.36 13.82
3/19/2021 12:30:00 PM 2.61 36.698 0.165 7.38 158.74 13.83
3/19/2021 12:45:00 PM 2.65 36.77 0.161 7.38 172.16 13.83
3/19/2021 1:00:00 PM 2.7 36.86 0.16 7.38 141.31 13.85
3/19/2021 1:15:00 PM 2.74 36.932 0.162 7.38 155.14 13.86
3/19/2021 1:30:00 PM 2.79 37.022 0.162 7.39 125.9 13.87
3/19/2021 1:45:00 PM 2.84 37.112 0.164 7.39 153.8 13.87
3/19/2021 2:00:00 PM 2.88 37.184 0.164 7.39 177.72 13.89
3/19/2021 2:15:00 PM 2.92 37.256 0.164 7.39 154.86 13.89
3/19/2021 2:30:00 PM 2.97 37.346 0.154 7.39 179.48 13.91
3/19/2021 2:45:00 PM 3.02 37.436 0.158 7.39 167.4 13.9
3/19/2021 3:00:00 PM 3.07 37.526 0.161 7.39 152.04 13.9
3/19/2021 3:15:00 PM 3.11 37.598 0.161 7.39 150.32 13.92
3/19/2021 3:30:00 PM 3.15 37.67 0.163 7.39 154.55 13.91
3/19/2021 3:45:00 PM 3.18 37.724 0.161 7.4 155.66 13.92
3/19/2021 4:00:00 PM 3.21 37.778 0.157 7.4 149.22 13.92
3/19/2021 4:15:00 PM 3.23 37.814 0.153 7.4 161.89 13.92
3/19/2021 4:30:00 PM 3.26 37.868 0.152 7.4 147.06 13.92
3/19/2021 4:45:00 PM 3.28 37.904 0.156 7.4 169.08 13.92
3/19/2021 5:00:00 PM 3.29 37.922 0.157 7.4 172.8 13.92
3/19/2021 5:15:00 PM 3.31 37.958 0.156 7.4 154.08 13.92
3/19/2021 5:30:00 PM 3.32 37.976 0.154 7.4 145.23 13.93
3/19/2021 5:45:00 PM 3.32 37.976 0.154 7.4 180.05 13.93
3/19/2021 6:00:00 PM 3.33 37.994 0.155 7.4 167 13.93
3/19/2021 6:15:00 PM 3.34 38.012 0.155 7.4 192.04 13.93
3/19/2021 6:30:00 PM 3.35 38.03 0.156 7.4 135.15 13.92
3/19/2021 6:45:00 PM 3.35 38.03 0.155 7.4 174.38 13.91
3/19/2021 7:00:00 PM 3.35 38.03 0.155 7.4 186.05 13.91
3/19/2021 7:15:00 PM 3.34 38.012 0.157 7.4 150.49 13.9
3/19/2021 7:30:00 PM 3.34 38.012 0.156 7.4 137.58 13.89
3/19/2021 7:45:00 PM 3.35 38.03 0.156 7.41 166.2 13.88
3/19/2021 8:00:00 PM 3.36 38.048 0.157 7.4 151.6 13.87
3/19/2021 8:15:00 PM 3.37 38.066 0.157 7.4 160.39 13.86
3/19/2021 8:30:00 PM 3.38 38.084 0.162 7.4 133.23 13.85
3/19/2021 8:45:00 PM 3.39 38.102 0.163 7.4 199.29 13.83
3/19/2021 9:00:00 PM 3.41 38.138 0.165 7.4 151.65 13.82
3/19/2021 9:15:00 PM 3.42 38.156 0.165 7.4 160.26 13.82
3/19/2021 9:30:00 PM 3.43 38.174 0.165 7.41 166.47 13.79
3/19/2021 9:45:00 PM 3.44 38.192 0.166 7.41 175.71 13.79
3/19/2021 10:00:00 PM 3.44 38.192 0.167 7.41 212.28 13.78
3/19/2021 10:15:00 PM 3.44 38.192 0.136 7.41 147.62 13.78
3/19/2021 10:30:00 PM 3.44 38.192 0.128 7.41 189.82 13.76
3/19/2021 10:45:00 PM 3.44 38.192 0.169 7.41 166.22 13.74
3/19/2021 11:00:00 PM 3.43 38.174 0.17 7.41 157.12 13.73
3/19/2021 11:15:00 PM 3.42 38.156 0.168 7.41 173.2 13.73
3/19/2021 11:30:00 PM 3.42 38.156 0.168 7.41 146.06 13.71
3/19/2021 11:45:00 PM 3.41 38.138 0.171 7.41 156.74 13.69
3/20/2021 12:00:00 AM 3.4 38.12 0.169 7.41 174.04 13.69
3/20/2021 12:15:00 AM 3.38 38.084 0.169 7.41 171.79 13.68
3/20/2021 12:30:00 AM 3.37 38.066 0.168 7.41 153.39 13.66
3/20/2021 12:45:00 AM 3.35 38.03 0.168 7.41 149.64 13.66
3/20/2021 1:00:00 AM 3.33 37.994 0.168 7.4 158.16 13.65
3/20/2021 1:15:00 AM 3.31 37.958 0.168 7.4 176.08 13.64
3/20/2021 1:30:00 AM 3.29 37.922 0.168 7.4 166.13 13.63
3/20/2021 1:45:00 AM 3.26 37.868 0.168 7.4 160.95 13.62
3/20/2021 2:00:00 AM 3.24 37.832 0.17 7.4 199.8 13.6
3/20/2021 2:15:00 AM 3.22 37.796 0.17 7.39 163.65 13.6
3/20/2021 2:30:00 AM 3.19 37.742 0.17 7.39 174.24 13.61
3/20/2021 2:45:00 AM 3.17 37.706 0.171 7.39 164.75 13.6
3/20/2021 3:00:00 AM 3.14 37.652 0.171 7.39 156.11 13.58
3/20/2021 3:15:00 AM 3.12 37.616 0.171 7.39 246.79 13.58
3/20/2021 3:30:00 AM 3.09 37.562 0.171 7.39 207.49 13.59
3/20/2021 3:45:00 AM 3.07 37.526 0.172 7.39 164.12 13.59
3/20/2021 4:00:00 AM 3.04 37.472 0.17 7.38 179.93 13.58
3/20/2021 4:15:00 AM 3.02 37.436 0.171 7.38 207.83 13.57
3/20/2021 4:30:00 AM 2.99 37.382 0.172 7.38 182.59 13.56
3/20/2021 4:45:00 AM 2.96 37.328 0.171 7.38 175.79 13.58
3/20/2021 5:00:00 AM 2.93 37.274 0.17 7.38 174.24 13.59
3/20/2021 5:15:00 AM 2.9 37.22 0.17 7.38 182.5 13.58
3/20/2021 5:30:00 AM 2.86 37.148 0.167 7.38 174.55 13.56
3/20/2021 5:45:00 AM 2.83 37.094 0.165 7.38 164.85 13.58
3/20/2021 6:00:00 AM 2.8 37.04 0.165 7.38 180.73 13.58
3/20/2021 6:15:00 AM 2.76 36.968 0.167 7.38 176.03 13.57
3/20/2021 6:30:00 AM 2.72 36.896 0.166 7.38 169.16 13.55
3/20/2021 6:45:00 AM 2.68 36.824 0.166 7.38 169.5 13.59
3/20/2021 7:00:00 AM 2.64 36.752 0.166 7.38 184.71 13.6
3/20/2021 7:15:00 AM 2.6 36.68 0.167 7.38 166.04 13.58
3/20/2021 7:30:00 AM 2.56 36.608 0.164 7.38 202.36 13.6
3/20/2021 7:45:00 AM 2.51 36.518 0.164 7.38 187.32 13.62
3/20/2021 8:00:00 AM 2.47 36.446 0.164 7.39 178.44 13.65
3/20/2021 8:15:00 AM 2.44 36.392 0.164 7.39 174.14 13.65
3/20/2021 8:30:00 AM 2.41 36.338 0.164 7.38 185.6 13.67
3/20/2021 8:45:00 AM 2.39 36.302 0.164 7.39 213.39 13.68
3/20/2021 9:00:00 AM 2.38 36.284 0.165 7.39 176.15 13.7
3/20/2021 9:15:00 AM 2.37 36.266 0.165 7.39 198.57 13.7
3/20/2021 9:30:00 AM 2.38 36.284 0.166 7.4 148.89 13.74
3/20/2021 9:45:00 AM 2.4 36.32 0.166 7.4 189.23 13.74
3/20/2021 10:00:00 AM 2.42 36.356 0.167 7.4 171.43 13.73
3/20/2021 10:15:00 AM 2.45 36.41 0.167 7.41 206.51 13.77
3/20/2021 10:30:00 AM 2.48 36.464 0.167 7.41 182.6 13.79
3/20/2021 10:45:00 AM 2.52 36.536 0.168 7.41 196.35 13.8
3/20/2021 11:00:00 AM 2.56 36.608 0.168 7.41 189.51 13.84
3/20/2021 11:15:00 AM 2.61 36.698 0.169 7.42 185.3 13.83
3/20/2021 11:30:00 AM 2.67 36.806 0.169 7.42 152.43 13.82
3/20/2021 11:45:00 AM 2.73 36.914 0.171 7.42 165.68 13.87
3/20/2021 12:00:00 PM 2.79 37.022 0.174 7.42 229.3 13.87
3/20/2021 12:15:00 PM 2.86 37.148 0.174 7.42 163.63 13.89
3/20/2021 12:30:00 PM 2.92 37.256 0.174 7.43 175.53 13.91
3/20/2021 12:45:00 PM 2.99 37.382 0.173 7.43 199.62 13.91
3/20/2021 1:00:00 PM 3.06 37.508 0.173 7.43 184.78 13.92
3/20/2021 1:15:00 PM 3.12 37.616 0.173 7.43 165.1 13.95
3/20/2021 1:30:00 PM 3.19 37.742 0.174 7.43 183.39 13.96
3/20/2021 1:45:00 PM 3.26 37.868 0.175 7.44 203.92 13.92
3/20/2021 2:00:00 PM 3.33 37.994 0.175 7.44 165.54 13.9
3/20/2021 2:15:00 PM 3.39 38.102 0.174 7.44 192.86 13.9
3/20/2021 2:30:00 PM 3.44 38.192 0.175 7.44 173.44 13.85
3/20/2021 2:45:00 PM 3.5 38.3 0.174 7.44 169.78 13.94
3/20/2021 3:00:00 PM 3.56 38.408 0.174 7.44 175.46 13.93
3/20/2021 3:15:00 PM 3.62 38.516 0.174 7.45 175.74 13.96
3/20/2021 3:30:00 PM 3.68 38.624 0.165 7.45 185.42 13.95
3/20/2021 3:45:00 PM 3.74 38.732 0.164 7.45 190.13 13.93
3/20/2021 4:00:00 PM 3.78 38.804 0.163 7.45 180.66 13.94
3/20/2021 4:15:00 PM 3.83 38.894 0.161 7.45 182.46 13.93
3/20/2021 4:30:00 PM 3.87 38.966 0.161 7.45 192.61 13.93
3/20/2021 4:45:00 PM 3.91 39.038 0.16 7.45 172.9 13.91
3/20/2021 5:00:00 PM 3.94 39.092 0.156 7.46 179.79 13.87
3/20/2021 5:15:00 PM 3.97 39.146 0.156 7.46 206.27 13.89
3/20/2021 5:30:00 PM 3.99 39.182 0.156 7.46 193.86 13.85
3/20/2021 5:45:00 PM 4 39.2 0.156 7.46 154.65 13.89
3/20/2021 6:00:00 PM 4.02 39.236 0.155 7.46 177.61 13.87
3/20/2021 6:15:00 PM 4.04 39.272 0.153 7.46 194.52 13.84
3/20/2021 6:30:00 PM 4.05 39.29 0.155 7.46 198.62 13.85
3/20/2021 6:45:00 PM 4.06 39.308 0.154 7.46 190.05 13.8
3/20/2021 7:00:00 PM 4.07 39.326 0.154 7.46 198.98 13.79
3/20/2021 7:15:00 PM 4.08 39.344 0.152 7.46 187.58 13.74
3/20/2021 7:30:00 PM 4.08 39.344 0.152 7.46 186.14 13.79
3/20/2021 7:45:00 PM 4.08 39.344 0.152 7.46 175.97 13.75
3/20/2021 8:00:00 PM 4.08 39.344 0.151 7.45 181.61 13.71
3/20/2021 8:15:00 PM 4.08 39.344 0.151 7.45 169.18 13.71
3/20/2021 8:30:00 PM 4.09 39.362 0.152 7.45 196.08 13.67
3/20/2021 8:45:00 PM 4.1 39.38 0.151 7.45 185.98 13.63
3/20/2021 9:00:00 PM 4.12 39.416 0.151 7.45 163.93 13.6
3/20/2021 9:15:00 PM 4.13 39.434 0.15 7.45 203.84 13.61
3/20/2021 9:30:00 PM 4.15 39.47 0.151 7.44 178.56 13.53
3/20/2021 9:45:00 PM 4.17 39.506 0.151 7.45 179.3 13.57
3/20/2021 10:00:00 PM 4.18 39.524 0.151 7.44 186.35 13.54
3/20/2021 10:15:00 PM 4.2 39.56 0.15 7.44 184.57 13.51
3/20/2021 10:30:00 PM 4.22 39.596 0.15 7.45 179.98 13.5
3/20/2021 10:45:00 PM 4.23 39.614 0.151 7.44 172.99 13.49
3/20/2021 11:00:00 PM 4.24 39.632 0.152 7.44 203.42 13.44
3/20/2021 11:15:00 PM 4.24 39.632 0.152 7.44 168.24 13.44
3/20/2021 11:30:00 PM 4.25 39.65 0.152 7.44 190.86 13.4
3/20/2021 11:45:00 PM 4.26 39.668 0.155 7.45 174.78 13.38
3/21/2021 12:00:00 AM 4.27 39.686 0.155 7.44 203.54 13.38
3/21/2021 12:15:00 AM 4.28 39.704 0.155 7.44 219.06 13.35
3/21/2021 12:30:00 AM 4.28 39.704 0.156 7.44 213.84 13.32
3/21/2021 12:45:00 AM 4.28 39.704 0.155 7.44 364.81 13.3
3/21/2021 1:00:00 AM 4.28 39.704 0.154 7.45 191.9 13.31
3/21/2021 1:15:00 AM 4.29 39.722 0.153 7.45 230.33 13.26
3/21/2021 1:30:00 AM 4.29 39.722 0.153 7.45 195.59 13.27
3/21/2021 1:45:00 AM 4.28 39.704 0.153 7.45 189.41 13.25
3/21/2021 2:00:00 AM 4.28 39.704 0.153 7.45 214.77 13.18
3/21/2021 2:15:00 AM 4.27 39.686 0.152 7.45 184.17 13.18
3/21/2021 2:30:00 AM 4.26 39.668 0.153 7.45 188.16 12.86
3/21/2021 2:45:00 AM 4.25 39.65 0.153 7.45 195.77 13.18
3/21/2021 3:00:00 AM 4.23 39.614 0.153 7.45 183.48 13.14
3/21/2021 3:15:00 AM 4.22 39.596 0.153 7.45 185.85 13.09
3/21/2021 3:30:00 AM 4.2 39.56 0.153 7.45 186.75 13.12
3/21/2021 3:45:00 AM 4.18 39.524 0.15 7.45 221.54 13.11
3/21/2021 4:00:00 AM 4.16 39.488 0.151 7.45 190 13.05
3/21/2021 4:15:00 AM 4.14 39.452 0.152 7.45 214.63 13.1
3/21/2021 4:30:00 AM 4.11 39.398 0.151 7.45 209.77 13.08
3/21/2021 4:45:00 AM 4.09 39.362 0.152 7.44 163.1 13.06
3/21/2021 5:00:00 AM 4.07 39.326 0.152 7.45 178.3 13.06
3/21/2021 5:15:00 AM 4.05 39.29 0.153 7.44 190.31 13.06
3/21/2021 5:30:00 AM 4.02 39.236 0.154 7.44 183.3 13.04
3/21/2021 5:45:00 AM 4 39.2 0.154 7.44 180.59 13.02
3/21/2021 6:00:00 AM 3.98 39.164 0.154 7.44 190.19 13.01
3/21/2021 6:15:00 AM 3.95 39.11 0.154 7.44 189.15 13
3/21/2021 6:30:00 AM 3.93 39.074 0.155 7.44 205.9 12.99
3/21/2021 6:45:00 AM 3.9 39.02 0.154 7.44 194.88 12.97
3/21/2021 7:00:00 AM 3.88 38.984 0.156 7.44 224.98 12.98
3/21/2021 7:15:00 AM 3.84 38.912 0.155 7.44 180.32 13.03
3/21/2021 7:30:00 AM 3.82 38.876 0.156 7.44 194.5 12.99
3/21/2021 7:45:00 AM 3.8 38.84 0.154 7.44 218.44 12.98
3/21/2021 8:00:00 AM 3.78 38.804 0.154 7.44 206.83 12.99
3/21/2021 8:15:00 AM 3.77 38.786 0.154 7.44 207.76 13
3/21/2021 8:30:00 AM 3.77 38.786 0.153 7.44 182.61 13.01
3/21/2021 8:45:00 AM 3.77 38.786 0.153 7.44 222.71 13.03
3/21/2021 9:00:00 AM 3.78 38.804 0.153 7.44 224.04 13.05
3/21/2021 9:15:00 AM 3.8 38.84 0.154 7.45 186.52 13.08
3/21/2021 9:30:00 AM 3.82 38.876 0.154 7.45 180.15 13.09
3/21/2021 9:45:00 AM 3.85 38.93 0.153 7.45 217.8 13.08
3/21/2021 10:00:00 AM 3.89 39.002 0.153 7.46 205.85 13.11
3/21/2021 10:15:00 AM 3.94 39.092 0.154 7.46 207.99 13.12
3/21/2021 10:30:00 AM 3.99 39.182 0.152 7.46 187.88 13.15
3/21/2021 10:45:00 AM 4.05 39.29 0.152 7.47 208.11 13.18
3/21/2021 11:00:00 AM 4.11 39.398 0.152 7.47 191.53 13.22
3/21/2021 11:15:00 AM 4.17 39.506 0.154 7.47 206.29 13.24
3/21/2021 11:30:00 AM 4.23 39.614 0.155 7.47 168.24 13.26
3/21/2021 11:45:00 AM 4.29 39.722 0.157 7.47 202.6 13.26
3/21/2021 12:00:00 PM 4.35 39.83 0.156 7.48 205.26 13.25
3/21/2021 12:15:00 PM 4.41 39.938 0.158 7.48 193.26 13.26
3/21/2021 12:30:00 PM 4.48 40.064 0.156 7.48 199.63 13.27
3/21/2021 12:45:00 PM 4.55 40.19 0.158 7.49 175.97 13.34
3/21/2021 1:00:00 PM 4.62 40.316 0.158 7.49 199.99 13.33
3/21/2021 1:15:00 PM 4.69 40.442 0.158 7.49 187.16 13.34
3/21/2021 1:30:00 PM 4.76 40.568 0.158 7.49 172.56 13.34
3/21/2021 1:45:00 PM 4.82 40.676 0.16 7.5 185.07 13.38
3/21/2021 2:00:00 PM 4.87 40.766 0.161 7.5 197.6 13.38
3/21/2021 2:15:00 PM 4.93 40.874 0.161 7.5 188.32 13.32
3/21/2021 2:30:00 PM 4.98 40.964 0.161 7.5 231.74 13.35
3/21/2021 2:45:00 PM 5.03 41.054 0.161 7.5 188.93 13.37
3/21/2021 3:00:00 PM 5.07 41.126 0.161 7.51 197.49 13.35
3/21/2021 3:15:00 PM 5.1 41.18 0.163 7.51 216.35 13.33
3/21/2021 3:30:00 PM 5.13 41.234 0.163 7.51 231.09 13.37
3/21/2021 3:45:00 PM 5.16 41.288 0.163 7.51 195.08 13.41
3/21/2021 4:00:00 PM 5.18 41.324 0.162 7.51 208.75 13.4
3/21/2021 4:15:00 PM 5.21 41.378 0.161 7.52 188.28 13.4
3/21/2021 4:30:00 PM 5.22 41.396 0.161 7.52 188.88 13.42
3/21/2021 4:45:00 PM 5.23 41.414 0.158 7.52 192.77 13.43
3/21/2021 5:00:00 PM 5.24 41.432 0.16 7.52 194.85 13.43
3/21/2021 5:15:00 PM 5.24 41.432 0.159 7.52 179.73 13.41
3/21/2021 5:30:00 PM 5.23 41.414 0.153 7.53 186.78 13.44
3/21/2021 5:45:00 PM 5.23 41.414 0.154 7.52 188.26 13.42
3/21/2021 6:00:00 PM 5.21 41.378 0.155 7.53 179.7 13.42
3/21/2021 6:15:00 PM 5.21 41.378 0.156 7.53 193.18 13.38
3/21/2021 6:30:00 PM 5.19 41.342 0.155 7.53 218.61 13.42
3/21/2021 6:45:00 PM 5.18 41.324 0.155 7.53 190.58 13.39
3/21/2021 7:00:00 PM 5.16 41.288 0.154 7.53 185.67 13.39
3/21/2021 7:15:00 PM 5.14 41.252 0.153 7.53 197.31 13.39
3/21/2021 7:30:00 PM 5.12 41.216 0.155 7.52 175.94 13.37
3/21/2021 7:45:00 PM 5.1 41.18 0.157 7.52 182.36 13.34
3/21/2021 8:00:00 PM 5.07 41.126 0.154 7.52 184.63 13.35
3/21/2021 8:15:00 PM 5.05 41.09 0.157 7.52 208.6 13.32
3/21/2021 8:30:00 PM 5.03 41.054 0.157 7.51 173.03 13.28
3/21/2021 8:45:00 PM 5.02 41.036 0.157 7.51 176.21 13.28
3/21/2021 9:00:00 PM 5.02 41.036 0.158 7.51 178.16 13.27
3/21/2021 9:15:00 PM 5.03 41.054 0.157 7.51 169.17 13.23
3/21/2021 9:30:00 PM 5.04 41.072 0.158 7.5 153.2 13.17
3/21/2021 9:45:00 PM 5.05 41.09 0.158 7.5 174.16 13.19
3/21/2021 10:00:00 PM 5.07 41.126 0.158 7.5 162.75 13.16
3/21/2021 10:15:00 PM 5.08 41.144 0.159 7.5 170.47 13.13
3/21/2021 10:30:00 PM 5.09 41.162 0.159 7.5 167.93 13.1
3/21/2021 10:45:00 PM 5.1 41.18 0.16 7.5 176.24 13.07
3/21/2021 11:00:00 PM 5.11 41.198 0.161 7.5 176.64 13.09
3/21/2021 11:15:00 PM 5.12 41.216 0.161 7.5 180.96 13.08
3/21/2021 11:30:00 PM 5.13 41.234 0.162 7.5 176.35 13.02
3/21/2021 11:45:00 PM 5.14 41.252 0.161 7.49 178.45 13
3/22/2021 12:00:00 AM 5.15 41.27 0.163 7.49 176.91 12.96
3/22/2021 12:15:00 AM 5.15 41.27 0.163 7.5 231.51 12.93
3/22/2021 12:30:00 AM 5.16 41.288 0.163 7.49 177.53 12.91
3/22/2021 12:45:00 AM 5.17 41.306 0.165 7.49 173.92 12.92
3/22/2021 1:00:00 AM 5.17 41.306 0.165 7.49 165.37 12.85
3/22/2021 1:15:00 AM 5.17 41.306 0.165 7.49 163.95 12.8
3/22/2021 1:30:00 AM 5.17 41.306 0.164 7.49 160.43 12.84
3/22/2021 1:45:00 AM 5.17 41.306 0.164 7.49 162.99 12.82
3/22/2021 2:00:00 AM 5.16 41.288 0.163 7.49 163.36 12.75
3/22/2021 2:15:00 AM 5.15 41.27 0.163 7.49 159.46 12.78
3/22/2021 2:30:00 AM 5.14 41.252 0.162 7.49 161.95 12.72
3/22/2021 2:45:00 AM 5.13 41.234 0.162 7.48 159.4 12.62
3/22/2021 3:00:00 AM 5.11 41.198 0.161 7.49 162.05 12.62
3/22/2021 3:15:00 AM 5.09 41.162 0.162 7.48 165.97 12.43
3/22/2021 3:30:00 AM 5.07 41.126 0.161 7.48 159.52 12.37
3/22/2021 3:45:00 AM 5.04 41.072 0.162 7.48 159.08 12.42
3/22/2021 4:00:00 AM 5.02 41.036 0.162 7.48 161.8 12.52
3/22/2021 4:15:00 AM 5 41 0.162 7.48 157.59 12.45
3/22/2021 4:30:00 AM 4.97 40.946 0.163 7.48 155.86 12.53
3/22/2021 4:45:00 AM 4.94 40.892 0.163 7.48 160.72 12.44
3/22/2021 5:00:00 AM 4.91 40.838 0.162 7.48 163.26 12.39
3/22/2021 5:15:00 AM 4.89 40.802 0.163 7.47 161.12 12.5
3/22/2021 5:30:00 AM 4.86 40.748 0.164 7.47 159.13 12.37
3/22/2021 5:45:00 AM 4.83 40.694 0.163 7.47 160.65 12.49
3/22/2021 6:00:00 AM 4.81 40.658 0.165 7.47 159.3 12.48
3/22/2021 6:15:00 AM 4.78 40.604 0.165 7.47 157.54 12.37
3/22/2021 6:30:00 AM 4.75 40.55 0.166 7.47 157.75 12.11
3/22/2021 6:45:00 AM 4.72 40.496 0.166 7.47 160.24 11.95
3/22/2021 7:00:00 AM 4.69 40.442 0.167 7.46 158.53 12.39
3/22/2021 7:15:00 AM 4.67 40.406 0.166 7.47 161.56 12.1
3/22/2021 7:30:00 AM 4.65 40.37 0.167 7.46 157.35 12.18
3/22/2021 7:45:00 AM 4.63 40.334 0.167 7.46 161.25 12.24
3/22/2021 8:00:00 AM 4.62 40.316 0.168 7.46 159.89 12.15
3/22/2021 8:15:00 AM 4.61 40.298 0.167 7.47 167.28 12.18
3/22/2021 8:30:00 AM 4.61 40.298 0.168 7.47 160.8 12.16
3/22/2021 8:45:00 AM 4.61 40.298 0.169 7.47 152.95 12.3
3/22/2021 9:00:00 AM 4.63 40.334 0.168 7.47 160.07 12.21
3/22/2021 9:15:00 AM 4.65 40.37 0.168 7.47 164.08 11.69
3/22/2021 9:30:00 AM 4.68 40.424 0.169 7.48 165.64 12.27
3/22/2021 9:45:00 AM 4.72 40.496 0.169 7.48 160.89 12.43
3/22/2021 10:00:00 AM 4.78 40.604 0.169 7.49 164.71 12.3
3/22/2021 10:15:00 AM 4.84 40.712 0.169 7.49 165.56 12.49
3/22/2021 10:30:00 AM 4.92 40.856 0.168 7.49 163.49 12.49
3/22/2021 10:45:00 AM 4.99 40.982 0.168 7.5 155.01 12.38
3/22/2021 11:00:00 AM 5.07 41.126 0.166 7.5 164.29 12.1
3/22/2021 11:15:00 AM 5.15 41.27 0.165 7.51 161.39 11.79
3/22/2021 11:30:00 AM 5.23 41.414 0.165 7.51 165.6 12.27
3/22/2021 11:45:00 AM 5.32 41.576 0.165 7.52 174.13 12.54
3/22/2021 12:00:00 PM 5.4 41.72 0.163 7.52 162.44 12.67
3/22/2021 12:15:00 PM 5.47 41.846 0.162 7.52 163.13 12.81
3/22/2021 12:30:00 PM 5.57 42.026 0.162 7.52 162.55 12.64
3/22/2021 12:45:00 PM 5.65 42.17 0.162 7.53 165.63 12.54
3/22/2021 1:00:00 PM 5.73 42.314 0.162 7.53 169.59 12.53
3/22/2021 1:15:00 PM 5.81 42.458 0.161 7.54 164.62 12.41
3/22/2021 1:30:00 PM 5.89 42.602 0.162 7.54 168.75 12.5
3/22/2021 1:45:00 PM 5.95 42.71 0.162 7.54 166.16 12.56
3/22/2021 2:00:00 PM 6.03 42.854 0.162 7.55 168.61 12.72
3/22/2021 2:15:00 PM 6.09 42.962 0.161 7.55 168.17 12.44
3/22/2021 2:30:00 PM 6.15 43.07 0.157 7.55 185.14 12.64
3/22/2021 2:45:00 PM 6.2 43.16 0.157 7.56 153.09 12.62
3/22/2021 3:00:00 PM 6.25 43.25 0.157 7.56 172.42 12.62
3/22/2021 3:15:00 PM 6.29 43.322 0.158 7.56 170.21 12.73
3/22/2021 3:30:00 PM 6.32 43.376 0.157 7.57 171.84 12.49
3/22/2021 3:45:00 PM 6.35 43.43 0.158 7.57 166.03 12.66
3/22/2021 4:00:00 PM 6.38 43.484 0.158 7.58 171.69 12.54
3/22/2021 4:15:00 PM 6.39 43.502 0.158 7.58 177.26 12.73
3/22/2021 4:30:00 PM 6.41 43.538 0.158 7.58 175.16 12.54
3/22/2021 4:45:00 PM 6.41 43.538 0.158 7.58 174.77 12.53
3/22/2021 5:00:00 PM 6.41 43.538 0.157 7.58 172.98 12.71
3/22/2021 5:15:00 PM 6.4 43.52 0.157 7.58 277.99 12.9
3/22/2021 5:30:00 PM 6.39 43.502 0.158 7.58 171.84 12.68
3/22/2021 5:45:00 PM 6.37 43.466 0.158 7.58 188.56 12.2
3/22/2021 6:00:00 PM 6.34 43.412 0.159 7.59 194.32 12.75
3/22/2021 6:15:00 PM 6.32 43.376 0.16 7.59 195.25 12.14
3/22/2021 6:30:00 PM 6.3 43.34 0.159 7.59 177.37 12.22
3/22/2021 6:45:00 PM 6.27 43.286 0.159 7.59 182.9 12.72
3/22/2021 7:00:00 PM 6.24 43.232 0.161 7.58 181.78 12.41
3/22/2021 7:15:00 PM 6.21 43.178 0.161 7.58 203.28 12.59
3/22/2021 7:30:00 PM 6.17 43.106 0.159 7.58 344.06 11.41
3/22/2021 7:45:00 PM 6.13 43.034 0.16 7.57 196.41 11.42
3/22/2021 8:00:00 PM 6.09 42.962 0.16 7.57 187.54 12.14
3/22/2021 8:15:00 PM 6.05 42.89 0.161 7.57 191.51 11.69
3/22/2021 8:30:00 PM 6.01 42.818 0.161 7.56 202.79 11.75
3/22/2021 8:45:00 PM 5.97 42.746 0.162 7.56 164.05 12.23
3/22/2021 9:00:00 PM 5.95 42.71 0.163 7.56 189.55 10.61
3/22/2021 9:15:00 PM 5.93 42.674 0.162 7.56 177.57 12.46
3/22/2021 9:30:00 PM 5.92 42.656 0.163 7.55 192.92 12.37
3/22/2021 9:45:00 PM 5.92 42.656 0.162 7.55 335.26 10.9
3/22/2021 10:00:00 PM 5.91 42.638 0.162 7.55 1465.07 11.49
3/22/2021 10:15:00 PM 5.92 42.656 0.161 7.55 144.08 12.51
3/22/2021 10:30:00 PM 5.92 42.656 0.161 7.54 149.56 11.21
3/22/2021 10:45:00 PM 5.92 42.656 0.161 7.54 182.49 12.54
3/22/2021 11:00:00 PM 5.93 42.674 0.158 7.55 162.6 12.53
3/22/2021 11:15:00 PM 5.94 42.692 0.159 7.54 162.69 12.5
3/22/2021 11:30:00 PM 5.94 42.692 0.159 7.54 154.46 12.32
3/22/2021 11:45:00 PM 5.95 42.71 0.16 7.54 156.3 12.05
3/23/2021 12:00:00 AM 5.95 42.71 0.162 7.53 153.3 12.4
3/23/2021 12:15:00 AM 5.96 42.728 0.162 7.54 158.32 12.48
3/23/2021 12:30:00 AM 5.96 42.728 0.161 7.53 165.03 11.9
3/23/2021 12:45:00 AM 5.97 42.746 0.161 7.53 150.83 12.35
3/23/2021 1:00:00 AM 5.97 42.746 0.161 7.53 170.11 12.09
3/23/2021 1:15:00 AM 5.97 42.746 0.161 7.53 166.28 12.09
3/23/2021 1:30:00 AM 5.97 42.746 0.159 7.52 165.43 12.16
3/23/2021 1:45:00 AM 5.98 42.764 0.159 7.52 157.45 11.81
3/23/2021 2:00:00 AM 5.97 42.746 0.159 7.52 172.62 11.99
3/23/2021 2:15:00 AM 5.97 42.746 0.16 7.52 160.19 12.17
3/23/2021 2:30:00 AM 5.97 42.746 0.16 7.52 183.54 11.75
3/23/2021 2:45:00 AM 5.96 42.728 0.161 7.52 156.07 12.28
3/23/2021 3:00:00 AM 5.94 42.692 0.161 7.52 167.86 11.93
3/23/2021 3:15:00 AM 5.93 42.674 0.162 7.52 159.61 11.83
3/23/2021 3:30:00 AM 5.92 42.656 0.161 7.52 153.16 11.92
3/23/2021 3:45:00 AM 5.9 42.62 0.162 7.52 145.95 12.04
3/23/2021 4:00:00 AM 5.87 42.566 0.161 7.52 142.56 11.91
3/23/2021 4:15:00 AM 5.85 42.53 0.161 7.52 146.76 12.23
3/23/2021 4:30:00 AM 5.82 42.476 0.16 7.52 148.26 11.64
3/23/2021 4:45:00 AM 5.79 42.422 0.162 7.52 160.27 11.73
3/23/2021 5:00:00 AM 5.76 42.368 0.163 7.51 146.34 11.66
3/23/2021 5:15:00 AM 5.73 42.314 0.163 7.51 141.97 11.45
3/23/2021 5:30:00 AM 5.7 42.26 0.162 7.51 149.64 11.26
3/23/2021 5:45:00 AM 5.67 42.206 0.162 7.51 173.49 11.32
3/23/2021 6:00:00 AM 5.63 42.134 0.162 7.51 149 11.37
3/23/2021 6:15:00 AM 5.59 42.062 0.162 7.51 148.88 11.83
3/23/2021 6:30:00 AM 5.56 42.008 0.162 7.5 163.44 11.94
3/23/2021 6:45:00 AM 5.53 41.954 0.164 7.5 156.91 11.97
3/23/2021 7:00:00 AM 5.5 41.9 0.164 7.5 161.92 11.61
3/23/2021 7:15:00 AM 5.47 41.846 0.164 7.51 235.04 11.98
3/23/2021 7:30:00 AM 5.44 41.792 0.164 7.5 162.79 11.79
3/23/2021 7:45:00 AM 5.41 41.738 0.163 7.5 152.77 10.83
3/23/2021 8:00:00 AM 5.39 41.702 0.165 7.5 158.08 11.31
3/23/2021 8:15:00 AM 5.38 41.684 0.165 7.5 190.61 11.63
3/23/2021 8:30:00 AM 5.37 41.666 0.165 7.5 154.36 11.92
3/23/2021 8:45:00 AM 5.38 41.684 0.165 7.5 157.97 11.44
3/23/2021 9:00:00 AM 5.39 41.702 0.164 7.51 158.29 11.38
3/23/2021 9:15:00 AM 5.42 41.756 0.166 7.51 154.07 11.89
3/23/2021 9:30:00 AM 5.45 41.81 0.166 7.51 166.88 12.09
3/23/2021 9:45:00 AM 5.48 41.864 0.166 7.52 151.65 11.84
3/23/2021 10:00:00 AM 5.53 41.954 0.167 7.52 161.44 12.18
3/23/2021 10:15:00 AM 5.58 42.044 0.167 7.53 156.54 11.95
3/23/2021 10:30:00 AM 5.64 42.152 0.168 7.53 158.42 11.85
3/23/2021 10:45:00 AM 5.71 42.278 0.168 7.54 147.06 11.91
3/23/2021 11:00:00 AM 5.79 42.422 0.167 7.54 158.72 12.03
3/23/2021 11:15:00 AM 5.87 42.566 0.167 7.55 159.28 11.81
3/23/2021 11:30:00 AM 5.96 42.728 0.167 7.55 160.03 12.29
3/23/2021 11:45:00 AM 6.05 42.89 0.167 7.55 157.83 11.76
3/23/2021 12:00:00 PM 6.14 43.052 0.167 7.55 151.8 12.15
3/23/2021 12:15:00 PM 6.22 43.196 0.168 7.56 160.01 12.14
3/23/2021 12:30:00 PM 6.3 43.34 0.168 7.56 155.19 12.22
3/23/2021 12:45:00 PM 6.38 43.484 0.168 7.56 158.71 12.29
3/23/2021 1:00:00 PM 6.46 43.628 0.169 7.57 167.98 12.36
3/23/2021 1:15:00 PM 6.53 43.754 0.169 7.57 176.58 12.33
3/23/2021 1:30:00 PM 6.59 43.862 0.168 7.58 161.27 11.52
3/23/2021 1:45:00 PM 6.66 43.988 0.168 7.58 148.46 12.24
3/23/2021 2:00:00 PM 6.72 44.096 0.17 7.59 164 12.06
3/23/2021 2:15:00 PM 6.76 44.168 0.17 7.59 158.12 12.1
3/23/2021 2:30:00 PM 6.8 44.24 0.171 7.6 154.3 12.25
3/23/2021 2:45:00 PM 6.84 44.312 0.172 7.6 152.09 11.84
3/23/2021 3:00:00 PM 6.86 44.348 0.173 7.6 156.39 11.99
3/23/2021 3:15:00 PM 6.9 44.42 0.174 7.61 158.33 11.84
3/23/2021 3:30:00 PM 6.91 44.438 0.174 7.61 149.21 12.45
3/23/2021 3:45:00 PM 6.93 44.474 0.174 7.61 148.69 12.24
3/23/2021 4:00:00 PM 6.94 44.492 0.174 7.62 154.65 11.37
3/23/2021 4:15:00 PM 6.95 44.51 0.173 7.62 156.68 11.58
3/23/2021 4:30:00 PM 6.95 44.51 0.173 7.62 156.56 10.67
3/23/2021 4:45:00 PM 6.94 44.492 0.174 7.62 160.25 11.73
3/23/2021 5:00:00 PM 6.93 44.474 0.174 7.62 174.57 11.79
3/23/2021 5:15:00 PM 6.91 44.438 0.174 7.63 162.06 11.62
3/23/2021 5:30:00 PM 6.89 44.402 0.174 7.63 161.62 11.86
3/23/2021 5:45:00 PM 6.87 44.366 0.174 7.63 153.72 11.36
3/23/2021 6:00:00 PM 6.84 44.312 0.173 7.63 161.56 11.58
3/23/2021 6:15:00 PM 6.82 44.276 0.174 7.63 166.37 12.04
3/23/2021 6:30:00 PM 6.79 44.222 0.173 7.63 166.17 12.21
3/23/2021 6:45:00 PM 6.75 44.15 0.174 7.63 160.92 11.22
3/23/2021 7:00:00 PM 6.72 44.096 0.174 7.62 169.83 12.13
3/23/2021 7:15:00 PM 6.68 44.024 0.174 7.62 162.37 12.08
3/23/2021 7:30:00 PM 6.64 43.952 0.173 7.61 168.96 11.76
3/23/2021 7:45:00 PM 6.6 43.88 0.174 7.61 174.58 11.45
3/23/2021 8:00:00 PM 6.57 43.826 0.173 7.6 162.2 11.17
3/23/2021 8:15:00 PM 6.53 43.754 0.174 7.6 172.68 11.79
3/23/2021 8:30:00 PM 6.5 43.7 0.172 7.6 172.52 11.62
3/23/2021 8:45:00 PM 6.48 43.664 0.172 7.59 159.92 12.1
3/23/2021 9:00:00 PM 6.45 43.61 0.173 7.58 174.74 12.02
3/23/2021 9:15:00 PM 6.43 43.574 0.173 7.58 169.57 11.86
3/23/2021 9:30:00 PM 6.41 43.538 0.173 7.58 172.68 11.94
3/23/2021 9:45:00 PM 6.39 43.502 0.173 7.57 169.18 12.16
3/23/2021 10:00:00 PM 6.37 43.466 0.173 7.57 173.3 12.17
3/23/2021 10:15:00 PM 6.36 43.448 0.174 7.57 170.33 11.96
3/23/2021 10:30:00 PM 6.35 43.43 0.176 7.56 171.39 11.67
3/23/2021 10:45:00 PM 6.35 43.43 0.176 7.56 169.01 10.88
3/23/2021 11:00:00 PM 6.34 43.412 0.176 7.56 172.1 11.67
3/23/2021 11:15:00 PM 6.34 43.412 0.176 7.56 175.97 11.07
3/23/2021 11:30:00 PM 6.34 43.412 0.176 7.56 170.72 11.19
3/23/2021 11:45:00 PM 6.34 43.412 0.175 7.55 176.5 11.64
3/24/2021 12:00:00 AM 6.34 43.412 0.175 7.55 175.74 11.5
3/24/2021 12:15:00 AM 6.34 43.412 0.175 7.55 178.07 11.27
3/24/2021 12:30:00 AM 6.35 43.43 0.175 7.55 174.27 11.55
3/24/2021 12:45:00 AM 6.35 43.43 0.176 7.54 174.42 11.74
3/24/2021 1:00:00 AM 6.36 43.448 0.175 7.55 177.07 11.41
3/24/2021 1:15:00 AM 6.37 43.466 0.176 7.54 177.77 11.16
3/24/2021 1:30:00 AM 6.38 43.484 0.176 7.54 179.23 10.98
3/24/2021 1:45:00 AM 6.39 43.502 0.176 7.54 176.7 10.85
3/24/2021 2:00:00 AM 6.4 43.52 0.175 7.54 177.99 9.93
3/24/2021 2:15:00 AM 6.41 43.538 0.177 7.54 178.18 9.77
3/24/2021 2:30:00 AM 6.42 43.556 0.176 7.54 197.07 10.17
3/24/2021 2:45:00 AM 6.44 43.592 0.176 7.53 178.96 10.63
3/24/2021 3:00:00 AM 6.45 43.61 0.176 7.53 185.62 11.37
3/24/2021 3:15:00 AM 6.46 43.628 0.177 7.53 187.32 11.09
3/24/2021 3:30:00 AM 6.47 43.646 0.177 7.53 178.77 11.21
3/24/2021 3:45:00 AM 6.47 43.646 0.177 7.53 184.13 11.4
3/24/2021 4:00:00 AM 6.48 43.664 0.177 7.53 181.92 10.86
3/24/2021 4:15:00 AM 6.49 43.682 0.178 7.52 195.28 10.76
3/24/2021 4:30:00 AM 6.5 43.7 0.176 7.52 178.39 11.11
3/24/2021 4:45:00 AM 6.5 43.7 0.177 7.52 184.16 10.94
3/24/2021 5:00:00 AM 6.51 43.718 0.178 7.52 184.32 10.41
3/24/2021 5:15:00 AM 6.52 43.736 0.178 7.52 188.2 10.5
3/24/2021 5:30:00 AM 6.52 43.736 0.177 7.52 197.88 10.4
3/24/2021 5:45:00 AM 6.52 43.736 0.176 7.52 185.46 10.34
3/24/2021 6:00:00 AM 6.53 43.754 0.176 7.52 180.45 10.51
3/24/2021 6:15:00 AM 6.53 43.754 0.176 7.52 191.44 9.69
3/24/2021 6:30:00 AM 6.53 43.754 0.176 7.51 182.35 10.34
3/24/2021 6:45:00 AM 6.53 43.754 0.176 7.51 186.01 10.65
3/24/2021 7:00:00 AM 6.53 43.754 0.177 7.51 187.59 10.49
3/24/2021 7:15:00 AM 6.53 43.754 0.176 7.51 187.49 10.7
3/24/2021 7:30:00 AM 6.54 43.772 0.177 7.51 185.47 9.83
3/24/2021 7:45:00 AM 6.54 43.772 0.178 7.51 188.97 10.59
3/24/2021 8:00:00 AM 6.54 43.772 0.177 7.51 185.34 10.47
3/24/2021 8:15:00 AM 6.55 43.79 0.177 7.51 178.7 10.59
3/24/2021 8:30:00 AM 6.55 43.79 0.176 7.51 188.16 10.23
3/24/2021 8:45:00 AM 6.56 43.808 0.176 7.51 191.3 10.28
3/24/2021 9:00:00 AM 6.57 43.826 0.176 7.51 188.56 10.62
3/24/2021 9:15:00 AM 6.58 43.844 0.177 7.51 190.11 10.81
3/24/2021 9:30:00 AM 6.59 43.862 0.177 7.51 195.47 10.33
3/24/2021 9:45:00 AM 6.6 43.88 0.178 7.51 183.86 10.55
3/24/2021 10:00:00 AM 6.61 43.898 0.178 7.52 191.67 10.65
3/24/2021 10:15:00 AM 6.63 43.934 0.178 7.52 198.66 10.51
3/24/2021 10:30:00 AM 6.64 43.952 0.177 7.52 190.98 10.47
3/24/2021 10:45:00 AM 6.65 43.97 0.178 7.53 193.99 10.21
3/24/2021 11:00:00 AM 6.67 44.006 0.179 7.52 186.01 9.47
3/24/2021 11:15:00 AM 6.68 44.024 0.178 7.53 226.48 10.57
3/24/2021 11:30:00 AM 6.69 44.042 0.178 7.54 184.98 10.87
3/24/2021 11:45:00 AM 6.71 44.078 0.179 7.54 202.76 10.27
3/24/2021 12:00:00 PM 6.72 44.096 0.179 7.54 211.33 10.58
3/24/2021 12:15:00 PM 6.73 44.114 0.179 7.54 205.97 10.52
3/24/2021 12:30:00 PM 6.74 44.132 0.179 7.54 285.84 9.89
3/24/2021 12:45:00 PM 6.75 44.15 0.179 7.55 130.73 10.99
3/24/2021 1:00:00 PM 6.78 44.204 0.181 7.55 132.38 10.94
3/24/2021 1:15:00 PM 6.79 44.222 0.18 7.56 146.69 10.57
3/24/2021 1:30:00 PM 6.81 44.258 0.18 7.56 127.64 11.38
3/24/2021 1:45:00 PM 6.84 44.312 0.18 7.57 131.61 10.16
3/24/2021 2:00:00 PM 6.86 44.348 0.179 7.57 135.71 10.8
3/24/2021 2:15:00 PM 6.87 44.366 0.179 7.57 126.77 10.59
3/24/2021 2:30:00 PM 6.9 44.42 0.18 7.58 143.23 11.02
3/24/2021 2:45:00 PM 6.92 44.456 0.181 7.58 126.67 11.14
3/24/2021 3:00:00 PM 6.95 44.51 0.182 7.59 133.52 10.97
3/24/2021 3:15:00 PM 6.97 44.546 0.182 7.59 140.24 10.88
3/24/2021 3:30:00 PM 6.97 44.546 0.182 7.59 146.81 11.3
3/24/2021 3:45:00 PM 6.97 44.546 0.182 7.6 167.37 11.12
3/24/2021 4:00:00 PM 6.99 44.582 0.183 7.6 127.7 11.41
3/24/2021 4:15:00 PM 7.01 44.618 0.184 7.6 131.8 9.96
3/24/2021 4:30:00 PM 7.02 44.636 0.184 7.61 135.42 10.32
3/24/2021 4:45:00 PM 7.02 44.636 0.183 7.61 135.72 10.58
3/24/2021 5:00:00 PM 7.01 44.618 0.185 7.61 139.2 10.36
3/24/2021 5:15:00 PM 7.01 44.618 0.185 7.61 138.66 11.51
3/24/2021 5:30:00 PM 7 44.6 0.185 7.61 132.46 11.48
3/24/2021 5:45:00 PM 6.99 44.582 0.186 7.61 140.78 10.8
3/24/2021 6:00:00 PM 6.98 44.564 0.186 7.61 130.3 9.93
3/24/2021 6:15:00 PM 6.97 44.546 0.185 7.61 134.66 11.35
3/24/2021 6:30:00 PM 6.95 44.51 0.185 7.61 137.37 10.32
3/24/2021 6:45:00 PM 6.94 44.492 0.186 7.61 140.27 11.5
3/24/2021 7:00:00 PM 6.93 44.474 0.185 7.6 121.57 10.45
3/24/2021 7:15:00 PM 6.92 44.456 0.185 7.6 138.84 10.25
3/24/2021 7:30:00 PM 6.92 44.456 0.185 7.6 138.8 11.08
3/24/2021 7:45:00 PM 6.91 44.438 0.187 7.59 145.38 11.21
3/24/2021 8:00:00 PM 6.9 44.42 0.186 7.59 137.1 10.97
3/24/2021 8:15:00 PM 6.89 44.402 0.185 7.59 144.49 11.14
3/24/2021 8:30:00 PM 6.88 44.384 0.186 7.58 138.17 11.24
3/24/2021 8:45:00 PM 6.87 44.366 0.186 7.58 139.04 11.13
3/24/2021 9:00:00 PM 6.86 44.348 0.187 7.58 139.87 9.93
3/24/2021 9:15:00 PM 6.85 44.33 0.187 7.57 154.98 11.03
3/24/2021 9:30:00 PM 6.84 44.312 0.187 7.57 136.58 11.22
3/24/2021 9:45:00 PM 6.83 44.294 0.188 7.57 138.44 11.51
3/24/2021 10:00:00 PM 6.82 44.276 0.189 7.57 141.78 11.73
3/24/2021 10:15:00 PM 6.81 44.258 0.19 7.57 138.31 11.27
3/24/2021 10:30:00 PM 6.8 44.24 0.189 7.56 142.5 11.23
3/24/2021 10:45:00 PM 6.79 44.222 0.188 7.56 138.05 11.38
3/24/2021 11:00:00 PM 6.79 44.222 0.188 7.56 136.57 10.63
3/24/2021 11:15:00 PM 6.79 44.222 0.186 7.56 138.76 11.47
3/24/2021 11:30:00 PM 6.79 44.222 0.187 7.55 135.67 11.21
3/24/2021 11:45:00 PM 6.79 44.222 0.188 7.54 135.45 11.48
3/25/2021 12:00:00 AM 6.8 44.24 0.189 7.55 134.29 11.79
3/25/2021 12:15:00 AM 6.81 44.258 0.19 7.55 140.3 11.63
3/25/2021 12:30:00 AM 6.83 44.294 0.19 7.55 129.42 11.34
3/25/2021 12:45:00 AM 6.85 44.33 0.191 7.56 133.6 11.43
3/25/2021 1:00:00 AM 6.87 44.366 0.191 7.55 132.9 11.64
3/25/2021 1:15:00 AM 6.89 44.402 0.192 7.55 132.82 11.68
3/25/2021 1:30:00 AM 6.91 44.438 0.191 7.55 138.96 11.76
3/25/2021 1:45:00 AM 6.93 44.474 0.191 7.55 133.97 11.89
3/25/2021 2:00:00 AM 6.95 44.51 0.19 7.55 133.87 11.87
3/25/2021 2:15:00 AM 6.97 44.546 0.19 7.55 144.68 11.78
3/25/2021 2:30:00 AM 6.99 44.582 0.19 7.55 131.54 11.83
3/25/2021 2:45:00 AM 7.01 44.618 0.19 7.55 136.53 11.88
3/25/2021 3:00:00 AM 7.02 44.636 0.19 7.55 124.45 11.99
3/25/2021 3:15:00 AM 7.04 44.672 0.191 7.55 130.24 12
3/25/2021 3:30:00 AM 7.04 44.672 0.19 7.54 133.52 11.77
3/25/2021 3:45:00 AM 7.05 44.69 0.192 7.54 138.92 11.87
3/25/2021 4:00:00 AM 7.05 44.69 0.191 7.54 142.22 11.79
3/25/2021 4:15:00 AM 7.06 44.708 0.19 7.54 128.8 11.76
3/25/2021 4:30:00 AM 7.06 44.708 0.19 7.53 137.13 11.86
3/25/2021 4:45:00 AM 7.06 44.708 0.19 7.54 129.21 11.71
3/25/2021 5:00:00 AM 7.06 44.708 0.19 7.54 151.48 11.71
3/25/2021 5:15:00 AM 7.06 44.708 0.19 7.53 138.36 11.6
3/25/2021 5:30:00 AM 7.05 44.69 0.19 7.53 120.98 11.82
3/25/2021 5:45:00 AM 7.04 44.672 0.19 7.53 134.46 11.73
3/25/2021 6:00:00 AM 7.03 44.654 0.19 7.53 134.19 11.81
3/25/2021 6:15:00 AM 7.02 44.636 0.189 7.53 138.53 11.87
3/25/2021 6:30:00 AM 7.01 44.618 0.188 7.52 125.85 11.71
3/25/2021 6:45:00 AM 7 44.6 0.188 7.52 148.56 11.8
3/25/2021 7:00:00 AM 6.99 44.582 0.188 7.52 135.84 11.55
3/25/2021 7:15:00 AM 6.98 44.564 0.187 7.51 130.74 11.75
3/25/2021 7:30:00 AM 6.96 44.528 0.187 7.51 127.57 11.81
3/25/2021 7:45:00 AM 6.96 44.528 0.185 7.51 140.14 11.74
3/25/2021 8:00:00 AM 6.95 44.51 0.186 7.51 137.86 11.81
3/25/2021 8:15:00 AM 6.95 44.51 0.184 7.51 230.09 11.81
3/25/2021 8:30:00 AM 6.96 44.528 0.182 7.51 145.68 11.88
3/25/2021 8:45:00 AM 6.97 44.546 0.182 7.51 162.35 11.83
3/25/2021 9:00:00 AM 6.99 44.582 0.184 7.51 204.94 11.87
3/25/2021 9:15:00 AM 7.02 44.636 0.183 7.52 150.62 11.91
3/25/2021 9:30:00 AM 7.06 44.708 0.182 7.52 196.69 11.89
3/25/2021 9:45:00 AM 7.11 44.798 0.182 7.53 165.61 11.92
3/25/2021 10:00:00 AM 7.18 44.924 0.182 7.53 180.08 11.95
3/25/2021 10:15:00 AM 7.24 45.032 0.181 7.54 165.5 11.93
3/25/2021 10:30:00 AM 7.32 45.176 0.181 7.54 138.26 11.99
3/25/2021 10:45:00 AM 7.4 45.32 0.181 7.55 138.78 11.95
3/25/2021 11:00:00 AM 7.48 45.464 0.181 7.55 143.62 11.95
3/25/2021 11:15:00 AM 7.56 45.608 0.181 7.56 140.39 12.02
3/25/2021 11:30:00 AM 7.63 45.734 0.179 7.57 141.13 11.95
3/25/2021 11:45:00 AM 7.71 45.878 0.178 7.58 139.74 12.09
3/25/2021 12:00:00 PM 7.81 46.058 0.179 7.58 144.51 11.95
3/25/2021 12:15:00 PM 7.91 46.238 0.178 7.59 140.9 12.09
3/25/2021 12:30:00 PM 8.02 46.436 0.179 7.6 138.45 12.12
3/25/2021 12:45:00 PM 8.13 46.634 0.18 7.6 140.34 11.96
3/25/2021 1:00:00 PM 8.25 46.85 0.179 7.61 136.21 12.12
3/25/2021 1:15:00 PM 8.34 47.012 0.181 7.62 139.34 12.1
3/25/2021 1:30:00 PM 8.44 47.192 0.18 7.62 142.74 12
3/25/2021 1:45:00 PM 8.53 47.354 0.181 7.63 137.33 12.05
3/25/2021 2:00:00 PM 8.62 47.516 0.181 7.64 153.64 12.12
3/25/2021 2:15:00 PM 8.7 47.66 0.182 7.64 120.95 12.17
3/25/2021 2:30:00 PM 8.78 47.804 0.183 7.65 145.93 12.13
3/25/2021 2:45:00 PM 8.86 47.948 0.185 7.66 143.61 12.13
3/25/2021 3:00:00 PM 8.93 48.074 0.185 7.66 160.5 12.1
3/25/2021 3:15:00 PM 8.98 48.164 0.184 7.66 138.28 12.17
3/25/2021 3:30:00 PM 9.04 48.272 0.183 7.66 149.06 12.03
3/25/2021 3:45:00 PM 9.09 48.362 0.183 7.67 130.61 12.09
3/25/2021 4:00:00 PM 9.13 48.434 0.185 7.68 150.35 12.17
3/25/2021 4:15:00 PM 9.16 48.488 0.185 7.68 131.75 12.09
3/25/2021 4:30:00 PM 9.2 48.56 0.185 7.69 135.97 12.23
3/25/2021 4:45:00 PM 9.22 48.596 0.185 7.69 129.93 12.15
3/25/2021 5:00:00 PM 9.25 48.65 0.185 7.69 166.13 12.15
3/25/2021 5:15:00 PM 9.26 48.668 0.185 7.69 152.81 12.15
3/25/2021 5:30:00 PM 9.27 48.686 0.183 7.69 137.17 12.13
3/25/2021 5:45:00 PM 9.26 48.668 0.185 7.69 161.01 12.14
3/25/2021 6:00:00 PM 9.26 48.668 0.186 7.69 144.51 12.13
3/25/2021 6:15:00 PM 9.26 48.668 0.185 7.69 168.38 12.15
3/25/2021 6:30:00 PM 9.25 48.65 0.186 7.69 139.53 12.09
3/25/2021 6:45:00 PM 9.25 48.65 0.185 7.69 164.13 12.01
3/25/2021 7:00:00 PM 9.25 48.65 0.185 7.68 161.54 12.03
3/25/2021 7:15:00 PM 9.24 48.632 0.184 7.68 152.41 12.01
3/25/2021 7:30:00 PM 9.24 48.632 0.185 7.67 143.44 11.89
3/25/2021 7:45:00 PM 9.25 48.65 0.183 7.66 153.22 11.87
3/25/2021 8:00:00 PM 9.25 48.65 0.185 7.66 124.59 11.78
3/25/2021 8:15:00 PM 9.26 48.668 0.186 7.66 148.9 11.79
3/25/2021 8:30:00 PM 9.27 48.686 0.184 7.65 158.24 11.86
3/25/2021 8:45:00 PM 9.27 48.686 0.184 7.65 156.53 11.84
3/25/2021 9:00:00 PM 9.29 48.722 0.185 7.64 154.97 11.65
3/25/2021 9:15:00 PM 9.3 48.74 0.184 7.63 156.32 11.76
3/25/2021 9:30:00 PM 9.32 48.776 0.183 7.64 167.23 11.77
3/25/2021 9:45:00 PM 9.33 48.794 0.184 7.63 157.33 11.8
3/25/2021 10:00:00 PM 9.34 48.812 0.183 7.63 153.93 11.68
3/25/2021 10:15:00 PM 9.36 48.848 0.183 7.62 167.3 11.7
3/25/2021 10:30:00 PM 9.37 48.866 0.183 7.62 157.61 11.58
3/25/2021 10:45:00 PM 9.37 48.866 0.182 7.61 137.18 11.68
3/25/2021 11:00:00 PM 9.37 48.866 0.181 7.61 159.65 11.57
3/25/2021 11:15:00 PM 9.37 48.866 0.18 7.6 145.3 11.66
3/25/2021 11:30:00 PM 9.36 48.848 0.181 7.59 168.59 11.53
3/25/2021 11:45:00 PM 9.36 48.848 0.181 7.59 145.04 11.36
3/26/2021 12:00:00 AM 9.35 48.83 0.181 7.59 162.63 11.3
3/26/2021 12:15:00 AM 9.35 48.83 0.178 7.58 160.27 11.49
3/26/2021 12:30:00 AM 9.34 48.812 0.176 7.58 152.58 11.57
3/26/2021 12:45:00 AM 9.33 48.794 0.176 7.57 163.02 11.18
3/26/2021 1:00:00 AM 9.32 48.776 0.176 7.57 157.65 11.3
3/26/2021 1:15:00 AM 9.32 48.776 0.176 7.56 169.18 11.27
3/26/2021 1:30:00 AM 9.31 48.758 0.174 7.56 156.33 11.28
3/26/2021 1:45:00 AM 9.31 48.758 0.173 7.55 180.13 11.39
3/26/2021 2:00:00 AM 9.31 48.758 0.172 7.55 161.04 11.42
3/26/2021 2:15:00 AM 9.3 48.74 0.17 7.55 150.29 11.4
3/26/2021 2:30:00 AM 9.3 48.74 0.172 7.54 161.46 11.12
3/26/2021 2:45:00 AM 9.3 48.74 0.172 7.54 130.24 11.33
3/26/2021 3:00:00 AM 9.29 48.722 0.173 7.53 132.11 11.29
3/26/2021 3:15:00 AM 9.3 48.74 0.173 7.53 168.71 11.21
3/26/2021 3:30:00 AM 9.3 48.74 0.173 7.52 168.05 10.99
3/26/2021 3:45:00 AM 9.3 48.74 0.174 7.52 148.88 11.14
3/26/2021 4:00:00 AM 9.3 48.74 0.174 7.52 158.74 10.91
3/26/2021 4:15:00 AM 9.3 48.74 0.175 7.51 173.31 11.27
3/26/2021 4:30:00 AM 9.31 48.758 0.175 7.51 125.75 10.97
3/26/2021 4:45:00 AM 9.31 48.758 0.174 7.5 153.01 11.14
3/26/2021 5:00:00 AM 9.31 48.758 0.174 7.5 172.07 10.79
3/26/2021 5:15:00 AM 9.31 48.758 0.175 7.49 157.21 10.84
3/26/2021 5:30:00 AM 9.31 48.758 0.176 7.49 154.97 10.92
3/26/2021 5:45:00 AM 9.31 48.758 0.175 7.49 157.57 10.59
3/26/2021 6:00:00 AM 9.3 48.74 0.176 7.48 110.34 10.62
3/26/2021 6:15:00 AM 9.3 48.74 0.174 7.48 157.03 10.83
3/26/2021 6:30:00 AM 9.29 48.722 0.175 7.48 136.37 10.83
3/26/2021 6:45:00 AM 9.28 48.704 0.176 7.47 156.49 10.66
3/26/2021 7:00:00 AM 9.27 48.686 0.178 7.47 168.03 10.77
3/26/2021 7:15:00 AM 9.27 48.686 0.18 7.47 125.17 10.35
3/26/2021 7:30:00 AM 9.27 48.686 0.18 7.47 162.94 10.53
3/26/2021 7:45:00 AM 9.28 48.704 0.184 7.47 165.56 10.22
3/26/2021 8:00:00 AM 9.28 48.704 0.182 7.47 156.53 10.5
3/26/2021 8:15:00 AM 9.3 48.74 0.182 7.46 133.94 11.09
3/26/2021 8:30:00 AM 9.33 48.794 0.181 7.47 87.67 11.14
3/26/2021 8:45:00 AM 9.35 48.83 0.18 7.47 87.44 11.07
3/26/2021 9:00:00 AM 9.37 48.866 0.18 7.48 89.2 11.1
3/26/2021 9:15:00 AM 9.41 48.938 0.181 7.48 76.27 11.04
3/26/2021 9:30:00 AM 9.47 49.046 0.182 7.49 71.64 10.8
3/26/2021 9:45:00 AM 9.52 49.136 0.183 7.5 77.13 11.03
3/26/2021 10:00:00 AM 9.57 49.226 0.185 7.51 77.97 11.2
3/26/2021 10:15:00 AM 9.62 49.316 0.183 7.51 75.72 10.07
3/26/2021 10:30:00 AM 9.69 49.442 0.183 7.52 73.61 10.92
3/26/2021 10:45:00 AM 9.73 49.514 0.183 7.53 77.18 11.26
3/26/2021 11:00:00 AM 9.77 49.586 0.184 7.53 73.64 10.85
3/26/2021 11:15:00 AM 9.77 49.586 0.183 7.54 82.37 11.08
3/26/2021 11:30:00 AM 9.79 49.622 0.183 7.55 82.22 11.16
3/26/2021 11:45:00 AM 9.8 49.64 0.183 7.55 81.49 10.95
3/26/2021 12:00:00 PM 9.82 49.676 0.182 7.56 73.36 10.33
3/26/2021 12:15:00 PM 9.83 49.694 0.182 7.56 82.03 10.92
3/26/2021 12:30:00 PM 9.82 49.676 0.18 7.57 71.08 10.75
3/26/2021 12:45:00 PM 9.82 49.676 0.181 7.57 79.89 10.99
3/26/2021 1:00:00 PM 9.83 49.694 0.182 7.57 80.14 11.21
3/26/2021 1:15:00 PM 9.88 49.784 0.182 7.58 77.83 10.84
3/26/2021 1:30:00 PM 9.93 49.874 0.182 7.59 85.58 10.91
3/26/2021 1:45:00 PM 9.99 49.982 0.182 7.6 77.76 11.38
3/26/2021 2:00:00 PM 10.03 50.054 0.183 7.6 78.17 11.35
3/26/2021 2:15:00 PM 10.05 50.09 0.183 7.61 74.15 11.07
3/26/2021 2:30:00 PM 10.07 50.126 0.181 7.61 53.94 11.17
3/26/2021 2:45:00 PM 10.09 50.162 0.182 7.62 79.53 11.43
3/26/2021 3:00:00 PM 10.14 50.252 0.184 7.63 79.69 11.47
3/26/2021 3:15:00 PM 10.18 50.324 0.185 7.63 80.37 11.13
3/26/2021 3:30:00 PM 10.2 50.36 0.186 7.64 84.28 11.36
3/26/2021 3:45:00 PM 10.19 50.342 0.187 7.64 90.72 11.5
3/26/2021 4:00:00 PM 10.16 50.288 0.187 7.64 85.24 11.49
3/26/2021 4:15:00 PM 10.13 50.234 0.188 7.64 84.27 11.3
3/26/2021 4:30:00 PM 10.11 50.198 0.188 7.64 76.49 11.19
3/26/2021 4:45:00 PM 10.08 50.144 0.188 7.65 64.29 11.21
3/26/2021 5:00:00 PM 10.04 50.072 0.188 7.65 88.44 11.36
3/26/2021 5:15:00 PM 10 50 0.189 7.65 73.07 11.2
3/26/2021 5:30:00 PM 9.95 49.91 0.19 7.64 78.64 11.42
3/26/2021 5:45:00 PM 9.91 49.838 0.19 7.64 83.36 11.29
3/26/2021 6:00:00 PM 9.87 49.766 0.192 7.63 77.12 11.41
3/26/2021 6:15:00 PM 9.83 49.694 0.191 7.63 79.37 11.42
3/26/2021 6:30:00 PM 9.8 49.64 0.19 7.63 93.5 11.46
3/26/2021 6:45:00 PM 9.76 49.568 0.191 7.62 75.87 11.39
3/26/2021 7:00:00 PM 9.73 49.514 0.192 7.62 82.03 11.21
3/26/2021 7:15:00 PM 9.7 49.46 0.194 7.62 79.04 11.42
3/26/2021 7:30:00 PM 9.67 49.406 0.193 7.61 82.31 11.31
3/26/2021 7:45:00 PM 9.63 49.334 0.194 7.61 81.83 11.19
3/26/2021 8:00:00 PM 9.6 49.28 0.195 7.61 80.26 11.25
3/26/2021 8:15:00 PM 9.58 49.244 0.195 7.6 80.38 11.29
3/26/2021 8:30:00 PM 9.55 49.19 0.195 7.6 91.26 11.28
3/26/2021 8:45:00 PM 9.53 49.154 0.194 7.6 81.38 11.23
3/26/2021 9:00:00 PM 9.51 49.118 0.194 7.59 73.83 11.22
3/26/2021 9:15:00 PM 9.49 49.082 0.195 7.59 56.81 11.17
3/26/2021 9:30:00 PM 9.48 49.064 0.195 7.59 59.35 11.29
3/26/2021 9:45:00 PM 9.47 49.046 0.196 7.59 61.34 10.94
3/26/2021 10:00:00 PM 9.45 49.01 0.197 7.59 54.55 11.17
3/26/2021 10:15:00 PM 9.44 48.992 0.197 7.59 59.23 11.19
3/26/2021 10:30:00 PM 9.42 48.956 0.197 7.58 70.76 10.88
3/26/2021 10:45:00 PM 9.4 48.92 0.198 7.58 63.66 10.99
3/26/2021 11:00:00 PM 9.37 48.866 0.198 7.58 53.92 10.94
3/26/2021 11:15:00 PM 9.35 48.83 0.197 7.58 60.13 11.08
3/26/2021 11:30:00 PM 9.32 48.776 0.198 7.57 73.99 11
3/26/2021 11:45:00 PM 9.29 48.722 0.199 7.57 65.04 11.12
3/27/2021 12:00:00 AM 9.27 48.686 0.2 7.57 56.84 10.84
3/27/2021 12:15:00 AM 9.24 48.632 0.198 7.57 65.19 10.58
3/27/2021 12:30:00 AM 9.21 48.578 0.198 7.57 71.13 10.6
3/27/2021 12:45:00 AM 9.18 48.524 0.197 7.56 53.07 11.08
3/27/2021 1:00:00 AM 9.14 48.452 0.199 7.56 70.52 11.13
3/27/2021 1:15:00 AM 9.11 48.398 0.196 7.56 62.59 10.93
3/27/2021 1:30:00 AM 9.08 48.344 0.196 7.56 62.57 11
3/27/2021 1:45:00 AM 9.05 48.29 0.197 7.56 47.75 10.31
3/27/2021 2:00:00 AM 9.02 48.236 0.196 7.56 54.41 10.81
3/27/2021 2:15:00 AM 8.99 48.182 0.195 7.55 65.11 11.18
3/27/2021 2:30:00 AM 8.97 48.146 0.196 7.55 63.51 10.93
3/27/2021 2:45:00 AM 8.94 48.092 0.196 7.55 73.47 10.64
3/27/2021 3:00:00 AM 8.93 48.074 0.196 7.55 44.31 10.72
3/27/2021 3:15:00 AM 8.91 48.038 0.197 7.55 52.37 11.11
3/27/2021 3:30:00 AM 8.9 48.02 0.197 7.54 60.17 10.58
3/27/2021 3:45:00 AM 8.89 48.002 0.197 7.54 62.64 10.87
3/27/2021 4:00:00 AM 8.89 48.002 0.198 7.54 55.42 10.67
3/27/2021 4:15:00 AM 8.89 48.002 0.197 7.54 59.08 10.56
3/27/2021 4:30:00 AM 8.89 48.002 0.197 7.54 63.72 10.66
3/27/2021 4:45:00 AM 8.88 47.984 0.198 7.53 64.75 10.98
3/27/2021 5:00:00 AM 8.88 47.984 0.198 7.53 64.37 11.07
3/27/2021 5:15:00 AM 8.88 47.984 0.198 7.53 47.63 11.04
3/27/2021 5:30:00 AM 8.87 47.966 0.199 7.52 62.14 11.14
3/27/2021 5:45:00 AM 8.86 47.948 0.199 7.52 66.89 11.11
3/27/2021 6:00:00 AM 8.85 47.93 0.2 7.52 64.74 10.98
3/27/2021 6:15:00 AM 8.84 47.912 0.201 7.51 63.39 11.08
3/27/2021 6:30:00 AM 8.83 47.894 0.2 7.51 65.05 11.01
3/27/2021 6:45:00 AM 8.82 47.876 0.2 7.51 63.37 10.9
3/27/2021 7:00:00 AM 8.81 47.858 0.2 7.51 46.43 10.43
3/27/2021 7:15:00 AM 8.79 47.822 0.201 7.51 65.1 10.05
3/27/2021 7:30:00 AM 8.78 47.804 0.202 7.51 68.01 10.77
3/27/2021 7:45:00 AM 8.77 47.786 0.2 7.51 66.33 10.41
3/27/2021 8:00:00 AM 8.75 47.75 0.2 7.51 66.63 10.7
3/27/2021 8:15:00 AM 8.74 47.732 0.2 7.51 66.01 10.7
3/27/2021 8:30:00 AM 8.73 47.714 0.2 7.51 63.82 9.93
3/27/2021 8:45:00 AM 8.72 47.696 0.2 7.51 64.94 11.12
3/27/2021 9:00:00 AM 8.72 47.696 0.199 7.51 68.12 10.93
3/27/2021 9:15:00 AM 8.71 47.678 0.198 7.52 69.88 10.65
3/27/2021 9:30:00 AM 8.71 47.678 0.198 7.53 84.99 10.96
3/27/2021 9:45:00 AM 8.72 47.696 0.198 7.53 67.31 11.13
3/27/2021 10:00:00 AM 8.74 47.732 0.198 7.54 68.27 11.08
3/27/2021 10:15:00 AM 8.76 47.768 0.199 7.55 62.51 11.18
3/27/2021 10:30:00 AM 8.79 47.822 0.2 7.56 71.75 11.23
3/27/2021 10:45:00 AM 8.84 47.912 0.199 7.57 59.82 11.01
3/27/2021 11:00:00 AM 8.91 48.038 0.198 7.57 65.74 11.2
3/27/2021 11:15:00 AM 8.98 48.164 0.198 7.58 68.58 11.35
3/27/2021 11:30:00 AM 9.02 48.236 0.2 7.59 64.62 11.11
3/27/2021 11:45:00 AM 9.07 48.326 0.2 7.6 66.35 11.53
3/27/2021 12:00:00 PM 9.1 48.38 0.201 7.61 64.21 11.42
3/27/2021 12:15:00 PM 9.13 48.434 0.2 7.62 66.91 11.17
3/27/2021 12:30:00 PM 9.17 48.506 0.201 7.62 63.5 11.51
3/27/2021 12:45:00 PM 9.23 48.614 0.202 7.63 49.39 11.5
3/27/2021 1:00:00 PM 9.31 48.758 0.203 7.64 64.96 11.42
3/27/2021 1:15:00 PM 9.36 48.848 0.203 7.65 63.1 11.18
3/27/2021 1:30:00 PM 9.42 48.956 0.204 7.66 63.71 11.73
3/27/2021 1:45:00 PM 9.44 48.992 0.205 7.67 65.94 11.33
3/27/2021 2:00:00 PM 9.49 49.082 0.205 7.67 67.55 11.74
3/27/2021 2:15:00 PM 9.55 49.19 0.205 7.68 64.6 11.56
3/27/2021 2:30:00 PM 9.6 49.28 0.205 7.68 68.56 11.11
3/27/2021 2:45:00 PM 9.64 49.352 0.206 7.69 68.69 11.16
3/27/2021 3:00:00 PM 9.67 49.406 0.206 7.69 59.63 11.73
3/27/2021 3:15:00 PM 9.71 49.478 0.207 7.7 67.59 11.64
3/27/2021 3:30:00 PM 9.76 49.568 0.206 7.71 56.3 11.49
3/27/2021 3:45:00 PM 9.8 49.64 0.207 7.72 68.15 11.51
3/27/2021 4:00:00 PM 9.83 49.694 0.206 7.72 67.47 11.78
3/27/2021 4:15:00 PM 9.85 49.73 0.207 7.73 76.23 11.75
3/27/2021 4:30:00 PM 9.86 49.748 0.205 7.73 69.44 10.87
3/27/2021 4:45:00 PM 9.87 49.766 0.206 7.73 67.12 11.58
3/27/2021 5:00:00 PM 9.88 49.784 0.205 7.74 70.12 11.71
3/27/2021 5:15:00 PM 9.89 49.802 0.202 7.74 70.36 11.61
3/27/2021 5:30:00 PM 9.9 49.82 0.203 7.74 69.79 11.07
3/27/2021 5:45:00 PM 9.9 49.82 0.203 7.75 69.64 11.31
3/27/2021 6:00:00 PM 9.89 49.802 0.204 7.74 72.48 11.48
3/27/2021 6:15:00 PM 9.87 49.766 0.203 7.74 70.54 11.09
3/27/2021 6:30:00 PM 9.85 49.73 0.204 7.73 73.87 11.03
3/27/2021 6:45:00 PM 9.83 49.694 0.204 7.73 71.81 10.87
3/27/2021 7:00:00 PM 9.82 49.676 0.203 7.72 75.37 8.95
3/27/2021 7:15:00 PM 9.81 49.658 0.203 7.72 77.59 9.31
3/27/2021 7:30:00 PM 9.8 49.64 0.203 7.71 70.63 10
3/27/2021 7:45:00 PM 9.77 49.586 0.203 7.7 70.09 9.99
3/27/2021 8:00:00 PM 9.75 49.55 0.203 7.69 69.74 10.25
3/27/2021 8:15:00 PM 9.73 49.514 0.204 7.69 71.05 9.07
3/27/2021 8:30:00 PM 9.7 49.46 0.205 7.68 70.19 9.92
3/27/2021 8:45:00 PM 9.67 49.406 0.202 7.67 68.88 10.55
3/27/2021 9:00:00 PM 9.65 49.37 0.202 7.66 61.22 9.51
3/27/2021 9:15:00 PM 9.63 49.334 0.185 7.66 73.05 10.65
3/27/2021 9:30:00 PM 9.62 49.316 0.18 7.65 71.31 10.54
3/27/2021 9:45:00 PM 9.6 49.28 0.178 7.64 71.43 10.49
3/27/2021 10:00:00 PM 9.59 49.262 0.195 7.63 69.6 9.31
3/27/2021 10:15:00 PM 9.58 49.244 0.197 7.63 71.07 10.48
3/27/2021 10:30:00 PM 9.58 49.244 0.199 7.62 69.38 10.58
3/27/2021 10:45:00 PM 9.57 49.226 0.2 7.62 67.89 9.87
3/27/2021 11:00:00 PM 9.57 49.226 0.201 7.61 68.85 10.46
3/27/2021 11:15:00 PM 9.57 49.226 0.201 7.61 71.34 10.6
3/27/2021 11:30:00 PM 9.58 49.244 0.202 7.61 75.44 10.4
3/27/2021 11:45:00 PM 9.58 49.244 0.201 7.61 70.32 10.48
3/28/2021 12:00:00 AM 9.59 49.262 0.201 7.6 76.31 10.45
3/28/2021 12:15:00 AM 9.6 49.28 0.202 7.6 67.64 10.43
3/28/2021 12:30:00 AM 9.61 49.298 0.203 7.6 70.11 10.49
3/28/2021 12:45:00 AM 9.62 49.316 0.202 7.6 72.35 9.89
3/28/2021 1:00:00 AM 9.62 49.316 0.202 7.6 73.18 10.34
3/28/2021 1:15:00 AM 9.63 49.334 0.202 7.6 77.54 10.03
3/28/2021 1:30:00 AM 9.63 49.334 0.203 7.59 74.21 9.98
3/28/2021 1:45:00 AM 9.63 49.334 0.202 7.59 74.45 9.78
3/28/2021 2:00:00 AM 9.62 49.316 0.202 7.59 74.87 10.28
3/28/2021 2:15:00 AM 9.61 49.298 0.201 7.57 78.46 8.99
3/28/2021 2:30:00 AM 9.6 49.28 0.2 7.58 76.03 10.27
3/28/2021 2:45:00 AM 9.59 49.262 0.2 7.58 77.2 10.51
3/28/2021 3:00:00 AM 9.57 49.226 0.2 7.58 80.68 10.38
3/28/2021 3:15:00 AM 9.55 49.19 0.199 7.58 76.13 10.52
3/28/2021 3:30:00 AM 9.53 49.154 0.2 7.58 55.46 10.28
3/28/2021 3:45:00 AM 9.51 49.118 0.201 7.57 78.5 10.65
3/28/2021 4:00:00 AM 9.49 49.082 0.202 7.57 70.25 10.08
3/28/2021 4:15:00 AM 9.46 49.028 0.202 7.57 71.41 10.43
3/28/2021 4:30:00 AM 9.44 48.992 0.202 7.56 80.12 10.19
3/28/2021 4:45:00 AM 9.41 48.938 0.203 7.56 68.39 9.62
3/28/2021 5:00:00 AM 9.39 48.902 0.204 7.56 78 10.33
3/28/2021 5:15:00 AM 9.36 48.848 0.204 7.56 82.49 10.15
3/28/2021 5:30:00 AM 9.34 48.812 0.205 7.56 78.94 8.73
3/28/2021 5:45:00 AM 9.32 48.776 0.205 7.56 79.63 10.01
3/28/2021 6:00:00 AM 9.31 48.758 0.203 7.55 77.51 10.41
3/28/2021 6:15:00 AM 9.29 48.722 0.203 7.55 80.97 10.36
3/28/2021 6:30:00 AM 9.28 48.704 0.203 7.54 80.77 8.77
3/28/2021 6:45:00 AM 9.27 48.686 0.202 7.55 84.85 8.94
3/28/2021 7:00:00 AM 9.26 48.668 0.202 7.55 75.07 9.37
3/28/2021 7:15:00 AM 9.25 48.65 0.203 7.54 80.22 10.4
3/28/2021 7:30:00 AM 9.25 48.65 0.202 7.54 75.24 10.29
3/28/2021 7:45:00 AM 9.24 48.632 0.202 7.54 86.19 8.54
3/28/2021 8:00:00 AM 9.24 48.632 0.203 7.54 77.41 9.63
3/28/2021 8:15:00 AM 9.24 48.632 0.203 7.54 79.53 8.58
3/28/2021 8:30:00 AM 9.24 48.632 0.203 7.54 79.51 9
3/28/2021 8:45:00 AM 9.25 48.65 0.203 7.54 83.26 9.66
3/28/2021 9:00:00 AM 9.25 48.65 0.203 7.54 77.42 10.26
3/28/2021 9:15:00 AM 9.25 48.65 0.203 7.54 66.32 9.19
3/28/2021 9:30:00 AM 9.24 48.632 0.204 7.54 82.71 10.28
3/28/2021 9:45:00 AM 9.24 48.632 0.204 7.55 81.9 9.09
3/28/2021 10:00:00 AM 9.24 48.632 0.204 7.54 84.73 10.25
3/28/2021 10:15:00 AM 9.24 48.632 0.204 7.55 84.34 9.59
3/28/2021 10:30:00 AM 9.24 48.632 0.203 7.55 82.06 9.4
3/28/2021 10:45:00 AM 9.25 48.65 0.204 7.55 82.83 10.03
3/28/2021 11:00:00 AM 9.25 48.65 0.203 7.55 93.18 9.75
3/28/2021 11:15:00 AM 9.25 48.65 0.203 7.56 96.93 10.34
3/28/2021 11:30:00 AM 9.25 48.65 0.202 7.56 79.11 9.9
3/28/2021 11:45:00 AM 9.25 48.65 0.201 7.56 85.91 9.76
3/28/2021 12:00:00 PM 9.25 48.65 0.2 7.57 83.52 10.16
3/28/2021 12:15:00 PM 9.25 48.65 0.199 7.57 78.48 9.92
3/28/2021 12:30:00 PM 9.27 48.686 0.2 7.58 189.89 9.69
3/28/2021 12:45:00 PM 9.28 48.704 0.199 7.58 92.73 9.51
3/28/2021 1:00:00 PM 9.29 48.722 0.199 7.59 91.53 9.38
3/28/2021 1:15:00 PM 9.3 48.74 0.2 7.6 100.83 9.29
3/28/2021 1:30:00 PM 9.31 48.758 0.2 7.61 198.39 9.47
3/28/2021 1:45:00 PM 9.32 48.776 0.199 7.61 114.06 10.19
3/28/2021 2:00:00 PM 9.33 48.794 0.2 7.62 114.81 10.26
3/28/2021 2:15:00 PM 9.33 48.794 0.199 7.63 90.9 9.18
3/28/2021 2:30:00 PM 9.35 48.83 0.197 7.64 71.87 8.78
3/28/2021 2:45:00 PM 9.38 48.884 0.199 7.65 72.22 10.19
3/28/2021 3:00:00 PM 9.4 48.92 0.197 7.65 74.39 10.3
3/28/2021 3:15:00 PM 9.41 48.938 0.197 7.66 71.62 10.07
3/28/2021 3:30:00 PM 9.42 48.956 0.196 7.67 78.69 9.61
3/28/2021 3:45:00 PM 9.41 48.938 0.195 7.67 69.34 9.82
3/28/2021 4:00:00 PM 9.4 48.92 0.197 7.68 57.46 9.59
3/28/2021 4:15:00 PM 9.38 48.884 0.198 7.67 70.92 10.98
3/28/2021 4:30:00 PM 9.37 48.866 0.197 7.67 72.12 11
3/28/2021 4:45:00 PM 9.35 48.83 0.196 7.67 73.95 11.07
3/28/2021 5:00:00 PM 9.32 48.776 0.196 7.67 72.94 10.91
3/28/2021 5:15:00 PM 9.3 48.74 0.194 7.66 79.37 10.21
3/28/2021 5:30:00 PM 9.28 48.704 0.194 7.66 76.73 10.55
3/28/2021 5:45:00 PM 9.25 48.65 0.193 7.67 73.88 10.32
3/28/2021 6:00:00 PM 9.22 48.596 0.194 7.67 75.31 10.89
3/28/2021 6:15:00 PM 9.18 48.524 0.194 7.67 75.99 10.32
3/28/2021 6:30:00 PM 9.15 48.47 0.195 7.67 77.55 10.55
3/28/2021 6:45:00 PM 9.12 48.416 0.196 7.67 72.47 11.22
3/28/2021 7:00:00 PM 9.1 48.38 0.197 7.66 79.03 10.26
3/28/2021 7:15:00 PM 9.07 48.326 0.198 7.66 83.52 10.74
3/28/2021 7:30:00 PM 9.04 48.272 0.198 7.66 65.15 10.51
3/28/2021 7:45:00 PM 9.01 48.218 0.198 7.66 78.58 9.81
3/28/2021 8:00:00 PM 8.97 48.146 0.198 7.66 78.09 10.46
3/28/2021 8:15:00 PM 8.93 48.074 0.197 7.65 76.79 10.63
3/28/2021 8:30:00 PM 8.88 47.984 0.198 7.64 89.49 10.76
3/28/2021 8:45:00 PM 8.84 47.912 0.198 7.64 79.5 10.35
3/28/2021 9:00:00 PM 8.8 47.84 0.198 7.63 74.59 10.47
3/28/2021 9:15:00 PM 8.77 47.786 0.198 7.63 75.01 10.36
3/28/2021 9:30:00 PM 8.73 47.714 0.2 7.63 79.63 10.32
3/28/2021 9:45:00 PM 8.69 47.642 0.199 7.62 82.22 10.08
3/28/2021 10:00:00 PM 8.66 47.588 0.199 7.61 79.26 10.43
3/28/2021 10:15:00 PM 8.63 47.534 0.199 7.62 79.38 10
3/28/2021 10:30:00 PM 8.61 47.498 0.199 7.61 81.35 10.13
3/28/2021 10:45:00 PM 8.58 47.444 0.198 7.61 76.63 10.01
3/28/2021 11:00:00 PM 8.55 47.39 0.198 7.61 83.14 10.05
3/28/2021 11:15:00 PM 8.54 47.372 0.2 7.61 79.55 10
3/28/2021 11:30:00 PM 8.52 47.336 0.199 7.61 77.74 10.3
3/28/2021 11:45:00 PM 8.5 47.3 0.2 7.61 92.08 10
3/29/2021 12:00:00 AM 8.47 47.246 0.199 7.61 81.27 10.33
3/29/2021 12:15:00 AM 8.44 47.192 0.199 7.6 85.15 9.57
3/29/2021 12:30:00 AM 8.4 47.12 0.199 7.6 83.86 9.9
3/29/2021 12:45:00 AM 8.38 47.084 0.199 7.6 85.33 9.78
3/29/2021 1:00:00 AM 8.35 47.03 0.2 7.6 95.49 9.42
3/29/2021 1:15:00 AM 8.33 46.994 0.2 7.6 88.36 8.01
3/29/2021 1:30:00 AM 8.29 46.922 0.2 7.6 84.2 9.42
3/29/2021 1:45:00 AM 8.26 46.868 0.201 7.6 80.02 9.36
3/29/2021 2:00:00 AM 8.24 46.832 0.202 7.6 84.54 9.98
3/29/2021 2:15:00 AM 8.21 46.778 0.202 7.6 84.49 9.81
3/29/2021 2:30:00 AM 8.19 46.742 0.203 7.6 84.4 9.92
3/29/2021 2:45:00 AM 8.16 46.688 0.202 7.6 86.92 9.71
3/29/2021 3:00:00 AM 8.14 46.652 0.202 7.6 81.43 9.61
3/29/2021 3:15:00 AM 8.11 46.598 0.202 7.59 87.08 10.1
3/29/2021 3:30:00 AM 8.09 46.562 0.202 7.6 85.54 9.76
3/29/2021 3:45:00 AM 8.07 46.526 0.202 7.59 87.15 10.12
3/29/2021 4:00:00 AM 8.05 46.49 0.203 7.59 92.39 10.17
3/29/2021 4:15:00 AM 8.02 46.436 0.203 7.6 82.72 9.92
3/29/2021 4:30:00 AM 7.98 46.364 0.203 7.6 86.09 9.96
3/29/2021 4:45:00 AM 7.96 46.328 0.203 7.59 75.84 9.64
3/29/2021 5:00:00 AM 7.91 46.238 0.203 7.59 88.45 9.67
3/29/2021 5:15:00 AM 7.87 46.166 0.203 7.59 85.78 9.78
3/29/2021 5:30:00 AM 7.84 46.112 0.203 7.59 87.74 10.09
3/29/2021 5:45:00 AM 7.8 46.04 0.203 7.59 79.67 10.06
3/29/2021 6:00:00 AM 7.75 45.95 0.202 7.59 60.4 10.05
3/29/2021 6:15:00 AM 7.71 45.878 0.202 7.59 86.01 9.76
3/29/2021 6:30:00 AM 7.67 45.806 0.202 7.59 424.43 9.44
3/29/2021 6:45:00 AM 7.62 45.716 0.202 7.6 1333.98 9.78
3/29/2021 7:00:00 AM 7.57 45.626 0.202 7.59 87.37 9.97
3/29/2021 7:15:00 AM 7.53 45.554 0.202 7.59 87.31 10.19
3/29/2021 7:30:00 AM 7.48 45.464 0.201 7.59 87.45 9.71
3/29/2021 7:45:00 AM 7.45 45.41 0.202 7.59 80.12 9.69
3/29/2021 8:00:00 AM 7.4 45.32 0.201 7.59 91.47 10.11
3/29/2021 8:15:00 AM 7.36 45.248 0.201 7.58 87.14 10.22
3/29/2021 8:30:00 AM 7.33 45.194 0.201 7.58 89.73 9.7
3/29/2021 8:45:00 AM 7.29 45.122 0.202 7.6 92.36 9.95
3/29/2021 9:00:00 AM 7.26 45.068 0.202 7.6 93.39 9.29
3/29/2021 9:15:00 AM 7.23 45.014 0.201 7.61 89.93 9.95
3/29/2021 9:30:00 AM 7.21 44.978 0.201 7.62 92.06 10.06
3/29/2021 9:45:00 AM 7.19 44.942 0.201 7.62 90.19 9.58
3/29/2021 10:00:00 AM 7.18 44.924 0.202 7.64 84.06 9.79
3/29/2021 10:15:00 AM 7.16 44.888 0.201 7.64 82.5 10.2
3/29/2021 10:30:00 AM 7.16 44.888 0.201 7.65 90.15 8.9
3/29/2021 10:45:00 AM 7.15 44.87 0.202 7.66 89.41 10.6
3/29/2021 11:00:00 AM 7.14 44.852 0.202 7.67 87.95 10.63
3/29/2021 11:15:00 AM 7.14 44.852 0.203 7.68 76.96 10.68
3/29/2021 11:30:00 AM 7.16 44.888 0.204 7.68 101.06 10.92
3/29/2021 11:45:00 AM 0 32 0 0 0 0
3/29/2021 12:00:00 PM 7.31 45.158 0.229 7.93 12.55 11.59
3/29/2021 12:15:00 PM 7.36 45.248 0.229 7.96 11.81 11.63
3/29/2021 12:30:00 PM 7.47 45.446 0.229 7.96 11.68 11.67
3/29/2021 12:45:00 PM 7.58 45.644 0.229 7.96 10.75 11.69
3/29/2021 1:00:00 PM 7.7 45.86 0.229 7.98 11.37 11.72
3/29/2021 1:15:00 PM 7.82 46.076 0.229 7.99 11.14 11.76
3/29/2021 1:30:00 PM 7.93 46.274 0.229 8 20.77 11.79
3/29/2021 1:45:00 PM 8.01 46.418 0.228 8.01 12.15 11.81
3/29/2021 2:00:00 PM 8.07 46.526 0.228 8.02 11.59 11.84
3/29/2021 2:15:00 PM 8.13 46.634 0.228 8.03 11.07 11.87
3/29/2021 2:30:00 PM 8.2 46.76 0.229 8.04 11.49 11.89
3/29/2021 2:45:00 PM 8.26 46.868 0.229 8.05 10.87 11.91
3/29/2021 3:00:00 PM 8.3 46.94 0.229 8.06 11.08 11.94
3/29/2021 3:15:00 PM 8.35 47.03 0.229 8.07 11.64 11.96
3/29/2021 3:30:00 PM 8.36 47.048 0.23 8.08 10.9 11.98
3/29/2021 3:45:00 PM 8.39 47.102 0.23 8.09 10.33 12
3/29/2021 4:00:00 PM 8.41 47.138 0.231 8.09 10.66 12.02
3/29/2021 4:15:00 PM 8.43 47.174 0.231 8.1 10.85 12.02
3/29/2021 4:30:00 PM 8.43 47.174 0.231 8.1 10.32 12.03
3/29/2021 4:45:00 PM 8.43 47.174 0.232 8.11 10.11 12.04
3/29/2021 5:00:00 PM 8.43 47.174 0.232 8.11 10.37 12.05
3/29/2021 5:15:00 PM 8.42 47.156 0.232 8.11 10.64 12.05
3/29/2021 5:30:00 PM 8.4 47.12 0.232 8.12 11.22 12.05
3/29/2021 5:45:00 PM 8.38 47.084 0.232 8.12 11.12 12.05
3/29/2021 6:00:00 PM 8.36 47.048 0.233 8.12 11.11 12.05
3/29/2021 6:15:00 PM 8.33 46.994 0.233 8.12 11.72 12.03
3/29/2021 6:30:00 PM 8.29 46.922 0.233 8.12 12.17 12.03
3/29/2021 6:45:00 PM 8.25 46.85 0.233 8.11 10.57 12.02
3/29/2021 7:00:00 PM 8.2 46.76 0.233 8.11 11.43 12.01
3/29/2021 7:15:00 PM 8.15 46.67 0.233 8.1 12.04 12
3/29/2021 7:30:00 PM 8.09 46.562 0.233 8.1 11.34 11.99
3/29/2021 7:45:00 PM 8.03 46.454 0.233 8.09 11.33 11.96
3/29/2021 8:00:00 PM 7.97 46.346 0.234 8.08 12.85 11.94
3/29/2021 8:15:00 PM 7.91 46.238 0.234 8.07 11.59 11.92
3/29/2021 8:30:00 PM 7.85 46.13 0.234 8.06 11.11 11.9
3/29/2021 8:45:00 PM 7.8 46.04 0.235 8.05 12.67 11.87
3/29/2021 9:00:00 PM 7.76 45.968 0.235 8.05 11.2 11.85
3/29/2021 9:15:00 PM 7.72 45.896 0.235 8.04 11.19 11.84
3/29/2021 9:30:00 PM 7.69 45.842 0.235 8.04 11.22 11.82
3/29/2021 9:45:00 PM 7.67 45.806 0.235 8.03 11.31 11.8
3/29/2021 10:00:00 PM 7.64 45.752 0.235 8.03 12.14 11.79
3/29/2021 10:15:00 PM 7.63 45.734 0.235 8.03 12.78 11.79
3/29/2021 10:30:00 PM 7.61 45.698 0.235 8.03 11.11 11.78
3/29/2021 10:45:00 PM 7.59 45.662 0.234 8.02 11.32 11.77
3/29/2021 11:00:00 PM 7.58 45.644 0.234 8.02 11.47 11.76
3/29/2021 11:15:00 PM 7.56 45.608 0.234 8.02 10.77 11.76
3/29/2021 11:30:00 PM 7.55 45.59 0.234 8.02 12.05 11.75
3/29/2021 11:45:00 PM 7.53 45.554 0.233 8.02 11.37 11.73
3/30/2021 12:00:00 AM 7.52 45.536 0.233 8.01 10.79 11.72
3/30/2021 12:15:00 AM 7.5 45.5 0.233 8.01 11.68 11.71
3/30/2021 12:30:00 AM 7.49 45.482 0.233 8.01 11.83 11.7
3/30/2021 12:45:00 AM 7.48 45.464 0.233 8.01 10.88 11.69
3/30/2021 1:00:00 AM 7.47 45.446 0.233 8.01 11.31 11.67
3/30/2021 1:15:00 AM 7.46 45.428 0.233 8 11.02 11.66
3/30/2021 1:30:00 AM 7.46 45.428 0.233 8 11.45 11.64
3/30/2021 1:45:00 AM 7.45 45.41 0.233 8 11.6 11.63
3/30/2021 2:00:00 AM 7.44 45.392 0.232 8 11.1 11.62
3/30/2021 2:15:00 AM 7.44 45.392 0.232 7.99 11.22 11.6
3/30/2021 2:30:00 AM 7.45 45.41 0.232 7.99 11.14 11.59
3/30/2021 2:45:00 AM 7.44 45.392 0.232 7.99 12.89 11.58
3/30/2021 3:00:00 AM 7.43 45.374 0.231 7.99 11.04 11.57
3/30/2021 3:15:00 AM 7.41 45.338 0.231 7.99 11.76 11.57
3/30/2021 3:30:00 AM 7.4 45.32 0.231 7.99 11.47 11.56
3/30/2021 3:45:00 AM 7.37 45.266 0.231 7.99 11.47 11.55
3/30/2021 4:00:00 AM 7.35 45.23 0.231 7.99 11.79 11.55
3/30/2021 4:15:00 AM 7.31 45.158 0.23 7.99 11.08 11.54
3/30/2021 4:30:00 AM 7.28 45.104 0.23 7.99 10.74 11.54
3/30/2021 4:45:00 AM 7.24 45.032 0.23 7.98 11.23 11.53
3/30/2021 5:00:00 AM 7.2 44.96 0.23 7.98 11.49 11.53
3/30/2021 5:15:00 AM 7.16 44.888 0.23 7.98 12.07 11.53
3/30/2021 5:30:00 AM 7.11 44.798 0.23 7.97 12.17 11.52
3/30/2021 5:45:00 AM 7.07 44.726 0.23 7.96 11.91 11.51
3/30/2021 6:00:00 AM 7.03 44.654 0.23 7.97 9.96 11.51
3/30/2021 6:15:00 AM 6.99 44.582 0.23 7.96 12.38 11.51
3/30/2021 6:30:00 AM 6.94 44.492 0.229 7.96 12.01 11.5
3/30/2021 6:45:00 AM 6.9 44.42 0.229 7.95 11.86 11.5
3/30/2021 7:00:00 AM 6.86 44.348 0.229 7.95 12.01 11.5
3/30/2021 7:15:00 AM 6.82 44.276 0.228 7.95 13.46 11.5
3/30/2021 7:30:00 AM 6.8 44.24 0.228 7.94 11.38 11.5
3/30/2021 7:45:00 AM 6.77 44.186 0.228 7.94 11.95 11.51
3/30/2021 8:00:00 AM 6.75 44.15 0.227 7.94 11.76 11.53
3/30/2021 8:15:00 AM 6.74 44.132 0.227 7.94 12.61 11.55
3/30/2021 8:30:00 AM 6.74 44.132 0.226 7.95 11.47 11.58
3/30/2021 8:45:00 AM 6.76 44.168 0.226 7.96 11.75 11.62
3/30/2021 9:00:00 AM 6.78 44.204 0.226 7.96 11.3 11.65
3/30/2021 9:15:00 AM 6.81 44.258 0.226 7.97 11.03 11.69
3/30/2021 9:30:00 AM 6.85 44.33 0.225 7.98 12.14 11.73
3/30/2021 9:45:00 AM 6.91 44.438 0.225 7.99 10.97 11.76
3/30/2021 10:00:00 AM 6.98 44.564 0.225 7.99 10.76 11.8
3/30/2021 10:15:00 AM 7.06 44.708 0.225 8 12.03 11.83
3/30/2021 10:30:00 AM 7.15 44.87 0.225 8.01 10.99 11.87
3/30/2021 10:45:00 AM 7.24 45.032 0.225 8.01 11.84 11.9
3/30/2021 11:00:00 AM 7.33 45.194 0.225 8.02 11.52 11.92
3/30/2021 11:15:00 AM 7.43 45.374 0.225 8.03 11.64 11.95
3/30/2021 11:30:00 AM 7.52 45.536 0.224 8.04 11.26 11.97
3/30/2021 11:45:00 AM 7.61 45.698 0.224 8.04 11.66 12
3/30/2021 12:00:00 PM 7.71 45.878 0.223 8.05 11.37 12.02
3/30/2021 12:15:00 PM 7.8 46.04 0.223 8.06 12 12.05
3/30/2021 12:30:00 PM 7.9 46.22 0.223 8.07 11.81 12.07
3/30/2021 12:45:00 PM 7.99 46.382 0.222 8.07 12.29 12.09
3/30/2021 1:00:00 PM 8.09 46.562 0.222 8.08 11.91 12.11
3/30/2021 1:15:00 PM 8.18 46.724 0.221 8.09 12.13 12.13
3/30/2021 1:30:00 PM 8.27 46.886 0.221 8.1 12.24 12.14
3/30/2021 1:45:00 PM 8.35 47.03 0.22 8.1 12.37 12.16
3/30/2021 2:00:00 PM 8.43 47.174 0.22 8.1 11.85 12.18
3/30/2021 2:15:00 PM 8.51 47.318 0.22 8.11 12.28 12.19
3/30/2021 2:30:00 PM 8.57 47.426 0.22 8.11 12.3 12.2
3/30/2021 2:45:00 PM 8.64 47.552 0.22 8.12 12.42 12.2
3/30/2021 3:00:00 PM 8.69 47.642 0.22 8.12 13.33 12.2
3/30/2021 3:15:00 PM 8.75 47.75 0.22 8.12 12.18 12.21
3/30/2021 3:30:00 PM 8.8 47.84 0.22 8.13 13.34 12.23
3/30/2021 3:45:00 PM 8.83 47.894 0.22 8.13 12.75 12.23
3/30/2021 4:00:00 PM 8.87 47.966 0.22 8.13 13.38 12.24
3/30/2021 4:15:00 PM 8.89 48.002 0.22 8.14 13.22 12.25
3/30/2021 4:30:00 PM 8.91 48.038 0.22 8.14 12.74 12.25
3/30/2021 4:45:00 PM 8.93 48.074 0.22 8.14 13.18 12.25
3/30/2021 5:00:00 PM 8.93 48.074 0.22 8.15 12.81 12.25
3/30/2021 5:15:00 PM 8.94 48.092 0.22 8.15 12.91 12.25
3/30/2021 5:30:00 PM 8.94 48.092 0.22 8.15 13.23 12.24
3/30/2021 5:45:00 PM 8.94 48.092 0.22 8.15 13.04 12.23
3/30/2021 6:00:00 PM 8.92 48.056 0.22 8.15 13.43 12.22
3/30/2021 6:15:00 PM 8.9 48.02 0.22 8.14 21.16 12.19
3/30/2021 6:30:00 PM 8.88 47.984 0.22 8.14 13.64 12.18
3/30/2021 6:45:00 PM 8.86 47.948 0.22 8.13 12.66 12.16
3/30/2021 7:00:00 PM 8.84 47.912 0.22 8.12 13.55 12.14
3/30/2021 7:15:00 PM 8.82 47.876 0.221 8.12 12.78 12.12
3/30/2021 7:30:00 PM 8.8 47.84 0.221 8.11 12.56 12.09
3/30/2021 7:45:00 PM 8.77 47.786 0.221 8.1 12.67 12.06
3/30/2021 8:00:00 PM 8.74 47.732 0.221 8.09 13.56 12.02
3/30/2021 8:15:00 PM 8.71 47.678 0.222 8.08 12.17 11.98
3/30/2021 8:30:00 PM 8.68 47.624 0.222 8.07 12.49 11.95
3/30/2021 8:45:00 PM 8.66 47.588 0.222 8.06 12.58 11.91
3/30/2021 9:00:00 PM 8.65 47.57 0.222 8.05 11.72 11.88
3/30/2021 9:15:00 PM 8.64 47.552 0.222 8.04 13.51 11.85
3/30/2021 9:30:00 PM 8.65 47.57 0.222 8.04 13.07 11.83
3/30/2021 9:45:00 PM 8.65 47.57 0.222 8.03 12.1 11.79
3/30/2021 10:00:00 PM 8.67 47.606 0.222 8.03 12.92 11.77
3/30/2021 10:15:00 PM 8.68 47.624 0.222 8.02 12.49 11.75
3/30/2021 10:30:00 PM 8.69 47.642 0.222 8.02 12.27 11.73
3/30/2021 10:45:00 PM 8.7 47.66 0.222 8.01 12.96 11.7
3/30/2021 11:00:00 PM 8.72 47.696 0.222 8.01 12.68 11.67
3/30/2021 11:15:00 PM 8.74 47.732 0.222 8.01 12.24 11.64
3/30/2021 11:30:00 PM 8.76 47.768 0.222 8 12.94 11.62
3/30/2021 11:45:00 PM 8.77 47.786 0.222 7.99 11.21 11.58
3/31/2021 12:00:00 AM 8.79 47.822 0.222 7.99 12.49 11.56
3/31/2021 12:15:00 AM 8.81 47.858 0.223 7.99 11.84 11.53
3/31/2021 12:30:00 AM 8.82 47.876 0.223 7.98 12.12 11.5
3/31/2021 12:45:00 AM 8.84 47.912 0.223 7.98 11.99 11.47
3/31/2021 1:00:00 AM 8.85 47.93 0.224 7.97 13.06 11.44
3/31/2021 1:15:00 AM 8.87 47.966 0.224 7.97 14.25 11.41
3/31/2021 1:30:00 AM 8.89 48.002 0.224 7.97 13.65 11.38
3/31/2021 1:45:00 AM 8.9 48.02 0.224 7.96 12.22 11.36
3/31/2021 2:00:00 AM 8.92 48.056 0.224 7.96 11.44 11.33
3/31/2021 2:15:00 AM 8.93 48.074 0.224 7.96 12.17 11.31
3/31/2021 2:30:00 AM 8.94 48.092 0.224 7.95 12.25 11.28
3/31/2021 2:45:00 AM 8.95 48.11 0.224 7.95 12.65 11.25
3/31/2021 3:00:00 AM 8.97 48.146 0.224 7.94 12.69 11.24
3/31/2021 3:15:00 AM 8.97 48.146 0.224 7.94 12.38 11.22
3/31/2021 3:30:00 AM 8.97 48.146 0.224 7.94 12.73 11.19
3/31/2021 3:45:00 AM 8.96 48.128 0.224 7.93 12.52 11.18
3/31/2021 4:00:00 AM 8.96 48.128 0.224 7.94 12.84 11.16
3/31/2021 4:15:00 AM 8.96 48.128 0.224 7.93 12.63 11.14
3/31/2021 4:30:00 AM 8.96 48.128 0.224 7.93 12.02 11.13
3/31/2021 4:45:00 AM 8.96 48.128 0.224 7.93 13.05 11.11
3/31/2021 5:00:00 AM 8.96 48.128 0.224 7.92 12.61 11.09
3/31/2021 5:15:00 AM 8.96 48.128 0.224 7.92 12.36 11.08
3/31/2021 5:30:00 AM 8.95 48.11 0.224 7.92 12.86 11.06
3/31/2021 5:45:00 AM 8.95 48.11 0.225 7.91 11.96 11.04
3/31/2021 6:00:00 AM 8.95 48.11 0.225 7.92 12.42 11.03
3/31/2021 6:15:00 AM 8.94 48.092 0.225 7.91 12.15 11.02
3/31/2021 6:30:00 AM 8.94 48.092 0.226 7.91 13.03 11
3/31/2021 6:45:00 AM 8.94 48.092 0.226 7.9 11.84 10.99
3/31/2021 7:00:00 AM 8.93 48.074 0.226 7.9 12.73 10.97
3/31/2021 7:15:00 AM 8.93 48.074 0.226 7.9 12.44 10.95
3/31/2021 7:30:00 AM 8.92 48.056 0.227 7.9 12.15 10.94
3/31/2021 7:45:00 AM 8.92 48.056 0.227 7.89 12.66 10.94
3/31/2021 8:00:00 AM 8.93 48.074 0.227 7.9 11.9 10.94
3/31/2021 8:15:00 AM 8.93 48.074 0.227 7.9 12.11 10.95
3/31/2021 8:30:00 AM 8.93 48.074 0.227 7.9 12.58 10.96
3/31/2021 8:45:00 AM 8.94 48.092 0.227 7.9 11.81 10.96
3/31/2021 9:00:00 AM 8.95 48.11 0.227 7.91 11.6 10.97
3/31/2021 9:15:00 AM 8.95 48.11 0.227 7.91 11.84 10.97
3/31/2021 9:30:00 AM 8.97 48.146 0.227 7.92 13.26 10.99
3/31/2021 9:45:00 AM 8.98 48.164 0.227 7.92 12.22 11
3/31/2021 10:00:00 AM 8.99 48.182 0.228 7.92 15.48 11.03
3/31/2021 10:15:00 AM 9.01 48.218 0.228 7.93 11.26 11.04
3/31/2021 10:30:00 AM 9.02 48.236 0.228 7.93 12.03 11.06